Provisional Data: Kitchen Creek near Huntington Mills, PA


Please select a monitoring station.
Please select start date.
Please select start date.

Toggle Unit: C/F Toggle Unit: C/F
Sample Time Temperature (C) Temperature (F) Specific Conductivity (mS/cm) pH   Turbidity (NTU+) DO (mg/L)
9/6/2021 12:00:00 AM 16.93 62.474 0.044 6.46 12.03 9.69
9/6/2021 12:15:00 AM 16.92 62.456 0.044 6.46 11.09 9.7
9/6/2021 12:30:00 AM 16.92 62.456 0.043 6.45 10.43 9.7
9/6/2021 12:45:00 AM 16.92 62.456 0.043 6.44 9.7 9.7
9/6/2021 1:00:00 AM 16.91 62.438 0.043 6.44 9.33 9.7
9/6/2021 1:15:00 AM 16.9 62.42 0.043 6.43 8.79 9.71
9/6/2021 1:30:00 AM 16.89 62.402 0.044 6.44 9.3 9.71
9/6/2021 1:45:00 AM 16.88 62.384 0.045 6.45 9.35 9.71
9/6/2021 2:00:00 AM 16.87 62.366 0.045 6.45 9.67 9.71
9/6/2021 2:15:00 AM 16.87 62.366 0.046 6.45 9.76 9.71
9/6/2021 2:30:00 AM 16.87 62.366 0.046 6.46 9.75 9.71
9/6/2021 2:45:00 AM 16.87 62.366 0.046 6.47 8.66 9.7
9/6/2021 3:00:00 AM 16.85 62.33 0.046 6.48 8.02 9.71
9/6/2021 3:15:00 AM 16.84 62.312 0.046 6.46 7.67 9.71
9/6/2021 3:30:00 AM 16.83 62.294 0.046 6.46 7.03 9.71
9/6/2021 3:45:00 AM 16.82 62.276 0.047 6.46 6.5 9.71
9/6/2021 4:00:00 AM 16.8 62.24 0.047 6.46 6.3 9.72
9/6/2021 4:15:00 AM 16.78 62.204 0.047 6.46 6.32 9.72
9/6/2021 4:30:00 AM 16.77 62.186 0.046 6.45 6.11 9.72
9/6/2021 4:45:00 AM 16.74 62.132 0.046 6.45 5.77 9.72
9/6/2021 5:00:00 AM 16.72 62.096 0.046 6.46 5.9 9.73
9/6/2021 5:15:00 AM 16.69 62.042 0.046 6.45 5.6 9.74
9/6/2021 5:30:00 AM 16.66 61.988 0.046 6.45 5.54 9.75
9/6/2021 5:45:00 AM 16.63 61.934 0.046 6.44 5.32 9.75
9/6/2021 6:00:00 AM 16.59 61.862 0.046 6.44 5.2 9.76
9/6/2021 6:15:00 AM 16.55 61.79 0.046 6.45 5.06 9.77
9/6/2021 6:30:00 AM 16.51 61.718 0.046 6.44 4.94 9.78
9/6/2021 6:45:00 AM 16.47 61.646 0.046 6.46 4.76 9.79
9/6/2021 7:00:00 AM 16.44 61.592 0.046 6.45 4.67 9.8
9/6/2021 7:15:00 AM 16.41 61.538 0.046 6.45 4.55 9.81
9/6/2021 7:30:00 AM 16.38 61.484 0.046 6.45 4.74 9.82
9/6/2021 7:45:00 AM 16.35 61.43 0.046 6.45 4.36 9.83
9/6/2021 8:00:00 AM 16.33 61.394 0.046 6.45 4.42 9.84
9/6/2021 8:15:00 AM 16.32 61.376 0.046 6.46 4.2 9.85
9/6/2021 8:30:00 AM 16.31 61.358 0.046 6.47 4.23 9.87
9/6/2021 8:45:00 AM 16.32 61.376 0.046 6.48 4.39 9.88
9/6/2021 9:00:00 AM 16.32 61.376 0.046 6.47 4 9.88
9/6/2021 9:15:00 AM 16.34 61.412 0.046 6.5 4.05 9.87
9/6/2021 9:30:00 AM 16.35 61.43 0.046 6.51 4.11 9.87
9/6/2021 9:45:00 AM 16.38 61.484 0.046 6.52 3.95 9.88
9/6/2021 10:00:00 AM 16.41 61.538 0.046 6.52 3.98 9.89
9/6/2021 10:15:00 AM 16.44 61.592 0.045 6.52 3.85 9.89
9/6/2021 10:30:00 AM 16.49 61.682 0.045 6.53 4.15 9.9
9/6/2021 10:45:00 AM 16.54 61.772 0.045 6.54 3.81 9.89
9/6/2021 11:00:00 AM 16.59 61.862 0.045 6.54 3.78 9.88
9/6/2021 11:15:00 AM 16.64 61.952 0.045 6.55 3.64 9.86
9/6/2021 11:30:00 AM 16.72 62.096 0.045 6.54 3.6 9.85
9/6/2021 11:45:00 AM 16.82 62.276 0.045 6.55 3.62 9.84
9/6/2021 12:00:00 PM 16.91 62.438 0.045 6.55 3.56 9.82
9/6/2021 12:15:00 PM 17 62.6 0.045 6.56 3.51 9.81
9/6/2021 12:30:00 PM 17.09 62.762 0.045 6.57 3.56 9.79
9/6/2021 12:45:00 PM 17.17 62.906 0.045 6.58 3.48 9.78
9/6/2021 1:00:00 PM 17.21 62.978 0.045 6.58 3.51 9.77
9/6/2021 1:15:00 PM 17.25 63.05 0.045 6.58 3.52 9.76
9/6/2021 1:30:00 PM 17.3 63.14 0.045 6.58 3.38 9.74
9/6/2021 1:45:00 PM 17.32 63.176 0.045 6.58 3.28 9.73
9/6/2021 2:00:00 PM 17.35 63.23 0.045 6.57 3.73 9.71
9/6/2021 2:15:00 PM 17.36 63.248 0.046 6.58 3.51 9.71
9/6/2021 2:30:00 PM 17.37 63.266 0.046 6.58 3.44 9.69
9/6/2021 2:45:00 PM 17.39 63.302 0.046 6.58 3.44 9.68
9/6/2021 3:00:00 PM 17.4 63.32 0.046 6.58 3.35 9.7
9/6/2021 3:15:00 PM 17.41 63.338 0.046 6.58 3.44 9.69
9/6/2021 3:30:00 PM 17.42 63.356 0.046 6.58 3.36 9.67
9/6/2021 3:45:00 PM 17.42 63.356 0.046 6.57 3.34 9.66
9/6/2021 4:00:00 PM 17.42 63.356 0.046 6.56 3.27 9.66
9/6/2021 4:15:00 PM 17.41 63.338 0.046 6.56 3.32 9.65
9/6/2021 4:30:00 PM 17.41 63.338 0.046 6.56 3.16 9.66
9/6/2021 4:45:00 PM 17.43 63.374 0.046 6.55 3.13 9.65
9/6/2021 5:00:00 PM 17.43 63.374 0.046 6.54 3.11 9.63
9/6/2021 5:15:00 PM 17.44 63.392 0.046 6.54 3.06 9.63
9/6/2021 5:30:00 PM 17.46 63.428 0.046 6.54 3.09 9.62
9/6/2021 5:45:00 PM 17.47 63.446 0.046 6.54 3.12 9.61
9/6/2021 6:00:00 PM 17.47 63.446 0.046 6.54 3.06 9.61
9/6/2021 6:15:00 PM 17.48 63.464 0.046 6.53 3.16 9.61
9/6/2021 6:30:00 PM 17.47 63.446 0.046 6.52 3.04 9.58
9/6/2021 6:45:00 PM 17.45 63.41 0.046 6.52 2.97 9.59
9/6/2021 7:00:00 PM 17.43 63.374 0.046 6.52 3.15 9.58
9/6/2021 7:15:00 PM 17.41 63.338 0.046 6.53 3.07 9.59
9/6/2021 7:30:00 PM 17.38 63.284 0.046 6.53 3.13 9.59
9/6/2021 7:45:00 PM 17.36 63.248 0.046 6.53 3.07 9.58
9/6/2021 8:00:00 PM 17.33 63.194 0.047 6.52 3.14 9.59
9/6/2021 8:15:00 PM 17.3 63.14 0.047 6.52 3.21 9.6
9/6/2021 8:30:00 PM 17.27 63.086 0.047 6.53 3.28 9.61
9/6/2021 8:45:00 PM 17.24 63.032 0.047 6.53 2.99 9.6
9/6/2021 9:00:00 PM 17.2 62.96 0.047 6.52 3.04 9.62
9/6/2021 9:15:00 PM 17.16 62.888 0.047 6.53 2.99 9.63
9/6/2021 9:30:00 PM 17.12 62.816 0.047 6.52 3.05 9.64
9/6/2021 9:45:00 PM 17.07 62.726 0.047 6.53 3.15 9.65
9/6/2021 10:00:00 PM 17.03 62.654 0.047 6.53 2.92 9.66
9/6/2021 10:15:00 PM 16.98 62.564 0.047 6.53 5.02 9.67
9/6/2021 10:30:00 PM 16.93 62.474 0.047 6.52 2.82 9.68
9/6/2021 10:45:00 PM 16.88 62.384 0.047 6.52 2.87 9.7
9/6/2021 11:00:00 PM 16.82 62.276 0.047 6.52 2.93 9.71
9/6/2021 11:15:00 PM 16.77 62.186 0.047 6.52 2.8 9.72
9/6/2021 11:30:00 PM 16.71 62.078 0.047 6.52 2.96 9.73
9/6/2021 11:45:00 PM 16.65 61.97 0.047 6.52 2.87 9.75
9/7/2021 12:00:00 AM 16.6 61.88 0.047 6.52 2.78 9.76
9/7/2021 12:15:00 AM 16.54 61.772 0.047 6.51 2.79 9.77
9/7/2021 12:30:00 AM 16.48 61.664 0.047 6.52 2.77 9.79
9/7/2021 12:45:00 AM 16.42 61.556 0.047 6.51 2.78 9.8
9/7/2021 1:00:00 AM 16.36 61.448 0.047 6.51 2.77 9.81
9/7/2021 1:15:00 AM 16.3 61.34 0.047 6.51 2.8 9.83
9/7/2021 1:30:00 AM 16.25 61.25 0.047 6.51 2.77 9.84
9/7/2021 1:45:00 AM 16.19 61.142 0.047 6.5 2.8 9.85
9/7/2021 2:00:00 AM 16.13 61.034 0.047 6.51 2.78 9.87
9/7/2021 2:15:00 AM 16.06 60.908 0.047 6.5 2.76 9.88
9/7/2021 2:30:00 AM 16 60.8 0.047 6.5 2.75 9.89
9/7/2021 2:45:00 AM 15.94 60.692 0.047 6.5 2.64 9.91
9/7/2021 3:00:00 AM 15.88 60.584 0.047 6.51 2.99 9.92
9/7/2021 3:15:00 AM 15.82 60.476 0.047 6.51 2.91 9.93
9/7/2021 3:30:00 AM 15.76 60.368 0.047 6.5 2.61 9.95
9/7/2021 3:45:00 AM 15.7 60.26 0.047 6.5 2.78 9.96
9/7/2021 4:00:00 AM 15.64 60.152 0.048 6.49 2.62 9.98
9/7/2021 4:15:00 AM 15.57 60.026 0.048 6.5 2.68 9.99
9/7/2021 4:30:00 AM 15.52 59.936 0.048 6.5 2.66 10.01
9/7/2021 4:45:00 AM 15.45 59.81 0.048 6.5 2.73 10.02
9/7/2021 5:00:00 AM 15.4 59.72 0.048 6.49 2.61 10.03
9/7/2021 5:15:00 AM 15.33 59.594 0.048 6.5 2.57 10.05
9/7/2021 5:30:00 AM 15.28 59.504 0.048 6.49 2.49 10.06
9/7/2021 5:45:00 AM 15.22 59.396 0.048 6.5 2.53 10.08
9/7/2021 6:00:00 AM 15.16 59.288 0.048 6.5 2.54 10.09
9/7/2021 6:15:00 AM 15.1 59.18 0.048 6.51 2.52 10.1
9/7/2021 6:30:00 AM 15.05 59.09 0.048 6.5 2.65 10.12
9/7/2021 6:45:00 AM 14.99 58.982 0.048 6.5 2.56 10.13
9/7/2021 7:00:00 AM 14.93 58.874 0.048 6.5 2.61 10.15
9/7/2021 7:15:00 AM 14.88 58.784 0.048 6.49 2.54 10.16
9/7/2021 7:30:00 AM 14.84 58.712 0.048 6.5 2.57 10.18
9/7/2021 7:45:00 AM 14.79 58.622 0.048 6.5 2.58 10.2
9/7/2021 8:00:00 AM 14.76 58.568 0.048 6.51 2.63 10.22
9/7/2021 8:15:00 AM 14.73 58.514 0.048 6.51 2.51 10.24
9/7/2021 8:30:00 AM 14.71 58.478 0.048 6.51 2.6 10.25
9/7/2021 8:45:00 AM 14.7 58.46 0.048 6.52 2.52 10.26
9/7/2021 9:00:00 AM 14.71 58.478 0.048 6.53 2.63 10.27
9/7/2021 9:15:00 AM 14.72 58.496 0.048 6.53 2.52 10.27
9/7/2021 9:30:00 AM 14.75 58.55 0.048 6.53 2.47 10.29
9/7/2021 9:45:00 AM 14.79 58.622 0.048 6.55 2.47 10.29
9/7/2021 10:00:00 AM 14.85 58.73 0.048 6.55 2.48 10.29
9/7/2021 10:15:00 AM 14.91 58.838 0.048 6.56 2.64 10.29
9/7/2021 10:30:00 AM 15 59 0.048 6.57 2.43 10.28
9/7/2021 10:45:00 AM 15.09 59.162 0.048 6.58 2.46 10.27
9/7/2021 11:00:00 AM 15.19 59.342 0.048 6.59 2.47 10.25
9/7/2021 11:15:00 AM 15.3 59.54 0.048 6.59 2.53 10.22
9/7/2021 11:30:00 AM 15.43 59.774 0.048 6.61 2.42 10.2
9/7/2021 11:45:00 AM 15.57 60.026 0.048 6.62 2.57 10.17
9/7/2021 12:00:00 PM 15.72 60.296 0.048 6.62 2.4 10.15
9/7/2021 12:15:00 PM 15.87 60.566 0.048 6.63 2.43 10.12
9/7/2021 12:30:00 PM 16.01 60.818 0.048 6.63 2.39 10.09
9/7/2021 12:45:00 PM 16.15 61.07 0.048 6.64 2.39 10.07
9/7/2021 1:00:00 PM 16.26 61.268 0.048 6.64 2.51 10.04
9/7/2021 1:15:00 PM 16.35 61.43 0.048 6.65 2.48 10.02
9/7/2021 1:30:00 PM 16.41 61.538 0.048 6.65 2.44 10
9/7/2021 1:45:00 PM 16.46 61.628 0.048 6.65 2.68 9.98
9/7/2021 2:00:00 PM 16.5 61.7 0.048 6.64 2.43 9.95
9/7/2021 2:15:00 PM 16.54 61.772 0.048 6.64 2.48 9.94
9/7/2021 2:30:00 PM 16.56 61.808 0.048 6.64 2.51 9.92
9/7/2021 2:45:00 PM 16.58 61.844 0.049 6.64 2.48 9.9
9/7/2021 3:00:00 PM 16.6 61.88 0.049 6.64 2.56 9.89
9/7/2021 3:15:00 PM 16.6 61.88 0.049 6.63 2.67 9.87
9/7/2021 3:30:00 PM 16.61 61.898 0.049 6.62 2.52 9.86
9/7/2021 3:45:00 PM 16.61 61.898 0.049 6.6 2.49 9.84
9/7/2021 4:00:00 PM 16.63 61.934 0.049 6.61 2.45 9.84
9/7/2021 4:15:00 PM 16.63 61.934 0.049 6.6 2.42 9.83
9/7/2021 4:30:00 PM 16.64 61.952 0.049 6.6 2.61 9.82
9/7/2021 4:45:00 PM 16.64 61.952 0.049 6.59 2.43 9.81
9/7/2021 5:00:00 PM 16.65 61.97 0.049 6.59 2.47 9.81
9/7/2021 5:15:00 PM 16.65 61.97 0.049 6.58 2.42 9.8
9/7/2021 5:30:00 PM 16.66 61.988 0.049 6.58 2.5 9.79
9/7/2021 5:45:00 PM 16.67 62.006 0.049 6.57 2.41 9.78
9/7/2021 6:00:00 PM 16.68 62.024 0.049 6.57 2.56 9.77
9/7/2021 6:15:00 PM 16.69 62.042 0.049 6.56 2.35 9.76
9/7/2021 6:30:00 PM 16.7 62.06 0.049 6.56 2.57 9.76
9/7/2021 6:45:00 PM 16.71 62.078 0.049 6.56 2.48 9.75
9/7/2021 7:00:00 PM 16.71 62.078 0.049 6.56 2.56 9.74
9/7/2021 7:15:00 PM 16.72 62.096 0.049 6.55 2.52 9.73
9/7/2021 7:30:00 PM 16.72 62.096 0.049 6.55 2.45 9.73
9/7/2021 7:45:00 PM 16.72 62.096 0.049 6.56 2.51 9.72
9/7/2021 8:00:00 PM 16.72 62.096 0.049 6.57 2.49 9.72
9/7/2021 8:15:00 PM 16.72 62.096 0.049 6.56 2.49 9.72
9/7/2021 8:30:00 PM 16.72 62.096 0.049 6.56 2.46 9.72
9/7/2021 8:45:00 PM 16.71 62.078 0.049 6.56 2.6 9.72
9/7/2021 9:00:00 PM 16.71 62.078 0.049 6.56 2.57 9.72
9/7/2021 9:15:00 PM 16.7 62.06 0.049 6.56 2.63 9.73
9/7/2021 9:30:00 PM 16.69 62.042 0.049 6.56 2.75 9.73
9/7/2021 9:45:00 PM 16.67 62.006 0.049 6.56 2.58 9.73
9/7/2021 10:00:00 PM 16.66 61.988 0.049 6.56 2.42 9.73
9/7/2021 10:15:00 PM 16.64 61.952 0.049 6.56 2.45 9.73
9/7/2021 10:30:00 PM 16.62 61.916 0.049 6.55 2.46 9.74
9/7/2021 10:45:00 PM 16.6 61.88 0.049 6.56 2.47 9.74
9/7/2021 11:00:00 PM 16.58 61.844 0.049 6.55 2.48 9.74
9/7/2021 11:15:00 PM 16.55 61.79 0.049 6.55 2.42 9.75
9/7/2021 11:30:00 PM 16.53 61.754 0.049 6.55 2.55 9.76
9/7/2021 11:45:00 PM 16.51 61.718 0.049 6.55 2.39 9.76
9/8/2021 12:00:00 AM 16.49 61.682 0.05 6.55 2.39 9.76
9/8/2021 12:15:00 AM 16.47 61.646 0.05 6.55 2.35 9.76
9/8/2021 12:30:00 AM 16.46 61.628 0.05 6.54 2.35 9.77
9/8/2021 12:45:00 AM 16.43 61.574 0.05 6.54 2.29 9.77
9/8/2021 1:00:00 AM 16.41 61.538 0.05 6.54 2.44 9.78
9/8/2021 1:15:00 AM 16.39 61.502 0.05 6.54 2.51 9.78
9/8/2021 1:30:00 AM 16.36 61.448 0.05 6.54 2.44 9.78
9/8/2021 1:45:00 AM 16.34 61.412 0.05 6.53 2.38 9.79
9/8/2021 2:00:00 AM 16.31 61.358 0.05 6.54 2.36 9.79
9/8/2021 2:15:00 AM 16.29 61.322 0.05 6.53 2.44 9.79
9/8/2021 2:30:00 AM 16.26 61.268 0.05 6.53 2.39 9.8
9/8/2021 2:45:00 AM 16.24 61.232 0.05 6.53 2.42 9.8
9/8/2021 3:00:00 AM 16.22 61.196 0.05 6.52 2.27 9.81
9/8/2021 3:15:00 AM 16.19 61.142 0.05 6.52 2.45 9.81
9/8/2021 3:30:00 AM 16.17 61.106 0.05 6.53 2.54 9.82
9/8/2021 3:45:00 AM 16.15 61.07 0.05 6.53 2.29 9.82
9/8/2021 4:00:00 AM 16.12 61.016 0.05 6.53 2.37 9.82
9/8/2021 4:15:00 AM 16.09 60.962 0.05 6.52 2.3 9.83
9/8/2021 4:30:00 AM 16.07 60.926 0.05 6.52 2.4 9.83
9/8/2021 4:45:00 AM 16.04 60.872 0.05 6.52 2.28 9.84
9/8/2021 5:00:00 AM 16.01 60.818 0.05 6.52 2.3 9.84
9/8/2021 5:15:00 AM 15.98 60.764 0.05 6.53 2.29 9.85
9/8/2021 5:30:00 AM 15.95 60.71 0.05 6.53 2.96 9.85
9/8/2021 5:45:00 AM 15.92 60.656 0.05 6.53 2.63 9.86
9/8/2021 6:00:00 AM 15.89 60.602 0.05 6.52 2.25 9.87
9/8/2021 6:15:00 AM 15.86 60.548 0.05 6.53 2.32 9.87
9/8/2021 6:30:00 AM 15.84 60.512 0.05 6.52 2.36 9.88
9/8/2021 6:45:00 AM 15.81 60.458 0.05 6.53 2.32 9.89
9/8/2021 7:00:00 AM 15.78 60.404 0.05 6.53 2.35 9.9
9/8/2021 7:15:00 AM 15.76 60.368 0.05 6.53 2.33 9.92
9/8/2021 7:30:00 AM 15.74 60.332 0.05 6.54 2.31 9.93
9/8/2021 7:45:00 AM 15.73 60.314 0.05 6.54 2.22 9.94
9/8/2021 8:00:00 AM 15.72 60.296 0.05 6.54 2.31 9.95
9/8/2021 8:15:00 AM 15.72 60.296 0.05 6.56 2.18 9.97
9/8/2021 8:30:00 AM 15.72 60.296 0.05 6.56 2.27 9.99
9/8/2021 8:45:00 AM 15.75 60.35 0.05 6.57 2.26 10.01
9/8/2021 9:00:00 AM 15.77 60.386 0.05 6.58 2.15 10.02
9/8/2021 9:15:00 AM 15.8 60.44 0.05 6.57 2.17 10.01
9/8/2021 9:30:00 AM 15.83 60.494 0.05 6.57 2.2 10.01
9/8/2021 9:45:00 AM 15.88 60.584 0.05 6.58 2.2 10.02
9/8/2021 10:00:00 AM 15.95 60.71 0.05 6.58 2.09 10.01
9/8/2021 10:15:00 AM 16.02 60.836 0.05 6.6 2.17 10.01
9/8/2021 10:30:00 AM 16.1 60.98 0.05 6.61 2.19 10.01
9/8/2021 10:45:00 AM 16.2 61.16 0.05 6.63 2.15 9.99
9/8/2021 11:00:00 AM 16.31 61.358 0.05 6.64 2.21 9.97
9/8/2021 11:15:00 AM 16.43 61.574 0.05 6.65 2.2 9.94
9/8/2021 11:30:00 AM 16.55 61.79 0.05 6.66 2.32 9.91
9/8/2021 11:45:00 AM 16.7 62.06 0.05 6.67 2.18 9.9
9/8/2021 12:00:00 PM 16.87 62.366 0.05 6.68 2.3 9.88
9/8/2021 12:15:00 PM 17.03 62.654 0.05 6.69 2.29 9.85
9/8/2021 12:30:00 PM 17.21 62.978 0.05 6.7 2.19 9.81
9/8/2021 12:45:00 PM 17.36 63.248 0.05 6.71 2.28 9.77
9/8/2021 1:00:00 PM 17.5 63.5 0.05 6.71 2.21 9.75
9/8/2021 1:15:00 PM 17.6 63.68 0.05 6.71 2.13 9.72
9/8/2021 1:30:00 PM 17.71 63.878 0.05 6.73 2.2 9.71
9/8/2021 1:45:00 PM 17.75 63.95 0.05 6.72 2.15 9.69
9/8/2021 2:00:00 PM 17.8 64.04 0.05 6.73 2.22 9.67
9/8/2021 2:15:00 PM 17.83 64.094 0.05 6.72 2.13 9.66
9/8/2021 2:30:00 PM 17.84 64.112 0.05 6.72 2.17 9.64
9/8/2021 2:45:00 PM 17.88 64.184 0.05 6.72 2.19 9.62
9/8/2021 3:00:00 PM 17.9 64.22 0.05 6.71 2.11 9.6
9/8/2021 3:15:00 PM 17.9 64.22 0.05 6.71 2.19 9.59
9/8/2021 3:30:00 PM 17.9 64.22 0.05 6.71 2.13 9.6
9/8/2021 3:45:00 PM 17.92 64.256 0.05 6.71 2.18 9.59
9/8/2021 4:00:00 PM 17.93 64.274 0.05 6.69 2.34 9.55
9/8/2021 4:15:00 PM 17.93 64.274 0.05 6.66 2.24 9.51
9/8/2021 4:30:00 PM 17.92 64.256 0.05 6.64 2.32 9.48
9/8/2021 4:45:00 PM 17.9 64.22 0.05 6.63 2.24 9.48
9/8/2021 5:00:00 PM 17.89 64.202 0.05 6.63 2.28 9.5
9/8/2021 5:15:00 PM 17.87 64.166 0.05 6.61 2.28 9.47
9/8/2021 5:30:00 PM 17.85 64.13 0.05 6.61 2.28 9.45
9/8/2021 5:45:00 PM 17.82 64.076 0.05 6.62 2.13 9.45
9/8/2021 6:00:00 PM 17.79 64.022 0.05 6.61 2.17 9.45
9/8/2021 6:15:00 PM 17.77 63.986 0.05 6.61 2.56 9.45
9/8/2021 6:30:00 PM 17.75 63.95 0.05 6.61 2.52 9.44
9/8/2021 6:45:00 PM 17.73 63.914 0.049 6.6 2.91 9.45
9/8/2021 7:00:00 PM 17.71 63.878 0.049 6.6 2.72 9.45
9/8/2021 7:15:00 PM 17.69 63.842 0.05 6.59 2.77 9.45
9/8/2021 7:30:00 PM 17.67 63.806 0.05 6.6 3.24 9.45
9/8/2021 7:45:00 PM 17.65 63.77 0.05 6.61 3.63 9.45
9/8/2021 8:00:00 PM 17.64 63.752 0.05 6.61 3.84 9.46
9/8/2021 8:15:00 PM 17.62 63.716 0.05 6.61 4.1 9.45
9/8/2021 8:30:00 PM 17.61 63.698 0.05 6.61 4.6 9.46
9/8/2021 8:45:00 PM 17.59 63.662 0.05 6.62 4.52 9.47
9/8/2021 9:00:00 PM 17.57 63.626 0.05 6.62 5.07 9.48
9/8/2021 9:15:00 PM 17.56 63.608 0.05 6.62 5.24 9.49
9/8/2021 9:30:00 PM 17.54 63.572 0.05 6.63 5.13 9.5
9/8/2021 9:45:00 PM 17.53 63.554 0.05 6.63 5.46 9.5
9/8/2021 10:00:00 PM 17.51 63.518 0.05 6.63 5.31 9.51
9/8/2021 10:15:00 PM 17.49 63.482 0.05 6.63 5.23 9.52
9/8/2021 10:30:00 PM 17.48 63.464 0.05 6.63 4.99 9.51
9/8/2021 10:45:00 PM 17.46 63.428 0.049 6.62 4.58 9.53
9/8/2021 11:00:00 PM 17.45 63.41 0.049 6.62 4.32 9.54
9/8/2021 11:15:00 PM 17.44 63.392 0.049 6.62 4.32 9.54
9/8/2021 11:30:00 PM 17.42 63.356 0.049 6.62 4.26 9.55
9/8/2021 11:45:00 PM 17.41 63.338 0.049 6.61 4.58 9.55
9/9/2021 12:00:00 AM 17.4 63.32 0.049 6.6 4.12 9.55
9/9/2021 12:15:00 AM 17.39 63.302 0.049 6.59 4.5 9.55
9/9/2021 12:30:00 AM 17.39 63.302 0.049 6.59 4.13 9.57
9/9/2021 12:45:00 AM 17.38 63.284 0.05 6.58 3.95 9.57
9/9/2021 1:00:00 AM 17.37 63.266 0.05 6.58 4.25 9.56
9/9/2021 1:15:00 AM 17.37 63.266 0.05 6.57 4.06 9.56
9/9/2021 1:30:00 AM 17.36 63.248 0.05 6.57 4.01 9.56
9/9/2021 1:45:00 AM 17.35 63.23 0.05 6.57 4 9.56
9/9/2021 2:00:00 AM 17.34 63.212 0.05 6.57 3.98 9.57
9/9/2021 2:15:00 AM 17.33 63.194 0.051 6.56 4.03 9.57
9/9/2021 2:30:00 AM 17.32 63.176 0.051 6.57 3.72 9.57
9/9/2021 2:45:00 AM 17.3 63.14 0.051 6.57 3.65 9.57
9/9/2021 3:00:00 AM 17.29 63.122 0.051 6.58 3.52 9.57
9/9/2021 3:15:00 AM 17.27 63.086 0.051 6.56 3.57 9.58
9/9/2021 3:30:00 AM 17.26 63.068 0.051 6.58 3.49 9.59
9/9/2021 3:45:00 AM 17.24 63.032 0.051 6.57 3.43 9.58
9/9/2021 4:00:00 AM 17.22 62.996 0.051 6.57 3.48 9.6
9/9/2021 4:15:00 AM 17.21 62.978 0.051 6.57 3.38 9.6
9/9/2021 4:30:00 AM 17.2 62.96 0.05 6.57 3.32 9.6
9/9/2021 4:45:00 AM 17.19 62.942 0.05 6.56 3.5 9.6
9/9/2021 5:00:00 AM 17.18 62.924 0.05 6.56 3.28 9.6
9/9/2021 5:15:00 AM 17.17 62.906 0.05 6.56 3.12 9.6
9/9/2021 5:30:00 AM 17.15 62.87 0.05 6.56 3.05 9.6
9/9/2021 5:45:00 AM 17.14 62.852 0.05 6.57 2.97 9.6
9/9/2021 6:00:00 AM 17.12 62.816 0.049 6.57 3.11 9.6
9/9/2021 6:15:00 AM 17.1 62.78 0.049 6.57 3.06 9.6
9/9/2021 6:30:00 AM 17.08 62.744 0.049 6.57 2.92 9.61
9/9/2021 6:45:00 AM 17.05 62.69 0.049 6.58 3.06 9.61
9/9/2021 7:00:00 AM 17.03 62.654 0.049 6.57 2.99 9.62
9/9/2021 7:15:00 AM 17.01 62.618 0.049 6.57 3.03 9.63
9/9/2021 7:30:00 AM 16.98 62.564 0.049 6.57 3.06 9.64
9/9/2021 7:45:00 AM 16.97 62.546 0.049 6.56 2.89 9.65
9/9/2021 8:00:00 AM 16.95 62.51 0.048 6.57 3.02 9.68
9/9/2021 8:15:00 AM 16.94 62.492 0.048 6.58 2.89 9.7
9/9/2021 8:30:00 AM 16.93 62.474 0.048 6.58 2.83 9.71
9/9/2021 8:45:00 AM 16.92 62.456 0.048 6.58 2.84 9.71
9/9/2021 9:00:00 AM 16.91 62.438 0.048 6.58 2.77 9.72
9/9/2021 9:15:00 AM 16.91 62.438 0.048 6.59 2.72 9.74
9/9/2021 9:30:00 AM 16.9 62.42 0.048 6.59 2.99 9.73
9/9/2021 9:45:00 AM 16.9 62.42 0.048 6.59 2.82 9.75
9/9/2021 10:00:00 AM 16.9 62.42 0.048 6.6 2.85 9.76
9/9/2021 10:15:00 AM 16.9 62.42 0.047 6.6 2.68 9.77
9/9/2021 10:30:00 AM 16.91 62.438 0.047 6.61 2.76 9.77
9/9/2021 10:45:00 AM 16.92 62.456 0.047 6.61 2.77 9.78
9/9/2021 11:00:00 AM 16.94 62.492 0.047 6.62 2.63 9.8
9/9/2021 11:15:00 AM 16.96 62.528 0.047 6.63 2.66 9.81
9/9/2021 11:30:00 AM 16.96 62.528 0.047 6.63 2.64 9.8
9/9/2021 11:45:00 AM 16.97 62.546 0.047 6.63 2.73 9.78
9/9/2021 12:00:00 PM 16.98 62.564 0.047 6.63 2.73 9.78
9/9/2021 12:15:00 PM 16.99 62.582 0.047 6.64 2.68 9.79
9/9/2021 12:30:00 PM 17.01 62.618 0.047 6.65 2.63 9.8
9/9/2021 12:45:00 PM 17.04 62.672 0.047 6.65 2.66 9.82
9/9/2021 1:00:00 PM 17.08 62.744 0.047 6.66 2.67 9.83
9/9/2021 1:15:00 PM 17.13 62.834 0.047 6.67 2.65 9.81
9/9/2021 1:30:00 PM 17.17 62.906 0.047 6.67 2.56 9.79
9/9/2021 1:45:00 PM 17.22 62.996 0.047 6.68 2.66 9.8
9/9/2021 2:00:00 PM 17.25 63.05 0.047 6.68 2.71 9.78
9/9/2021 2:15:00 PM 17.26 63.068 0.048 6.67 2.5 9.75
9/9/2021 2:30:00 PM 17.25 63.05 0.048 6.66 2.56 9.73
9/9/2021 2:45:00 PM 17.26 63.068 0.048 6.65 2.66 9.71
9/9/2021 3:00:00 PM 17.26 63.068 0.048 6.65 2.62 9.71
9/9/2021 3:15:00 PM 17.26 63.068 0.048 6.65 2.65 9.73
9/9/2021 3:30:00 PM 17.27 63.086 0.048 6.65 2.58 9.73
9/9/2021 3:45:00 PM 17.29 63.122 0.048 6.66 3.04 9.73
9/9/2021 4:00:00 PM 17.31 63.158 0.048 6.65 2.63 9.72
9/9/2021 4:15:00 PM 17.33 63.194 0.048 6.66 2.52 9.71
9/9/2021 4:30:00 PM 17.34 63.212 0.048 6.65 2.58 9.7
9/9/2021 4:45:00 PM 17.35 63.23 0.048 6.65 2.63 9.7
9/9/2021 5:00:00 PM 17.36 63.248 0.048 6.65 2.51 9.68
9/9/2021 5:15:00 PM 17.37 63.266 0.048 6.63 2.51 9.66
9/9/2021 5:30:00 PM 17.37 63.266 0.048 6.63 2.65 9.64
9/9/2021 5:45:00 PM 17.38 63.284 0.048 6.63 2.51 9.66
9/9/2021 6:00:00 PM 17.37 63.266 0.048 6.63 2.54 9.64
9/9/2021 6:15:00 PM 17.35 63.23 0.048 6.63 2.53 9.61
9/9/2021 6:30:00 PM 17.33 63.194 0.048 6.62 2.55 9.6
9/9/2021 6:45:00 PM 17.3 63.14 0.048 6.62 2.51 9.59
9/9/2021 7:00:00 PM 17.27 63.086 0.048 6.61 2.6 9.59
9/9/2021 7:15:00 PM 17.24 63.032 0.048 6.6 2.62 9.57
9/9/2021 7:30:00 PM 17.22 62.996 0.048 6.6 2.54 9.58
9/9/2021 7:45:00 PM 17.19 62.942 0.048 6.59 2.53 9.57
9/9/2021 8:00:00 PM 17.17 62.906 0.048 6.6 2.8 9.58
9/9/2021 8:15:00 PM 17.14 62.852 0.048 6.58 2.58 9.58
9/9/2021 8:30:00 PM 17.11 62.798 0.048 6.59 2.58 9.59
9/9/2021 8:45:00 PM 17.07 62.726 0.048 6.58 2.5 9.6
9/9/2021 9:00:00 PM 17.05 62.69 0.048 6.58 2.62 9.61
9/9/2021 9:15:00 PM 17.02 62.636 0.048 6.58 2.53 9.62
9/9/2021 9:30:00 PM 17 62.6 0.049 6.57 2.63 9.62
9/9/2021 9:45:00 PM 16.98 62.564 0.049 6.57 2.46 9.62
9/9/2021 10:00:00 PM 16.95 62.51 0.049 6.57 2.45 9.63
9/9/2021 10:15:00 PM 16.92 62.456 0.049 6.57 2.45 9.63
9/9/2021 10:30:00 PM 16.9 62.42 0.049 6.57 2.43 9.64
9/9/2021 10:45:00 PM 16.88 62.384 0.049 6.57 2.44 9.65
9/9/2021 11:00:00 PM 16.85 62.33 0.049 6.58 2.45 9.65
9/9/2021 11:15:00 PM 16.84 62.312 0.049 6.57 2.37 9.66
9/9/2021 11:30:00 PM 16.82 62.276 0.049 6.54 2.41 9.66
9/9/2021 11:45:00 PM 16.79 62.222 0.049 6.55 2.4 9.67
9/10/2021 12:00:00 AM 16.76 62.168 0.049 6.55 2.55 9.68
9/10/2021 12:15:00 AM 16.73 62.114 0.049 6.55 2.38 9.68
9/10/2021 12:30:00 AM 16.7 62.06 0.049 6.55 2.35 9.69
9/10/2021 12:45:00 AM 16.67 62.006 0.049 6.56 2.38 9.7
9/10/2021 1:00:00 AM 16.62 61.916 0.049 6.55 2.37 9.7
9/10/2021 1:15:00 AM 16.58 61.844 0.049 6.56 2.33 9.71
9/10/2021 1:30:00 AM 16.53 61.754 0.049 6.55 2.28 9.72
9/10/2021 1:45:00 AM 16.49 61.682 0.049 6.55 2.38 9.73
9/10/2021 2:00:00 AM 16.43 61.574 0.049 6.55 2.35 9.74
9/10/2021 2:15:00 AM 16.37 61.466 0.049 6.54 2.4 9.76
9/10/2021 2:30:00 AM 16.31 61.358 0.049 6.54 2.33 9.77
9/10/2021 2:45:00 AM 16.25 61.25 0.049 6.55 2.4 9.78
9/10/2021 3:00:00 AM 16.2 61.16 0.049 6.55 2.31 9.8
9/10/2021 3:15:00 AM 16.14 61.052 0.049 6.55 2.32 9.8
9/10/2021 3:30:00 AM 16.09 60.962 0.049 6.55 2.3 9.82
9/10/2021 3:45:00 AM 16.04 60.872 0.049 6.55 2.34 9.83
9/10/2021 4:00:00 AM 15.98 60.764 0.049 6.55 2.24 9.84
9/10/2021 4:15:00 AM 15.93 60.674 0.049 6.55 2.21 9.86
9/10/2021 4:30:00 AM 15.88 60.584 0.049 6.55 2.39 9.87
9/10/2021 4:45:00 AM 15.83 60.494 0.049 6.55 2.28 9.88
9/10/2021 5:00:00 AM 15.79 60.422 0.049 6.54 2.22 9.89
9/10/2021 5:15:00 AM 15.74 60.332 0.049 6.54 31.48 9.9
9/10/2021 5:30:00 AM 15.7 60.26 0.049 6.55 2.53 9.91
9/10/2021 5:45:00 AM 15.66 60.188 0.049 6.54 2.17 9.92
9/10/2021 6:00:00 AM 15.62 60.116 0.049 6.55 2.28 9.93
9/10/2021 6:15:00 AM 15.58 60.044 0.049 6.55 2.27 9.94
9/10/2021 6:30:00 AM 15.53 59.954 0.049 6.55 2.33 9.95
9/10/2021 6:45:00 AM 15.49 59.882 0.049 6.55 2.32 9.97
9/10/2021 7:00:00 AM 15.46 59.828 0.049 6.55 2.34 9.99
9/10/2021 7:15:00 AM 15.42 59.756 0.049 6.55 2.31 10
9/10/2021 7:30:00 AM 15.39 59.702 0.049 6.55 2.28 10.03
9/10/2021 7:45:00 AM 15.36 59.648 0.049 6.55 2.32 10.04
9/10/2021 8:00:00 AM 15.33 59.594 0.049 6.55 2.24 10.06
9/10/2021 8:15:00 AM 15.31 59.558 0.049 6.57 2.71 10.09
9/10/2021 8:30:00 AM 15.31 59.558 0.049 6.58 2.26 10.11
9/10/2021 8:45:00 AM 15.31 59.558 0.049 6.58 2.24 10.13
9/10/2021 9:00:00 AM 15.31 59.558 0.049 6.59 2.21 10.13
9/10/2021 9:15:00 AM 15.33 59.594 0.049 6.59 2.27 10.14
9/10/2021 9:30:00 AM 15.35 59.63 0.049 6.61 2.21 10.14
9/10/2021 9:45:00 AM 15.38 59.684 0.049 6.63 2.19 10.15
9/10/2021 10:00:00 AM 15.42 59.756 0.049 6.65 2.17 10.17
9/10/2021 10:15:00 AM 15.48 59.864 0.049 6.66 2.19 10.17
9/10/2021 10:30:00 AM 15.55 59.99 0.049 6.67 2.2 10.17
9/10/2021 10:45:00 AM 15.64 60.152 0.049 6.67 2.24 10.17
9/10/2021 11:00:00 AM 15.71 60.278 0.049 6.68 2.19 10.15
9/10/2021 11:15:00 AM 15.79 60.422 0.049 6.69 2.25 10.13
9/10/2021 11:30:00 AM 15.88 60.584 0.049 6.69 2.18 10.11
9/10/2021 11:45:00 AM 15.99 60.782 0.049 6.7 2.16 10.09
9/10/2021 12:00:00 PM 16.11 60.998 0.049 6.71 2.16 10.08
9/10/2021 12:15:00 PM 16.16 61.088 0.049 6.71 2.19 10.05
9/10/2021 12:30:00 PM 16.26 61.268 0.049 6.72 2.09 10.05
9/10/2021 12:45:00 PM 16.43 61.574 0.049 6.72 2.11 10.02
9/10/2021 1:00:00 PM 16.53 61.754 0.049 6.74 2.15 10
9/10/2021 1:15:00 PM 16.6 61.88 0.049 6.74 2.24 9.98
9/10/2021 1:30:00 PM 16.62 61.916 0.049 6.75 2.2 9.97
9/10/2021 1:45:00 PM 16.67 62.006 0.049 6.75 2.09 9.96
9/10/2021 2:00:00 PM 16.62 61.916 0.049 6.74 2.08 9.93
9/10/2021 2:15:00 PM 16.66 61.988 0.049 6.74 2.17 9.94
9/10/2021 2:30:00 PM 16.66 61.988 0.049 6.73 2.17 9.95
9/10/2021 2:45:00 PM 16.62 61.916 0.049 6.74 2.14 9.93
9/10/2021 3:00:00 PM 16.62 61.916 0.049 6.72 2.16 9.91
9/10/2021 3:15:00 PM 16.6 61.88 0.049 6.71 2.12 9.9
9/10/2021 3:30:00 PM 16.59 61.862 0.049 6.71 2.11 9.89
9/10/2021 3:45:00 PM 16.58 61.844 0.05 6.7 2.06 9.88
9/10/2021 4:00:00 PM 16.54 61.772 0.05 6.69 2.12 9.87
9/10/2021 4:15:00 PM 16.51 61.718 0.05 6.69 2.25 9.87
9/10/2021 4:30:00 PM 16.49 61.682 0.05 6.68 2.01 9.87
9/10/2021 4:45:00 PM 16.47 61.646 0.05 6.68 2.16 9.88
9/10/2021 5:00:00 PM 16.45 61.61 0.05 6.68 2.24 9.9
9/10/2021 5:15:00 PM 16.44 61.592 0.05 6.68 2.14 9.9
9/10/2021 5:30:00 PM 16.4 61.52 0.05 6.67 2.16 9.89
9/10/2021 5:45:00 PM 16.37 61.466 0.05 6.66 2.17 9.87
9/10/2021 6:00:00 PM 16.34 61.412 0.05 6.66 2.09 9.87
9/10/2021 6:15:00 PM 16.32 61.376 0.05 6.66 2.06 9.88
9/10/2021 6:30:00 PM 16.29 61.322 0.05 6.65 2.05 9.88
9/10/2021 6:45:00 PM 16.26 61.268 0.05 6.65 2.14 9.87
9/10/2021 7:00:00 PM 16.22 61.196 0.05 6.65 2.18 9.87
9/10/2021 7:15:00 PM 16.19 61.142 0.05 6.64 2.1 9.86
9/10/2021 7:30:00 PM 16.15 61.07 0.05 6.65 2.16 9.86
9/10/2021 7:45:00 PM 16.11 60.998 0.05 6.64 2.25 9.87
9/10/2021 8:00:00 PM 16.07 60.926 0.05 6.64 2.26 9.87
9/10/2021 8:15:00 PM 16.04 60.872 0.05 6.63 2.17 9.87
9/10/2021 8:30:00 PM 16 60.8 0.05 6.62 2.15 9.88
9/10/2021 8:45:00 PM 15.96 60.728 0.05 6.62 2.19 9.9
9/10/2021 9:00:00 PM 15.91 60.638 0.05 6.62 2.21 9.91
9/10/2021 9:15:00 PM 15.87 60.566 0.05 6.63 2.25 9.92
9/10/2021 9:30:00 PM 15.82 60.476 0.05 6.63 2.25 9.93
9/10/2021 9:45:00 PM 15.78 60.404 0.05 6.62 2.3 9.94
9/10/2021 10:00:00 PM 15.73 60.314 0.05 6.61 2.21 9.96
9/10/2021 10:15:00 PM 15.68 60.224 0.05 6.61 2.11 9.97
9/10/2021 10:30:00 PM 15.63 60.134 0.05 6.62 2.11 9.98
9/10/2021 10:45:00 PM 15.57 60.026 0.05 6.61 2.37 9.99
9/10/2021 11:00:00 PM 15.52 59.936 0.05 6.61 2.1 10.01
9/10/2021 11:15:00 PM 15.47 59.846 0.05 6.61 2.06 10.02
9/10/2021 11:30:00 PM 15.42 59.756 0.05 6.61 2.12 10.03
9/10/2021 11:45:00 PM 15.36 59.648 0.05 6.61 2.11 10.05
9/11/2021 12:00:00 AM 15.31 59.558 0.05 6.61 2.18 10.06
9/11/2021 12:15:00 AM 15.26 59.468 0.05 6.61 2.16 10.07
9/11/2021 12:30:00 AM 15.2 59.36 0.05 6.6 2.11 10.09
9/11/2021 12:45:00 AM 15.15 59.27 0.05 6.61 2.11 10.1
9/11/2021 1:00:00 AM 15.09 59.162 0.05 6.6 2.15 10.11
9/11/2021 1:15:00 AM 15.03 59.054 0.051 6.61 2.22 10.14
9/11/2021 1:30:00 AM 14.98 58.964 0.051 6.6 2.1 10.15
9/11/2021 1:45:00 AM 14.92 58.856 0.051 6.6 2.14 10.16
9/11/2021 2:00:00 AM 14.86 58.748 0.051 6.6 2.06 10.17
9/11/2021 2:15:00 AM 14.81 58.658 0.051 6.59 2.13 10.19
9/11/2021 2:30:00 AM 14.75 58.55 0.051 6.59 2.15 10.2
9/11/2021 2:45:00 AM 14.7 58.46 0.051 6.59 2.04 10.21
9/11/2021 3:00:00 AM 14.65 58.37 0.051 6.59 2.06 10.22
9/11/2021 3:15:00 AM 14.59 58.262 0.051 6.59 2.29 10.23
9/11/2021 3:30:00 AM 14.54 58.172 0.051 6.59 2.1 10.24
9/11/2021 3:45:00 AM 14.48 58.064 0.051 6.59 2.03 10.26
9/11/2021 4:00:00 AM 14.44 57.992 0.051 6.58 2.13 10.27
9/11/2021 4:15:00 AM 14.39 57.902 0.051 6.59 2.06 10.28
9/11/2021 4:30:00 AM 14.34 57.812 0.051 6.59 2.13 10.29
9/11/2021 4:45:00 AM 14.29 57.722 0.051 6.58 2.31 10.3
9/11/2021 5:00:00 AM 14.24 57.632 0.051 6.58 1.97 10.31
9/11/2021 5:15:00 AM 14.2 57.56 0.051 6.58 1.99 10.32
9/11/2021 5:30:00 AM 14.15 57.47 0.051 6.58 2.01 10.33
9/11/2021 5:45:00 AM 14.1 57.38 0.051 6.58 2.03 10.35
9/11/2021 6:00:00 AM 14.06 57.308 0.051 6.58 2.03 10.35
9/11/2021 6:15:00 AM 14.02 57.236 0.051 6.58 2.01 10.36
9/11/2021 6:30:00 AM 13.98 57.164 0.051 6.58 2.08 10.38
9/11/2021 6:45:00 AM 13.92 57.056 0.051 6.58 2.1 10.39
9/11/2021 7:00:00 AM 13.87 56.966 0.051 6.58 2.11 10.41
9/11/2021 7:15:00 AM 13.83 56.894 0.051 6.59 2.11 10.44
9/11/2021 7:30:00 AM 13.8 56.84 0.051 6.59 2.2 10.47
9/11/2021 7:45:00 AM 13.78 56.804 0.051 6.6 2.07 10.49
9/11/2021 8:00:00 AM 13.76 56.768 0.051 6.6 2.12 10.51
9/11/2021 8:15:00 AM 13.75 56.75 0.051 6.61 2.06 10.53
9/11/2021 8:30:00 AM 13.75 56.75 0.051 6.63 2.04 10.55
9/11/2021 8:45:00 AM 13.76 56.768 0.051 6.63 2.21 10.58
9/11/2021 9:00:00 AM 13.78 56.804 0.051 6.64 2 10.59
9/11/2021 9:15:00 AM 13.8 56.84 0.051 6.64 2 10.6
9/11/2021 9:30:00 AM 13.84 56.912 0.051 6.65 1.94 10.6
9/11/2021 9:45:00 AM 13.9 57.02 0.051 6.66 1.96 10.61
9/11/2021 10:00:00 AM 13.97 57.146 0.051 6.67 1.99 10.6
9/11/2021 10:15:00 AM 14.06 57.308 0.051 6.68 1.95 10.6
9/11/2021 10:30:00 AM 14.14 57.452 0.051 6.69 1.95 10.62
9/11/2021 10:45:00 AM 14.22 57.596 0.051 6.71 1.94 10.61
9/11/2021 11:00:00 AM 14.31 57.758 0.051 6.72 1.89 10.59
9/11/2021 11:15:00 AM 14.41 57.938 0.051 6.73 2.01 10.56
9/11/2021 11:30:00 AM 14.53 58.154 0.051 6.73 1.89 10.53
9/11/2021 11:45:00 AM 14.67 58.406 0.051 6.74 1.95 10.49
9/11/2021 12:00:00 PM 14.82 58.676 0.051 6.75 1.9 10.46
9/11/2021 12:15:00 PM 14.99 58.982 0.051 6.75 1.91 10.42
9/11/2021 12:30:00 PM 15.18 59.324 0.051 6.76 1.95 10.38
9/11/2021 12:45:00 PM 15.36 59.648 0.051 6.76 1.92 10.35
9/11/2021 1:00:00 PM 15.52 59.936 0.051 6.76 1.9 10.32
9/11/2021 1:15:00 PM 15.65 60.17 0.051 6.77 1.95 10.28
9/11/2021 1:30:00 PM 15.74 60.332 0.051 6.77 2.09 10.26
9/11/2021 1:45:00 PM 15.79 60.422 0.051 6.77 1.98 10.24
9/11/2021 2:00:00 PM 15.82 60.476 0.051 6.77 1.87 10.21
9/11/2021 2:15:00 PM 15.83 60.494 0.051 6.76 1.9 10.2
9/11/2021 2:30:00 PM 15.86 60.548 0.051 6.76 1.93 10.18
9/11/2021 2:45:00 PM 15.89 60.602 0.051 6.76 2 10.17
9/11/2021 3:00:00 PM 15.9 60.62 0.051 6.76 1.92 10.15
9/11/2021 3:15:00 PM 15.89 60.602 0.051 6.75 1.98 10.14
9/11/2021 3:30:00 PM 15.9 60.62 0.051 6.75 2.07 10.14
9/11/2021 3:45:00 PM 15.94 60.692 0.051 6.75 1.92 10.14
9/11/2021 4:00:00 PM 15.95 60.71 0.051 6.75 1.92 10.1
9/11/2021 4:15:00 PM 15.95 60.71 0.051 6.74 1.95 10.1
9/11/2021 4:30:00 PM 15.96 60.728 0.051 6.74 2.14 10.09
9/11/2021 4:45:00 PM 15.96 60.728 0.051 6.73 1.98 10.07
9/11/2021 5:00:00 PM 15.96 60.728 0.051 6.72 1.93 10.05
9/11/2021 5:15:00 PM 15.95 60.71 0.051 6.72 2.04 10.06
9/11/2021 5:30:00 PM 15.95 60.71 0.051 6.71 1.94 10.05
9/11/2021 5:45:00 PM 15.94 60.692 0.051 6.71 1.96 10.04
9/11/2021 6:00:00 PM 15.93 60.674 0.051 6.7 1.99 10.02
9/11/2021 6:15:00 PM 15.91 60.638 0.051 6.69 1.99 10
9/11/2021 6:30:00 PM 15.89 60.602 0.051 6.7 1.87 10
9/11/2021 6:45:00 PM 15.87 60.566 0.051 6.68 2.08 9.99
9/11/2021 7:00:00 PM 15.85 60.53 0.051 6.67 1.93 9.98
9/11/2021 7:15:00 PM 15.83 60.494 0.051 6.67 1.92 9.97
9/11/2021 7:30:00 PM 15.81 60.458 0.051 6.67 1.91 9.96
9/11/2021 7:45:00 PM 15.78 60.404 0.051 6.67 1.99 9.96
9/11/2021 8:00:00 PM 15.76 60.368 0.051 6.66 2.04 9.96
9/11/2021 8:15:00 PM 15.73 60.314 0.051 6.66 2.01 9.96
9/11/2021 8:30:00 PM 15.7 60.26 0.051 6.66 2.1 9.97
9/11/2021 8:45:00 PM 15.67 60.206 0.051 6.66 1.99 9.97
9/11/2021 9:00:00 PM 15.64 60.152 0.051 6.66 2.01 9.98
9/11/2021 9:15:00 PM 15.62 60.116 0.051 6.65 2.06 9.99
9/11/2021 9:30:00 PM 15.59 60.062 0.051 6.66 1.96 9.99
9/11/2021 9:45:00 PM 15.56 60.008 0.051 6.65 2.11 9.99
9/11/2021 10:00:00 PM 15.54 59.972 0.051 6.64 1.96 10
9/11/2021 10:15:00 PM 15.51 59.918 0.051 6.65 1.91 10.01
9/11/2021 10:30:00 PM 15.48 59.864 0.051 6.64 1.9 10.01
9/11/2021 10:45:00 PM 15.46 59.828 0.052 6.64 2 10.02
9/11/2021 11:00:00 PM 15.43 59.774 0.052 6.64 2 10.03
9/11/2021 11:15:00 PM 15.41 59.738 0.052 6.64 1.96 10.03
9/11/2021 11:30:00 PM 15.38 59.684 0.052 6.64 2.09 10.04
9/11/2021 11:45:00 PM 15.35 59.63 0.052 6.64 1.93 10.04
9/12/2021 12:00:00 AM 15.32 59.576 0.052 6.63 1.98 10.05
9/12/2021 12:15:00 AM 15.29 59.522 0.052 6.63 1.98 10.06
9/12/2021 12:30:00 AM 15.26 59.468 0.052 6.63 1.88 10.06
9/12/2021 12:45:00 AM 15.23 59.414 0.052 6.63 1.93 10.07
9/12/2021 1:00:00 AM 15.2 59.36 0.052 6.63 1.91 10.08
9/12/2021 1:15:00 AM 15.17 59.306 0.052 6.63 1.97 10.09
9/12/2021 1:30:00 AM 15.14 59.252 0.052 6.62 2.08 10.09
9/12/2021 1:45:00 AM 15.1 59.18 0.052 6.62 1.92 10.1
9/12/2021 2:00:00 AM 15.07 59.126 0.052 6.62 1.93 10.11
9/12/2021 2:15:00 AM 15.04 59.072 0.052 6.62 1.85 10.12
9/12/2021 2:30:00 AM 15.01 59.018 0.052 6.62 2 10.12
9/12/2021 2:45:00 AM 14.98 58.964 0.052 6.62 1.93 10.13
9/12/2021 3:00:00 AM 14.95 58.91 0.052 6.62 1.88 10.13
9/12/2021 3:15:00 AM 14.92 58.856 0.052 6.62 1.99 10.14
9/12/2021 3:30:00 AM 14.89 58.802 0.052 6.62 1.92 10.14
9/12/2021 3:45:00 AM 14.86 58.748 0.052 6.61 2.01 10.14
9/12/2021 4:00:00 AM 14.84 58.712 0.052 6.61 1.94 10.15
9/12/2021 4:15:00 AM 14.81 58.658 0.052 6.61 1.91 10.16
9/12/2021 4:30:00 AM 14.78 58.604 0.052 6.61 2.03 10.16
9/12/2021 4:45:00 AM 14.76 58.568 0.052 6.61 2.06 10.17
9/12/2021 5:00:00 AM 14.74 58.532 0.052 6.61 1.93 10.18
9/12/2021 5:15:00 AM 14.71 58.478 0.052 6.61 1.94 10.19
9/12/2021 5:30:00 AM 14.69 58.442 0.052 6.61 1.88 10.18
9/12/2021 5:45:00 AM 14.67 58.406 0.052 6.61 1.88 10.19
9/12/2021 6:00:00 AM 14.65 58.37 0.052 6.61 1.94 10.19
9/12/2021 6:15:00 AM 14.62 58.316 0.052 6.6 1.94 10.19
9/12/2021 6:30:00 AM 14.6 58.28 0.052 6.61 1.87 10.2
9/12/2021 6:45:00 AM 14.59 58.262 0.052 6.61 1.94 10.2
9/12/2021 7:00:00 AM 14.58 58.244 0.052 6.61 1.97 10.21
9/12/2021 7:15:00 AM 14.57 58.226 0.052 6.61 1.92 10.23
9/12/2021 7:30:00 AM 14.57 58.226 0.052 6.61 1.88 10.24
9/12/2021 7:45:00 AM 14.56 58.208 0.052 6.62 1.99 10.25
9/12/2021 8:00:00 AM 14.57 58.226 0.052 6.62 1.94 10.27
9/12/2021 8:15:00 AM 14.58 58.244 0.052 6.63 1.86 10.3
9/12/2021 8:30:00 AM 14.59 58.262 0.052 6.64 1.87 10.33
9/12/2021 8:45:00 AM 14.61 58.298 0.052 6.65 1.9 10.33
9/12/2021 9:00:00 AM 14.64 58.352 0.052 6.66 1.86 10.35
9/12/2021 9:15:00 AM 14.67 58.406 0.052 6.67 1.9 10.37
9/12/2021 9:30:00 AM 14.71 58.478 0.052 6.67 1.88 10.39
9/12/2021 9:45:00 AM 14.76 58.568 0.052 6.67 1.91 10.39
9/12/2021 10:00:00 AM 14.81 58.658 0.052 6.69 1.95 10.41
9/12/2021 10:15:00 AM 14.87 58.766 0.052 6.69 1.88 10.42
9/12/2021 10:30:00 AM 14.95 58.91 0.052 6.71 1.88 10.42
9/12/2021 10:45:00 AM 15.02 59.036 0.052 6.73 1.91 10.42
9/12/2021 11:00:00 AM 15.09 59.162 0.052 6.73 1.85 10.4
9/12/2021 11:15:00 AM 15.19 59.342 0.052 6.76 1.87 10.39
9/12/2021 11:30:00 AM 15.28 59.504 0.052 6.77 1.85 10.35
9/12/2021 11:45:00 AM 15.34 59.612 0.052 6.76 1.82 10.29
9/12/2021 12:00:00 PM 15.39 59.702 0.052 6.76 1.9 10.29
9/12/2021 12:15:00 PM 15.45 59.81 0.052 6.77 2.03 10.3
9/12/2021 12:30:00 PM 15.54 59.972 0.052 6.78 1.84 10.3
9/12/2021 12:45:00 PM 15.61 60.098 0.052 6.78 1.81 10.28
9/12/2021 1:00:00 PM 15.66 60.188 0.052 6.78 1.88 10.27
9/12/2021 1:15:00 PM 15.74 60.332 0.052 6.8 1.81 10.26
9/12/2021 1:30:00 PM 15.8 60.44 0.052 6.8 1.85 10.24
9/12/2021 1:45:00 PM 15.85 60.53 0.052 6.79 1.88 10.19
9/12/2021 2:00:00 PM 15.89 60.602 0.052 6.77 1.82 10.16
9/12/2021 2:15:00 PM 15.91 60.638 0.052 6.76 1.84 10.14
9/12/2021 2:30:00 PM 15.95 60.71 0.052 6.76 1.94 10.14
9/12/2021 2:45:00 PM 16.02 60.836 0.052 6.78 1.88 10.17
9/12/2021 3:00:00 PM 16.08 60.944 0.052 6.79 1.85 10.17
9/12/2021 3:15:00 PM 16.15 61.07 0.052 6.8 1.86 10.15
9/12/2021 3:30:00 PM 16.18 61.124 0.052 6.8 1.9 10.13
9/12/2021 3:45:00 PM 16.22 61.196 0.052 6.8 1.86 10.12
9/12/2021 4:00:00 PM 16.26 61.268 0.052 6.8 1.83 10.09
9/12/2021 4:15:00 PM 16.3 61.34 0.052 6.79 1.94 10.07
9/12/2021 4:30:00 PM 16.33 61.394 0.052 6.78 1.92 10.05
9/12/2021 4:45:00 PM 16.36 61.448 0.052 6.77 1.88 10.01
9/12/2021 5:00:00 PM 16.36 61.448 0.052 6.75 1.82 9.97
9/12/2021 5:15:00 PM 16.37 61.466 0.052 6.73 1.86 9.93
9/12/2021 5:30:00 PM 16.39 61.502 0.052 6.72 1.87 9.94
9/12/2021 5:45:00 PM 16.39 61.502 0.052 6.7 1.95 9.93
9/12/2021 6:00:00 PM 16.39 61.502 0.052 6.69 1.89 9.91
9/12/2021 6:15:00 PM 16.39 61.502 0.052 6.68 1.82 9.89
9/12/2021 6:30:00 PM 16.39 61.502 0.052 6.67 1.85 9.88
9/12/2021 6:45:00 PM 16.39 61.502 0.052 6.66 1.84 9.85
9/12/2021 7:00:00 PM 16.38 61.484 0.052 6.65 1.91 9.84
9/12/2021 7:15:00 PM 16.37 61.466 0.053 6.63 1.92 9.82
9/12/2021 7:30:00 PM 16.36 61.448 0.053 6.61 1.97 9.8
9/12/2021 7:45:00 PM 16.36 61.448 0.053 6.6 1.89 9.79
9/12/2021 8:00:00 PM 16.35 61.43 0.053 6.59 1.89 9.79
9/12/2021 8:15:00 PM 16.35 61.43 0.053 6.59 1.93 9.79
9/12/2021 8:30:00 PM 16.35 61.43 0.053 6.59 1.94 9.78
9/12/2021 8:45:00 PM 16.36 61.448 0.053 6.59 1.97 9.79
9/12/2021 9:00:00 PM 16.36 61.448 0.053 6.59 1.94 9.79
9/12/2021 9:15:00 PM 16.36 61.448 0.053 6.58 1.88 9.79
9/12/2021 9:30:00 PM 16.36 61.448 0.053 6.57 1.87 9.79
9/12/2021 9:45:00 PM 16.37 61.466 0.053 6.57 1.9 9.79
9/12/2021 10:00:00 PM 16.37 61.466 0.053 6.56 1.91 9.79
9/12/2021 10:15:00 PM 16.37 61.466 0.053 6.55 1.87 9.78
9/12/2021 10:30:00 PM 16.37 61.466 0.053 6.54 1.95 9.78
9/12/2021 10:45:00 PM 16.37 61.466 0.053 6.54 1.92 9.78
9/12/2021 11:00:00 PM 16.38 61.484 0.053 6.53 1.9 9.78
9/12/2021 11:15:00 PM 16.38 61.484 0.053 6.53 1.89 9.78
9/12/2021 11:30:00 PM 16.38 61.484 0.053 6.52 1.91 9.77
9/12/2021 11:45:00 PM 16.38 61.484 0.053 6.52 1.78 9.77
9/13/2021 12:00:00 AM 16.38 61.484 0.053 6.52 1.98 9.77
9/13/2021 12:15:00 AM 16.38 61.484 0.053 6.51 1.96 9.77
9/13/2021 12:30:00 AM 16.38 61.484 0.053 6.51 1.87 9.77
9/13/2021 12:45:00 AM 16.38 61.484 0.054 6.52 1.93 9.77
9/13/2021 1:00:00 AM 16.38 61.484 0.054 6.53 2.01 9.77
9/13/2021 1:15:00 AM 16.37 61.466 0.054 6.53 1.87 9.77
9/13/2021 1:30:00 AM 16.37 61.466 0.054 6.54 2.03 9.78
9/13/2021 1:45:00 AM 16.37 61.466 0.054 6.54 1.89 9.78
9/13/2021 2:00:00 AM 16.36 61.448 0.054 6.55 1.85 9.78
9/13/2021 2:15:00 AM 16.36 61.448 0.054 6.55 1.95 9.78
9/13/2021 2:30:00 AM 16.36 61.448 0.054 6.55 1.82 9.78
9/13/2021 2:45:00 AM 16.36 61.448 0.054 6.56 2.08 9.78
9/13/2021 3:00:00 AM 16.36 61.448 0.054 6.56 1.92 9.78
9/13/2021 3:15:00 AM 16.35 61.43 0.054 6.56 1.9 9.78
9/13/2021 3:30:00 AM 16.35 61.43 0.054 6.56 1.85 9.78
9/13/2021 3:45:00 AM 16.35 61.43 0.054 6.56 1.94 9.78
9/13/2021 4:00:00 AM 16.34 61.412 0.054 6.57 1.88 9.78
9/13/2021 4:15:00 AM 16.34 61.412 0.054 6.57 1.93 9.79
9/13/2021 4:30:00 AM 16.33 61.394 0.054 6.58 1.83 9.78
9/13/2021 4:45:00 AM 16.32 61.376 0.054 6.58 1.87 9.79
9/13/2021 5:00:00 AM 16.32 61.376 0.054 6.58 1.9 9.79
9/13/2021 5:15:00 AM 16.31 61.358 0.054 6.58 1.77 9.79
9/13/2021 5:30:00 AM 16.3 61.34 0.053 6.58 1.88 9.8
9/13/2021 5:45:00 AM 16.29 61.322 0.053 6.58 2.02 9.8
9/13/2021 6:00:00 AM 16.28 61.304 0.053 6.59 1.85 9.8
9/13/2021 6:15:00 AM 16.28 61.304 0.053 6.59 1.9 9.8
9/13/2021 6:30:00 AM 16.27 61.286 0.053 6.59 1.84 9.8
9/13/2021 6:45:00 AM 16.26 61.268 0.053 6.59 1.97 9.81
9/13/2021 7:00:00 AM 16.26 61.268 0.053 6.6 1.85 9.81
9/13/2021 7:15:00 AM 16.26 61.268 0.053 6.6 1.92 9.82
9/13/2021 7:30:00 AM 16.26 61.268 0.053 6.6 1.9 9.83
9/13/2021 7:45:00 AM 16.27 61.286 0.053 6.6 1.99 9.84
9/13/2021 8:00:00 AM 16.28 61.304 0.053 6.61 1.96 9.86
9/13/2021 8:15:00 AM 16.29 61.322 0.053 6.62 1.85 9.89
9/13/2021 8:30:00 AM 16.3 61.34 0.053 6.61 1.83 9.9
9/13/2021 8:45:00 AM 16.32 61.376 0.053 6.62 1.79 9.94
9/13/2021 9:00:00 AM 16.34 61.412 0.053 6.63 1.92 9.96
9/13/2021 9:15:00 AM 16.36 61.448 0.053 6.62 1.77 9.98
9/13/2021 9:30:00 AM 16.39 61.502 0.053 6.62 1.86 9.98
9/13/2021 9:45:00 AM 16.42 61.556 0.053 6.62 1.84 10
9/13/2021 10:00:00 AM 16.48 61.664 0.053 6.63 1.87 10.03
9/13/2021 10:15:00 AM 16.55 61.79 0.053 6.64 1.84 10.05
9/13/2021 10:30:00 AM 16.6 61.88 0.053 6.67 1.85 10.04
9/13/2021 10:45:00 AM 16.67 62.006 0.053 6.68 1.89 10.04
9/13/2021 11:00:00 AM 16.76 62.168 0.053 6.71 1.83 10.04
9/13/2021 11:15:00 AM 16.83 62.294 0.053 6.75 1.92 10.03
9/13/2021 11:30:00 AM 16.94 62.492 0.053 6.79 1.81 10.01
9/13/2021 11:45:00 AM 17.05 62.69 0.053 6.78 1.76 9.98
9/13/2021 12:00:00 PM 17.13 62.834 0.053 6.79 1.8 9.96
9/13/2021 12:15:00 PM 17.25 63.05 0.053 6.8 1.78 9.93
9/13/2021 12:30:00 PM 17.43 63.374 0.053 6.83 1.8 9.92
9/13/2021 12:45:00 PM 17.56 63.608 0.053 6.84 1.89 9.89
9/13/2021 1:00:00 PM 17.69 63.842 0.053 6.84 1.82 9.84
9/13/2021 1:15:00 PM 17.75 63.95 0.053 6.84 1.86 9.84
9/13/2021 1:30:00 PM 17.94 64.292 0.052 6.86 1.82 9.83
9/13/2021 1:45:00 PM 18.05 64.49 0.052 6.87 1.87 9.8
9/13/2021 2:00:00 PM 18.13 64.634 0.052 6.86 1.77 9.75
9/13/2021 2:15:00 PM 18.13 64.634 0.052 6.85 1.8 9.72
9/13/2021 2:30:00 PM 18.21 64.778 0.052 6.85 1.75 9.71
9/13/2021 2:45:00 PM 18.25 64.85 0.052 6.85 1.74 9.69
9/13/2021 3:00:00 PM 18.28 64.904 0.052 6.85 1.76 9.68
9/13/2021 3:15:00 PM 18.29 64.922 0.052 6.84 1.76 9.67
9/13/2021 3:30:00 PM 18.3 64.94 0.052 6.84 1.69 9.64
9/13/2021 3:45:00 PM 18.31 64.958 0.052 6.82 1.76 9.63
9/13/2021 4:00:00 PM 18.31 64.958 0.052 6.81 1.79 9.62
9/13/2021 4:15:00 PM 18.33 64.994 0.052 6.8 1.79 9.62
9/13/2021 4:30:00 PM 18.34 65.012 0.053 6.8 1.83 9.6
9/13/2021 4:45:00 PM 18.33 64.994 0.053 6.78 1.82 9.59
9/13/2021 5:00:00 PM 18.34 65.012 0.053 6.79 1.86 9.58
9/13/2021 5:15:00 PM 18.34 65.012 0.053 6.77 1.84 9.56
9/13/2021 5:30:00 PM 18.33 64.994 1.385 7.03 1.82 9.51
9/13/2021 5:45:00 PM 18.34 65.012 0.884 6.91 1.82 9.51
9/13/2021 6:00:00 PM 18.34 65.012 1.261 6.98 1.85 9.48
9/13/2021 6:15:00 PM 18.33 64.994 1.259 6.97 1.86 9.45
9/13/2021 6:30:00 PM 18.32 64.976 1.292 6.96 1.85 9.42
9/13/2021 6:45:00 PM 18.3 64.94 1.327 6.95 1.76 9.39
9/13/2021 7:00:00 PM 18.28 64.904 1.085 6.89 1.86 9.37
9/13/2021 7:15:00 PM 18.27 64.886 1.093 6.89 1.83 9.36
9/13/2021 7:30:00 PM 18.24 64.832 0.981 6.86 1.92 9.36
9/13/2021 7:45:00 PM 18.22 64.796 1.006 6.87 1.97 9.36
9/13/2021 8:00:00 PM 18.26 64.868 1.004 6.86 2.41 9.36
9/13/2021 8:15:00 PM 18.26 64.868 1.021 6.85 2.47 9.33
9/13/2021 8:30:00 PM 18.23 64.814 1.034 6.86 2.34 9.32
9/13/2021 8:45:00 PM 18.19 64.742 1.039 6.86 2.13 9.33
9/13/2021 9:00:00 PM 18.17 64.706 1.034 6.86 2.3 9.34
9/13/2021 9:15:00 PM 18.15 64.67 1.043 6.86 2.44 9.34
9/13/2021 9:30:00 PM 18.13 64.634 1.057 6.86 2.4 9.34
9/13/2021 9:45:00 PM 18.11 64.598 1.06 6.86 2.37 9.35
9/13/2021 10:00:00 PM 18.1 64.58 1.066 6.87 2.34 9.36
9/13/2021 10:15:00 PM 18.09 64.562 1.07 6.89 2.31 9.37
9/13/2021 10:30:00 PM 18.07 64.526 1.072 6.88 2.35 9.37
9/13/2021 10:45:00 PM 18.05 64.49 1.075 6.89 2.46 9.38
9/13/2021 11:00:00 PM 18.04 64.472 1.083 6.9 2.58 9.39
9/13/2021 11:15:00 PM 18.01 64.418 1.091 6.91 2.78 9.39
9/13/2021 11:30:00 PM 17.99 64.382 1.098 6.91 2.43 9.4
9/13/2021 11:45:00 PM 17.97 64.346 1.102 6.91 2.29 9.4
9/14/2021 12:00:00 AM 17.94 64.292 1.105 6.91 2.35 9.41
9/14/2021 12:15:00 AM 17.91 64.238 1.111 6.91 2.3 9.42
9/14/2021 12:30:00 AM 17.89 64.202 1.113 6.91 2.27 9.43
9/14/2021 12:45:00 AM 17.87 64.166 1.108 6.92 2.18 9.44
9/14/2021 1:00:00 AM 17.85 64.13 1.105 6.92 2.6 9.44
9/14/2021 1:15:00 AM 17.83 64.094 1.116 6.93 2.17 9.45
9/14/2021 1:30:00 AM 17.81 64.058 1.115 6.92 2.21 9.45
9/14/2021 1:45:00 AM 17.79 64.022 1.117 6.92 2.27 9.46
9/14/2021 2:00:00 AM 17.77 63.986 1.118 6.92 2.27 9.47
9/14/2021 2:15:00 AM 17.75 63.95 1.12 6.92 2.15 9.46
9/14/2021 2:30:00 AM 17.72 63.896 1.113 6.93 2.28 9.47
9/14/2021 2:45:00 AM 17.7 63.86 1.115 6.91 2.2 9.47
9/14/2021 3:00:00 AM 17.67 63.806 1.112 6.91 2.3 9.49
9/14/2021 3:15:00 AM 17.65 63.77 1.114 6.9 2.2 9.49
9/14/2021 3:30:00 AM 17.62 63.716 1.108 6.9 2.18 9.49
9/14/2021 3:45:00 AM 17.6 63.68 1.105 6.9 2.3 9.51
9/14/2021 4:00:00 AM 17.57 63.626 1.098 6.89 2.29 9.51
9/14/2021 4:15:00 AM 17.54 63.572 1.105 6.89 2.15 9.51
9/14/2021 4:30:00 AM 17.52 63.536 1.102 6.89 2.34 9.52
9/14/2021 4:45:00 AM 17.5 63.5 1.1 6.88 2.25 9.52
9/14/2021 5:00:00 AM 17.49 63.482 1.101 6.88 2.25 9.53
9/14/2021 5:15:00 AM 17.46 63.428 1.094 6.88 2.16 9.53
9/14/2021 5:30:00 AM 17.44 63.392 1.092 6.88 2.22 9.54
9/14/2021 5:45:00 AM 17.42 63.356 1.09 6.88 2.21 9.53
9/14/2021 6:00:00 AM 17.4 63.32 1.09 6.87 2.17 9.54
9/14/2021 6:15:00 AM 17.38 63.284 1.091 6.87 2.16 9.54
9/14/2021 6:30:00 AM 17.36 63.248 1.085 6.88 2.08 9.56
9/14/2021 6:45:00 AM 17.34 63.212 1.066 6.86 2.23 9.56
9/14/2021 7:00:00 AM 17.33 63.194 1.05 6.85 2.21 9.57
9/14/2021 7:15:00 AM 17.32 63.176 1.05 6.85 2.18 9.57
9/14/2021 7:30:00 AM 17.31 63.158 1.035 6.85 2.16 9.6
9/14/2021 7:45:00 AM 17.3 63.14 1.024 6.86 2.15 9.62
9/14/2021 8:00:00 AM 17.29 63.122 1.022 6.86 2.61 9.63
9/14/2021 8:15:00 AM 17.29 63.122 1.012 6.86 2.23 9.65
9/14/2021 8:30:00 AM 17.29 63.122 1.027 6.88 2.19 9.68
9/14/2021 8:45:00 AM 17.3 63.14 1.02 6.89 2.11 9.71
9/14/2021 9:00:00 AM 17.31 63.158 1.02 6.9 2 9.74
9/14/2021 9:15:00 AM 17.33 63.194 1.032 6.91 2.11 9.76
9/14/2021 9:30:00 AM 17.35 63.23 1.023 6.92 2.09 9.79
9/14/2021 9:45:00 AM 17.37 63.266 1.009 6.92 1.94 9.79
9/14/2021 10:00:00 AM 17.42 63.356 0.991 6.92 2.04 9.82
9/14/2021 10:15:00 AM 17.46 63.428 0.988 6.93 2.51 9.83
9/14/2021 10:30:00 AM 17.5 63.5 0.982 6.95 2.03 9.81
9/14/2021 10:45:00 AM 17.55 63.59 0.982 6.95 2.1 9.82
9/14/2021 11:00:00 AM 17.62 63.716 0.985 6.97 2.02 9.81
9/14/2021 11:15:00 AM 17.7 63.86 1.001 6.99 2.11 9.81
9/14/2021 11:30:00 AM 17.81 64.058 0.975 7 1.98 9.79
9/14/2021 11:45:00 AM 17.92 64.256 0.991 7.02 2.52 9.78
9/14/2021 12:00:00 PM 18.07 64.526 0.976 7.03 2.22 9.76
9/14/2021 12:15:00 PM 18.18 64.724 0.95 7.04 1.98 9.75
9/14/2021 12:30:00 PM 18.26 64.868 0.859 7.02 1.96 9.73
9/14/2021 12:45:00 PM 18.32 64.976 0.874 7.02 2.02 9.71
9/14/2021 1:00:00 PM 18.38 65.084 0.88 7.03 1.98 9.69
9/14/2021 1:15:00 PM 18.48 65.264 0.881 7.04 2.08 9.68
9/14/2021 1:30:00 PM 18.5 65.3 0.877 7.03 1.96 9.64
9/14/2021 1:45:00 PM 18.62 65.516 0.876 7.04 1.89 9.63
9/14/2021 2:00:00 PM 18.75 65.75 0.875 7.04 1.9 9.6
9/14/2021 2:15:00 PM 18.83 65.894 0.876 7.04 1.93 9.57
9/14/2021 2:30:00 PM 18.84 65.912 0.879 7.03 2.03 9.54
9/14/2021 2:45:00 PM 18.84 65.912 0.874 7.03 1.97 9.55
9/14/2021 3:00:00 PM 18.78 65.804 0.856 7.02 2.3 9.54
9/14/2021 3:15:00 PM 18.74 65.732 0.842 7.01 1.99 9.54
9/14/2021 3:30:00 PM 18.72 65.696 0.838 7 2.05 9.53
9/14/2021 3:45:00 PM 18.71 65.67799 0.833 7 2.02 9.52
9/14/2021 4:00:00 PM 18.71 65.67799 0.825 6.99 2.03 9.5
9/14/2021 4:15:00 PM 18.72 65.696 0.824 6.98 2.04 9.49
9/14/2021 4:30:00 PM 18.72 65.696 0.822 6.97 2.1 9.48
9/14/2021 4:45:00 PM 18.72 65.696 0.789 6.96 2.04 9.46
9/14/2021 5:00:00 PM 18.71 65.67799 0.783 6.93 2.01 9.44
9/14/2021 5:15:00 PM 18.7 65.66 0.782 6.92 1.99 9.42
9/14/2021 5:30:00 PM 18.69 65.642 0.805 6.91 2.02 9.4
9/14/2021 5:45:00 PM 18.68 65.624 0.813 6.9 1.98 9.39
9/14/2021 6:00:00 PM 18.67 65.606 0.802 6.89 2.02 9.38
9/14/2021 6:15:00 PM 18.65 65.57 0.799 6.88 1.92 9.37
9/14/2021 6:30:00 PM 18.64 65.552 0.804 6.86 1.99 9.36
9/14/2021 6:45:00 PM 18.62 65.516 0.794 6.86 2 9.34
9/14/2021 7:00:00 PM 18.6 65.48 0.795 6.84 1.97 9.32
9/14/2021 7:15:00 PM 18.57 65.426 0.798 6.83 1.91 9.3
9/14/2021 7:30:00 PM 18.55 65.39 0.797 6.8 1.9 9.29
9/14/2021 7:45:00 PM 18.51 65.318 0.799 6.81 1.97 9.29
9/14/2021 8:00:00 PM 18.48 65.264 0.802 6.8 1.97 9.29
9/14/2021 8:15:00 PM 18.45 65.21 0.804 6.8 1.99 9.29
9/14/2021 8:30:00 PM 18.41 65.138 0.808 6.8 2.24 9.3
9/14/2021 8:45:00 PM 18.38 65.084 0.808 6.8 1.94 9.3
9/14/2021 9:00:00 PM 18.35 65.03 0.808 6.8 1.89 9.31
9/14/2021 9:15:00 PM 18.32 64.976 0.804 6.81 1.91 9.32
9/14/2021 9:30:00 PM 18.29 64.922 0.801 6.81 1.97 9.32
9/14/2021 9:45:00 PM 18.26 64.868 0.8 6.81 2 9.32
9/14/2021 10:00:00 PM 18.24 64.832 0.8 6.81 1.79 9.33
9/14/2021 10:15:00 PM 18.22 64.796 0.799 6.81 1.89 9.34
9/14/2021 10:30:00 PM 18.19 64.742 0.801 6.81 2 9.34
9/14/2021 10:45:00 PM 18.17 64.706 0.797 6.8 1.91 9.34
9/14/2021 11:00:00 PM 18.16 64.688 0.798 6.8 1.79 9.35
9/14/2021 11:15:00 PM 18.14 64.652 0.794 6.8 1.83 9.35
9/14/2021 11:30:00 PM 18.12 64.616 0.79 6.8 1.87 9.35
9/14/2021 11:45:00 PM 18.1 64.58 0.796 6.8 1.96 9.35
9/15/2021 12:00:00 AM 18.09 64.562 0.797 6.8 1.82 9.36
9/15/2021 12:15:00 AM 18.07 64.526 0.792 6.8 1.86 9.36
9/15/2021 12:30:00 AM 18.05 64.49 0.795 6.79 1.84 9.36
9/15/2021 12:45:00 AM 18.04 64.472 0.792 6.79 1.92 9.37
9/15/2021 1:00:00 AM 18.02 64.436 0.79 6.79 1.92 9.37
9/15/2021 1:15:00 AM 18 64.4 0.789 6.79 1.95 9.37
9/15/2021 1:30:00 AM 17.99 64.382 0.787 6.78 1.93 9.37
9/15/2021 1:45:00 AM 17.97 64.346 0.784 6.79 2 9.38
9/15/2021 2:00:00 AM 17.96 64.328 0.784 6.79 1.95 9.38
9/15/2021 2:15:00 AM 17.94 64.292 0.785 6.78 1.87 9.38
9/15/2021 2:30:00 AM 17.93 64.274 0.784 6.78 1.83 9.38
9/15/2021 2:45:00 AM 17.92 64.256 0.787 6.78 1.98 9.38
9/15/2021 3:00:00 AM 17.9 64.22 0.786 6.77 1.87 9.38
9/15/2021 3:15:00 AM 17.89 64.202 0.785 6.77 2 9.39
9/15/2021 3:30:00 AM 17.88 64.184 0.785 6.76 1.86 9.39
9/15/2021 3:45:00 AM 17.87 64.166 0.783 6.75 1.87 9.39
9/15/2021 4:00:00 AM 17.86 64.148 0.78 6.75 1.9 9.39
9/15/2021 4:15:00 AM 17.85 64.13 0.779 6.75 1.9 9.39
9/15/2021 4:30:00 AM 17.84 64.112 0.779 6.74 2.06 9.39
9/15/2021 4:45:00 AM 17.83 64.094 0.779 6.74 1.87 9.39
9/15/2021 5:00:00 AM 17.82 64.076 0.779 6.74 1.87 9.4
9/15/2021 5:15:00 AM 17.81 64.058 0.77 6.74 2.03 9.39
9/15/2021 5:30:00 AM 17.81 64.058 0.771 6.74 1.82 9.4
9/15/2021 5:45:00 AM 17.8 64.04 0.77 6.74 2.07 9.4
9/15/2021 6:00:00 AM 17.8 64.04 0.769 6.73 2.22 9.39
9/15/2021 6:15:00 AM 17.8 64.04 0.77 6.73 1.86 9.4
9/15/2021 6:30:00 AM 17.8 64.04 0.769 6.73 1.93 9.4
9/15/2021 6:45:00 AM 17.8 64.04 0.769 6.71 1.88 9.4
9/15/2021 7:00:00 AM 17.8 64.04 0.771 6.72 2.09 9.4
9/15/2021 7:15:00 AM 17.8 64.04 0.773 6.72 1.98 9.4
9/15/2021 7:30:00 AM 17.8 64.04 0.772 6.72 1.94 9.41
9/15/2021 7:45:00 AM 17.81 64.058 0.773 6.72 1.93 9.43
9/15/2021 8:00:00 AM 17.81 64.058 0.776 6.72 2.01 9.46
9/15/2021 8:15:00 AM 17.82 64.076 0.776 6.72 1.95 9.49
9/15/2021 8:30:00 AM 17.84 64.112 0.778 6.72 1.9 9.53
9/15/2021 8:45:00 AM 17.86 64.148 0.777 6.73 1.91 9.55
9/15/2021 9:00:00 AM 17.89 64.202 0.776 6.74 1.98 9.6
9/15/2021 9:15:00 AM 17.93 64.274 0.775 6.75 1.8 9.63
9/15/2021 9:30:00 AM 17.97 64.346 0.777 6.74 2.02 9.63
9/15/2021 9:45:00 AM 18.01 64.418 0.777 6.76 1.79 9.63
9/15/2021 10:00:00 AM 18.06 64.508 0.775 6.82 1.8 9.64
9/15/2021 10:15:00 AM 18.12 64.616 0.773 6.85 1.84 9.65
9/15/2021 10:30:00 AM 18.24 64.832 0.784 6.89 1.82 9.68
9/15/2021 10:45:00 AM 18.33 64.994 0.777 6.94 1.9 9.67
9/15/2021 11:00:00 AM 18.4 65.12 0.778 6.97 1.85 9.66
9/15/2021 11:15:00 AM 18.43 65.174 0.779 6.97 2.01 9.63
9/15/2021 11:30:00 AM 18.49 65.282 0.777 6.99 2.02 9.62
9/15/2021 11:45:00 AM 18.54 65.372 0.774 7 1.82 9.61
9/15/2021 12:00:00 PM 18.66 65.588 0.77 7 1.79 9.59
9/15/2021 12:15:00 PM 18.79 65.82201 0.768 7 1.77 9.56
9/15/2021 12:30:00 PM 18.93 66.074 0.771 7.01 1.83 9.54
9/15/2021 12:45:00 PM 19.14 66.452 0.769 7.03 1.8 9.53
9/15/2021 1:00:00 PM 19.28 66.704 0.765 7.05 1.78 9.5
9/15/2021 1:15:00 PM 19.39 66.902 0.766 7.05 1.82 9.46
9/15/2021 1:30:00 PM 19.47 67.046 0.762 7.05 1.8 9.43
9/15/2021 1:45:00 PM 19.59 67.262 0.771 7.05 1.77 9.4
9/15/2021 2:00:00 PM 19.67 67.406 0.769 7.06 1.85 9.39
9/15/2021 2:15:00 PM 19.68 67.424 0.766 7.05 1.86 9.38
9/15/2021 2:30:00 PM 19.69 67.442 0.77 7.05 1.78 9.37
9/15/2021 2:45:00 PM 19.72 67.496 0.768 7.04 1.75 9.35
9/15/2021 3:00:00 PM 19.69 67.442 0.766 7.03 1.84 9.32
9/15/2021 3:15:00 PM 19.7 67.46 0.766 7.02 1.91 9.31
9/15/2021 3:30:00 PM 19.66 67.388 0.759 6.98 1.8 9.28
9/15/2021 3:45:00 PM 19.64 67.352 0.759 6.96 1.82 9.24
9/15/2021 4:00:00 PM 19.61 67.298 0.757 6.96 1.81 9.19
9/15/2021 4:15:00 PM 19.58 67.244 0.756 6.93 1.8 9.14
9/15/2021 4:30:00 PM 19.55 67.19 0.759 6.9 1.99 9.1
9/15/2021 4:45:00 PM 19.49 67.082 0.827 6.92 2.45 9.08
9/15/2021 5:00:00 PM 19.43 66.974 0.826 6.89 2.29 9.06
9/15/2021 5:15:00 PM 19.38 66.884 0.825 6.87 2.13 9.06
9/15/2021 5:30:00 PM 19.34 66.812 0.828 6.89 2 9.08
9/15/2021 5:45:00 PM 19.29 66.722 0.827 6.87 2.24 9.08
9/15/2021 6:00:00 PM 19.26 66.668 0.822 6.85 2.61 9.09
9/15/2021 6:15:00 PM 19.22 66.596 0.823 6.87 2.71 9.1
9/15/2021 6:30:00 PM 19.18 66.524 0.828 6.86 2.77 9.11
9/15/2021 6:45:00 PM 19.14 66.452 0.829 6.86 3.02 9.13
9/15/2021 7:00:00 PM 19.11 66.398 0.829 6.85 3.41 9.14
9/15/2021 7:15:00 PM 19.07 66.326 0.832 6.85 3.34 9.15
9/15/2021 7:30:00 PM 19.03 66.254 0.832 6.86 3.07 9.15
9/15/2021 7:45:00 PM 18.99 66.182 0.831 6.87 3.31 9.16
9/15/2021 8:00:00 PM 18.95 66.11 0.831 6.88 3.27 9.17
9/15/2021 8:15:00 PM 18.9 66.02 0.834 6.88 3.75 9.19
9/15/2021 8:30:00 PM 18.86 65.948 0.834 6.89 3.9 9.21
9/15/2021 8:45:00 PM 18.81 65.858 0.832 6.89 4.15 9.23
9/15/2021 9:00:00 PM 18.77 65.786 0.829 6.89 4.03 9.26
9/15/2021 9:15:00 PM 18.74 65.732 0.829 6.88 4.11 9.26
9/15/2021 9:30:00 PM 18.7 65.66 0.827 6.88 3.83 9.28
9/15/2021 9:45:00 PM 18.66 65.588 0.822 6.88 3.84 9.29
9/15/2021 10:00:00 PM 18.64 65.552 0.818 6.86 3.49 9.29
9/15/2021 10:15:00 PM 18.61 65.498 0.815 6.85 4.18 9.31
9/15/2021 10:30:00 PM 18.59 65.462 0.813 6.86 3.62 9.31
9/15/2021 10:45:00 PM 18.56 65.408 0.812 6.85 3.48 9.32
9/15/2021 11:00:00 PM 18.54 65.372 0.806 6.85 3.54 9.33
9/15/2021 11:15:00 PM 18.51 65.318 0.804 6.84 3.76 9.33
9/15/2021 11:30:00 PM 18.49 65.282 0.801 6.83 4.07 9.34
9/15/2021 11:45:00 PM 18.47 65.246 0.81 6.84 5.05 9.34
9/16/2021 12:00:00 AM 18.44 65.192 0.81 6.86 5.96 9.35
9/16/2021 12:15:00 AM 18.42 65.156 0.81 6.86 7.21 9.37
9/16/2021 12:30:00 AM 18.39 65.102 0.807 6.87 7.86 9.38
9/16/2021 12:45:00 AM 18.36 65.048 0.788 6.86 8.41 9.39
9/16/2021 1:00:00 AM 18.33 64.994 0.785 6.86 9.02 9.41
9/16/2021 1:15:00 AM 18.31 64.958 0.784 6.85 10.53 9.42
9/16/2021 1:30:00 AM 18.27 64.886 0.784 6.87 12.17 9.43
9/16/2021 1:45:00 AM 18.23 64.814 0.784 6.86 12.7 9.44
9/16/2021 2:00:00 AM 18.2 64.76 0.773 6.86 12.3 9.45
9/16/2021 2:15:00 AM 18.16 64.688 0.769 6.86 12.43 9.46
9/16/2021 2:30:00 AM 18.13 64.634 0.788 6.86 12.07 9.47
9/16/2021 2:45:00 AM 18.1 64.58 0.79 6.85 11.41 9.48
9/16/2021 3:00:00 AM 18.07 64.526 0.79 6.85 10.3 9.49
9/16/2021 3:15:00 AM 18.04 64.472 0.789 6.83 10.58 9.5
9/16/2021 3:30:00 AM 18.01 64.418 0.788 6.84 9.44 9.51
9/16/2021 3:45:00 AM 17.98 64.364 0.781 6.85 9.08 9.51
9/16/2021 4:00:00 AM 17.95 64.31 0.779 6.84 8.69 9.52
9/16/2021 4:15:00 AM 17.91 64.238 0.778 6.83 8.68 9.53
9/16/2021 4:30:00 AM 17.88 64.184 0.778 6.82 8.01 9.54
9/16/2021 4:45:00 AM 17.86 64.148 0.776 6.82 7.81 9.54
9/16/2021 5:00:00 AM 17.83 64.094 0.774 6.81 7.88 9.55
9/16/2021 5:15:00 AM 17.8 64.04 0.771 6.8 7.43 9.56
9/16/2021 5:30:00 AM 17.78 64.004 0.771 6.79 7.33 9.57
9/16/2021 5:45:00 AM 17.75 63.95 0.771 6.79 6.91 9.58
9/16/2021 6:00:00 AM 17.72 63.896 0.772 6.78 6.96 9.58
9/16/2021 6:15:00 AM 17.7 63.86 0.768 6.78 6.54 9.59
9/16/2021 6:30:00 AM 17.67 63.806 0.77 6.77 6.55 9.6
9/16/2021 6:45:00 AM 17.65 63.77 0.768 6.76 6.32 9.59
9/16/2021 7:00:00 AM 17.63 63.734 0.767 6.77 6.5 9.61
9/16/2021 7:15:00 AM 17.61 63.698 0.766 6.76 6.08 9.62
9/16/2021 7:30:00 AM 17.6 63.68 0.768 6.77 6.12 9.63
9/16/2021 7:45:00 AM 17.58 63.644 0.762 6.76 6.04 9.64
9/16/2021 8:00:00 AM 17.57 63.626 0.764 6.77 5.89 9.65
9/16/2021 8:15:00 AM 17.56 63.608 0.763 6.77 5.67 9.66
9/16/2021 8:30:00 AM 17.56 63.608 0.76 6.77 5.43 9.68
9/16/2021 8:45:00 AM 17.56 63.608 0.758 6.78 5.17 9.68
9/16/2021 9:00:00 AM 17.56 63.608 0.758 6.78 5.48 9.71
9/16/2021 9:15:00 AM 17.56 63.608 0.754 6.79 5.13 9.71
9/16/2021 9:30:00 AM 17.58 63.644 0.752 6.78 4.8 9.73
9/16/2021 9:45:00 AM 17.59 63.662 0.752 6.78 4.86 9.72
9/16/2021 10:00:00 AM 17.58 63.644 0.749 6.78 4.76 9.72
9/16/2021 10:15:00 AM 17.59 63.662 0.749 6.79 4.73 9.74
9/16/2021 10:30:00 AM 17.6 63.68 0.748 6.79 4.51 9.74
9/16/2021 10:45:00 AM 17.61 63.698 0.746 6.79 4.46 9.75
9/16/2021 11:00:00 AM 17.64 63.752 0.744 6.8 4.61 9.77
9/16/2021 11:15:00 AM 17.67 63.806 0.744 6.81 4.62 9.77
9/16/2021 11:30:00 AM 17.7 63.86 0.742 6.81 4.22 9.76
9/16/2021 11:45:00 AM 17.73 63.914 0.741 6.81 4.18 9.75
9/16/2021 12:00:00 PM 17.76 63.968 0.742 6.8 4.2 9.73
9/16/2021 12:15:00 PM 17.79 64.022 0.741 6.81 4.17 9.75
9/16/2021 12:30:00 PM 17.83 64.094 0.741 6.83 4.05 9.75
9/16/2021 12:45:00 PM 17.85 64.13 0.738 6.81 4.18 9.74
9/16/2021 1:00:00 PM 17.87 64.166 0.739 6.81 4.13 9.76
9/16/2021 1:15:00 PM 17.91 64.238 0.738 6.83 4.29 9.76
9/16/2021 1:30:00 PM 17.94 64.292 0.739 6.82 3.88 9.74
9/16/2021 1:45:00 PM 17.97 64.346 0.739 6.81 3.9 9.73
9/16/2021 2:00:00 PM 17.99 64.382 0.736 6.82 3.73 9.72
9/16/2021 2:15:00 PM 18.01 64.418 0.736 6.81 3.76 9.71
9/16/2021 2:30:00 PM 18.02 64.436 0.735 6.81 3.84 9.69
9/16/2021 2:45:00 PM 18.02 64.436 0.737 6.8 3.65 9.65
9/16/2021 3:00:00 PM 18.03 64.454 0.734 6.79 3.76 9.65
9/16/2021 3:15:00 PM 18.03 64.454 0.734 6.78 3.76 9.63
9/16/2021 3:30:00 PM 18.02 64.436 0.734 6.76 3.64 9.6
9/16/2021 3:45:00 PM 18.01 64.418 0.731 6.76 3.59 9.62
9/16/2021 4:00:00 PM 18.01 64.418 0.729 6.76 3.66 9.63
9/16/2021 4:15:00 PM 18.02 64.436 0.73 6.76 3.57 9.64
9/16/2021 4:30:00 PM 18.03 64.454 0.729 6.76 3.51 9.62
9/16/2021 4:45:00 PM 18.04 64.472 0.726 6.75 3.8 9.63
9/16/2021 5:00:00 PM 18.05 64.49 0.726 6.76 3.36 9.61
9/16/2021 5:15:00 PM 18.04 64.472 0.726 6.74 3.33 9.58
9/16/2021 5:30:00 PM 18.03 64.454 0.724 6.74 3.52 9.57
9/16/2021 5:45:00 PM 18.02 64.436 0.724 6.75 3.44 9.56
9/16/2021 6:00:00 PM 18 64.4 0.718 6.73 3.29 9.56
9/16/2021 6:15:00 PM 17.99 64.382 0.72 6.73 3.32 9.56
9/16/2021 6:30:00 PM 17.98 64.364 0.72 6.73 3.29 9.56
9/16/2021 6:45:00 PM 17.97 64.346 0.721 6.71 3.27 9.55
9/16/2021 7:00:00 PM 17.96 64.328 0.719 6.7 3.35 9.54
9/16/2021 7:15:00 PM 17.95 64.31 0.719 6.68 3.26 9.54
9/16/2021 7:30:00 PM 17.94 64.292 0.717 6.68 3.33 9.53
9/16/2021 7:45:00 PM 17.93 64.274 0.719 6.68 3.45 9.53
9/16/2021 8:00:00 PM 17.92 64.256 0.719 6.67 3.4 9.53
9/16/2021 8:15:00 PM 17.92 64.256 0.718 6.66 3.53 9.53
9/16/2021 8:30:00 PM 17.91 64.238 0.718 6.66 3.28 9.53
9/16/2021 8:45:00 PM 17.9 64.22 0.716 6.65 3.21 9.54
9/16/2021 9:00:00 PM 17.9 64.22 0.718 6.65 3.32 9.54
9/16/2021 9:15:00 PM 17.89 64.202 0.716 6.64 3.43 9.54
9/16/2021 9:30:00 PM 17.89 64.202 0.715 6.65 3.15 9.54
9/16/2021 9:45:00 PM 17.88 64.184 0.711 6.65 3.88 9.54
9/16/2021 10:00:00 PM 17.88 64.184 0.711 6.64 3.26 9.54
9/16/2021 10:15:00 PM 17.88 64.184 0.709 6.65 3.22 9.54
9/16/2021 10:30:00 PM 17.88 64.184 0.7 6.64 3.09 9.54
9/16/2021 10:45:00 PM 17.87 64.166 0.702 6.63 3.04 9.54
9/16/2021 11:00:00 PM 17.87 64.166 0.702 6.64 3.02 9.54
9/16/2021 11:15:00 PM 17.87 64.166 0.701 6.64 3.2 9.55
9/16/2021 11:30:00 PM 17.87 64.166 0.699 6.64 3.02 9.54
9/16/2021 11:45:00 PM 17.86 64.148 0.698 6.64 3.13 9.54
9/17/2021 12:00:00 AM 17.86 64.148 0.696 6.64 2.82 9.54
9/17/2021 12:15:00 AM 17.86 64.148 0.696 6.64 2.97 9.54
9/17/2021 12:30:00 AM 17.85 64.13 0.696 6.65 3.07 9.54
9/17/2021 12:45:00 AM 17.85 64.13 0.693 6.65 3.04 9.54
9/17/2021 1:00:00 AM 17.85 64.13 0.693 6.65 2.98 9.54
9/17/2021 1:15:00 AM 17.85 64.13 0.692 6.65 2.89 9.54
9/17/2021 1:30:00 AM 17.84 64.112 0.691 6.65 2.96 9.54
9/17/2021 1:45:00 AM 17.84 64.112 0.689 6.65 2.87 9.54
9/17/2021 2:00:00 AM 17.83 64.094 0.687 6.64 2.94 9.54
9/17/2021 2:15:00 AM 17.83 64.094 0.685 6.64 2.85 9.54
9/17/2021 2:30:00 AM 17.82 64.076 0.684 6.64 2.87 9.54
9/17/2021 2:45:00 AM 17.82 64.076 0.684 6.64 2.77 9.54
9/17/2021 3:00:00 AM 17.82 64.076 0.684 6.64 2.83 9.54
9/17/2021 3:15:00 AM 17.81 64.058 0.681 6.63 2.79 9.54
9/17/2021 3:30:00 AM 17.81 64.058 0.681 6.63 2.87 9.54
9/17/2021 3:45:00 AM 17.8 64.04 0.679 6.63 2.94 9.55
9/17/2021 4:00:00 AM 17.8 64.04 0.678 6.63 2.77 9.54
9/17/2021 4:15:00 AM 17.79 64.022 0.677 6.63 2.84 9.54
9/17/2021 4:30:00 AM 17.79 64.022 0.678 6.63 2.81 9.54
9/17/2021 4:45:00 AM 17.78 64.004 0.676 6.63 2.85 9.54
9/17/2021 5:00:00 AM 17.78 64.004 0.674 6.62 2.84 9.55
9/17/2021 5:15:00 AM 17.77 63.986 0.672 6.62 2.68 9.54
9/17/2021 5:30:00 AM 17.77 63.986 0.672 6.62 2.8 9.55
9/17/2021 5:45:00 AM 17.76 63.968 0.667 6.63 2.69 9.55
9/17/2021 6:00:00 AM 17.76 63.968 0.666 6.62 2.8 9.55
9/17/2021 6:15:00 AM 17.75 63.95 0.663 6.62 2.7 9.55
9/17/2021 6:30:00 AM 17.74 63.932 0.665 6.62 2.79 9.55
9/17/2021 6:45:00 AM 17.74 63.932 0.663 6.62 2.95 9.56
9/17/2021 7:00:00 AM 17.73 63.914 0.661 6.62 2.83 9.57
9/17/2021 7:15:00 AM 17.72 63.896 0.659 6.61 2.72 9.56
9/17/2021 7:30:00 AM 17.72 63.896 0.658 6.61 2.88 9.58
9/17/2021 7:45:00 AM 17.71 63.878 0.645 6.6 2.75 9.59
9/17/2021 8:00:00 AM 17.71 63.878 0.641 6.6 2.61 9.58
9/17/2021 8:15:00 AM 17.71 63.878 0.628 6.59 2.7 9.6
9/17/2021 8:30:00 AM 17.7 63.86 0.631 6.6 2.5 9.61
9/17/2021 8:45:00 AM 17.7 63.86 0.623 6.6 2.71 9.63
9/17/2021 9:00:00 AM 17.71 63.878 0.625 6.6 2.68 9.64
9/17/2021 9:15:00 AM 17.72 63.896 0.624 6.62 2.53 9.66
9/17/2021 9:30:00 AM 17.73 63.914 0.624 6.62 2.48 9.68
9/17/2021 9:45:00 AM 17.75 63.95 0.609 6.64 2.61 9.71
9/17/2021 10:00:00 AM 17.77 63.986 0.606 6.66 2.62 9.74
9/17/2021 10:15:00 AM 17.81 64.058 0.604 6.69 2.69 9.76
9/17/2021 10:30:00 AM 17.85 64.13 0.595 6.72 3 9.77
9/17/2021 10:45:00 AM 17.87 64.166 0.584 6.73 2.5 9.75
9/17/2021 11:00:00 AM 17.91 64.238 0.583 6.75 2.65 9.75
9/17/2021 11:15:00 AM 17.93 64.274 0.583 6.75 2.54 9.72
9/17/2021 11:30:00 AM 17.94 64.292 0.581 6.75 2.49 9.7
9/17/2021 11:45:00 AM 17.95 64.31 0.58 6.75 2.43 9.7
9/17/2021 12:00:00 PM 17.96 64.328 0.589 6.74 2.5 9.65
9/17/2021 12:15:00 PM 17.98 64.364 0.588 6.74 2.55 9.68
9/17/2021 12:30:00 PM 18 64.4 0.586 6.74 2.41 9.69
9/17/2021 12:45:00 PM 18.04 64.472 0.584 6.76 2.48 9.72
9/17/2021 1:00:00 PM 18.06 64.508 0.583 6.77 2.41 9.72
9/17/2021 1:15:00 PM 18.09 64.562 0.58 6.76 2.52 9.71
9/17/2021 1:30:00 PM 18.12 64.616 0.578 6.77 2.39 9.72
9/17/2021 1:45:00 PM 18.17 64.706 0.576 6.79 2.37 9.74
9/17/2021 2:00:00 PM 18.25 64.85 0.574 6.81 2.47 9.74
9/17/2021 2:15:00 PM 18.31 64.958 0.571 6.82 2.42 9.73
9/17/2021 2:30:00 PM 18.39 65.102 0.568 6.83 2.46 9.72
9/17/2021 2:45:00 PM 18.41 65.138 0.567 6.83 2.4 9.7
9/17/2021 3:00:00 PM 18.46 65.228 0.565 6.83 2.42 9.68
9/17/2021 3:15:00 PM 18.48 65.264 0.561 6.82 2.47 9.65
9/17/2021 3:30:00 PM 18.5 65.3 0.558 6.81 2.54 9.62
9/17/2021 3:45:00 PM 18.5 65.3 0.553 6.79 2.45 9.58
9/17/2021 4:00:00 PM 18.48 65.264 0.549 6.76 2.41 9.54
9/17/2021 4:15:00 PM 18.48 65.264 0.538 6.75 2.31 9.55
9/17/2021 4:30:00 PM 18.48 65.264 0.529 6.75 3.23 9.54
9/17/2021 4:45:00 PM 18.46 65.228 0.526 6.72 2.37 9.5
9/17/2021 5:00:00 PM 18.45 65.21 0.523 6.71 2.33 9.48
9/17/2021 5:15:00 PM 18.43 65.174 0.523 6.7 2.27 9.46
9/17/2021 5:30:00 PM 18.41 65.138 0.521 6.69 2.48 9.45
9/17/2021 5:45:00 PM 18.39 65.102 0.525 6.68 2.34 9.45
9/17/2021 6:00:00 PM 18.38 65.084 0.531 6.68 2.28 9.45
9/17/2021 6:15:00 PM 18.37 65.066 0.527 6.68 2.37 9.46
9/17/2021 6:30:00 PM 18.36 65.048 0.502 6.67 2.3 9.47
9/17/2021 6:45:00 PM 18.34 65.012 0.497 6.66 2.39 9.45
9/17/2021 7:00:00 PM 18.33 64.994 0.492 6.65 2.33 9.44
9/17/2021 7:15:00 PM 18.31 64.958 0.491 6.64 2.49 9.43
9/17/2021 7:30:00 PM 18.3 64.94 0.492 6.63 2.31 9.42
9/17/2021 7:45:00 PM 18.28 64.904 0.496 6.63 2.29 9.42
9/17/2021 8:00:00 PM 18.26 64.868 0.508 6.62 2.33 9.42
9/17/2021 8:15:00 PM 18.24 64.832 0.511 6.63 2.41 9.42
9/17/2021 8:30:00 PM 18.21 64.778 0.512 6.63 2.32 9.43
9/17/2021 8:45:00 PM 18.19 64.742 0.512 6.64 2.58 9.43
9/17/2021 9:00:00 PM 18.17 64.706 0.51 6.64 2.39 9.44
9/17/2021 9:15:00 PM 18.15 64.67 0.508 6.65 2.37 9.44
9/17/2021 9:30:00 PM 18.14 64.652 0.498 6.65 2.36 9.45
9/17/2021 9:45:00 PM 18.12 64.616 0.5 6.65 2.48 9.45
9/17/2021 10:00:00 PM 18.1 64.58 0.498 6.66 2.52 9.46
9/17/2021 10:15:00 PM 18.08 64.544 0.501 6.66 2.47 9.46
9/17/2021 10:30:00 PM 18.06 64.508 0.502 6.66 2.38 9.46
9/17/2021 10:45:00 PM 18.04 64.472 0.501 6.66 2.39 9.46
9/17/2021 11:00:00 PM 18.02 64.436 0.487 6.66 2.4 9.47
9/17/2021 11:15:00 PM 18 64.4 0.49 6.66 2.37 9.47
9/17/2021 11:30:00 PM 17.98 64.364 0.494 6.66 2.5 9.47
9/17/2021 11:45:00 PM 17.96 64.328 0.493 6.66 2.35 9.47
9/18/2021 12:00:00 AM 17.94 64.292 0.488 6.66 2.46 9.48
9/18/2021 12:15:00 AM 17.92 64.256 0.488 6.65 2.33 9.48
9/18/2021 12:30:00 AM 17.9 64.22 0.488 6.65 2.36 9.49
9/18/2021 12:45:00 AM 17.88 64.184 0.487 6.65 2.46 9.49
9/18/2021 1:00:00 AM 17.87 64.166 0.486 6.64 2.44 9.5
9/18/2021 1:15:00 AM 17.85 64.13 0.484 6.64 2.26 9.5
9/18/2021 1:30:00 AM 17.84 64.112 0.48 6.65 2.54 9.5
9/18/2021 1:45:00 AM 17.83 64.094 0.475 6.64 2.32 9.5
9/18/2021 2:00:00 AM 17.81 64.058 0.475 6.64 2.4 9.51
9/18/2021 2:15:00 AM 17.8 64.04 0.476 6.64 2.32 9.51
9/18/2021 2:30:00 AM 17.79 64.022 0.475 6.64 2.3 9.5
9/18/2021 2:45:00 AM 17.77 63.986 0.476 6.64 2.29 9.51
9/18/2021 3:00:00 AM 17.76 63.968 0.474 6.63 2.27 9.51
9/18/2021 3:15:00 AM 17.75 63.95 0.474 6.63 2.4 9.51
9/18/2021 3:30:00 AM 17.74 63.932 0.472 6.63 2.27 9.52
9/18/2021 3:45:00 AM 17.73 63.914 0.472 6.63 2.36 9.51
9/18/2021 4:00:00 AM 17.72 63.896 0.466 6.62 2.32 9.51
9/18/2021 4:15:00 AM 17.71 63.878 0.464 6.62 2.44 9.52
9/18/2021 4:30:00 AM 17.7 63.86 0.463 6.62 2.34 9.52
9/18/2021 4:45:00 AM 17.69 63.842 0.461 6.62 2.5 9.53
9/18/2021 5:00:00 AM 17.69 63.842 0.453 6.61 2.19 9.53
9/18/2021 5:15:00 AM 17.68 63.824 0.454 6.61 2.18 9.53
9/18/2021 5:30:00 AM 17.67 63.806 0.453 6.61 2.42 9.52
9/18/2021 5:45:00 AM 17.67 63.806 0.452 6.61 2.83 9.53
9/18/2021 6:00:00 AM 17.66 63.788 0.453 6.6 2.6 9.52
9/18/2021 6:15:00 AM 17.65 63.77 0.452 6.6 2.39 9.52
9/18/2021 6:30:00 AM 17.65 63.77 0.452 6.61 2.37 9.53
9/18/2021 6:45:00 AM 17.64 63.752 0.448 6.6 2.34 9.53
9/18/2021 7:00:00 AM 17.64 63.752 0.449 6.62 2.41 9.54
9/18/2021 7:15:00 AM 17.63 63.734 0.44 6.6 2.27 9.53
9/18/2021 7:30:00 AM 17.62 63.716 0.44 6.59 2.34 9.54
9/18/2021 7:45:00 AM 17.62 63.716 0.439 6.59 2.3 9.55
9/18/2021 8:00:00 AM 17.62 63.716 0.437 6.6 2.38 9.57
9/18/2021 8:15:00 AM 17.62 63.716 0.438 6.6 2.26 9.59
9/18/2021 8:30:00 AM 17.62 63.716 0.438 6.61 2.13 9.61
9/18/2021 8:45:00 AM 17.64 63.752 0.437 6.62 2.21 9.65
9/18/2021 9:00:00 AM 17.65 63.77 0.434 6.62 2.27 9.66
9/18/2021 9:15:00 AM 17.67 63.806 0.433 6.63 2.28 9.69
9/18/2021 9:30:00 AM 17.71 63.878 0.424 6.66 2.15 9.72
9/18/2021 9:45:00 AM 17.75 63.95 0.425 6.68 2.19 9.74
9/18/2021 10:00:00 AM 17.8 64.04 0.423 6.7 2.15 9.75
9/18/2021 10:15:00 AM 17.85 64.13 0.416 6.73 2.22 9.77
9/18/2021 10:30:00 AM 17.89 64.202 0.414 6.75 2.09 9.76
9/18/2021 10:45:00 AM 17.94 64.292 0.417 6.77 2.27 9.77
9/18/2021 11:00:00 AM 17.99 64.382 0.416 6.78 2.12 9.77
9/18/2021 11:15:00 AM 18.07 64.526 0.417 6.78 2.19 9.76
9/18/2021 11:30:00 AM 18.16 64.688 0.414 6.8 2.13 9.75
9/18/2021 11:45:00 AM 18.21 64.778 0.415 6.8 2.16 9.69
9/18/2021 12:00:00 PM 18.25 64.85 0.414 6.79 1.97 9.67
9/18/2021 12:15:00 PM 18.3 64.94 0.412 6.79 2.11 9.65
9/18/2021 12:30:00 PM 18.42 65.156 0.411 6.81 2.17 9.65
9/18/2021 12:45:00 PM 18.52 65.336 0.41 6.81 2.05 9.65
9/18/2021 1:00:00 PM 18.59 65.462 0.408 6.82 2.05 9.61
9/18/2021 1:15:00 PM 18.7 65.66 0.406 6.83 2.08 9.61
9/18/2021 1:30:00 PM 18.7 65.66 0.404 6.81 2.25 9.56
9/18/2021 1:45:00 PM 18.77 65.786 0.403 6.81 2.02 9.54
9/18/2021 2:00:00 PM 18.85 65.93 0.401 6.81 2.06 9.53
9/18/2021 2:15:00 PM 18.89 66.002 0.4 6.81 2.07 9.51
9/18/2021 2:30:00 PM 18.89 66.002 0.404 6.81 2.02 9.5
9/18/2021 2:45:00 PM 18.87 65.966 0.404 6.81 2.16 9.51
9/18/2021 3:00:00 PM 18.88 65.984 0.399 6.81 2.11 9.51
9/18/2021 3:15:00 PM 18.91 66.038 0.398 6.81 2.05 9.48
9/18/2021 3:30:00 PM 18.93 66.074 0.397 6.79 2.02 9.44
9/18/2021 3:45:00 PM 18.93 66.074 0.397 6.79 2.07 9.42
9/18/2021 4:00:00 PM 18.94 66.092 0.397 6.78 2.01 9.41
9/18/2021 4:15:00 PM 18.96 66.128 0.369 6.77 2 9.42
9/18/2021 4:30:00 PM 18.99 66.182 0.367 6.78 2.06 9.45
9/18/2021 4:45:00 PM 19.01 66.218 0.347 6.77 1.92 9.39
9/18/2021 5:00:00 PM 19 66.2 0.343 6.75 2.05 9.35
9/18/2021 5:15:00 PM 18.98 66.164 0.325 6.73 1.98 9.35
9/18/2021 5:30:00 PM 18.97 66.146 0.314 6.71 2.02 9.33
9/18/2021 5:45:00 PM 18.95 66.11 0.311 6.7 1.98 9.32
9/18/2021 6:00:00 PM 18.93 66.074 0.317 6.7 2.03 9.33
9/18/2021 6:15:00 PM 18.91 66.038 0.313 6.7 2.01 9.32
9/18/2021 6:30:00 PM 18.89 66.002 0.31 6.69 2.03 9.31
9/18/2021 6:45:00 PM 18.87 65.966 0.314 6.69 2.03 9.31
9/18/2021 7:00:00 PM 18.84 65.912 0.31 6.68 2.03 9.3
9/18/2021 7:15:00 PM 18.81 65.858 0.304 6.67 2.15 9.29
9/18/2021 7:30:00 PM 18.77 65.786 0.302 6.67 2.11 9.29
9/18/2021 7:45:00 PM 18.74 65.732 0.3 6.66 2.23 9.29
9/18/2021 8:00:00 PM 18.71 65.67799 0.292 6.65 2.09 9.29
9/18/2021 8:15:00 PM 18.69 65.642 0.297 6.65 2.18 9.29
9/18/2021 8:30:00 PM 18.66 65.588 0.292 6.66 2.14 9.3
9/18/2021 8:45:00 PM 18.63 65.534 0.3 6.66 2.03 9.31
9/18/2021 9:00:00 PM 18.61 65.498 0.292 6.66 2.03 9.31
9/18/2021 9:15:00 PM 18.59 65.462 0.293 6.67 2.05 9.32
9/18/2021 9:30:00 PM 18.56 65.408 0.291 6.66 2.15 9.32
9/18/2021 9:45:00 PM 18.54 65.372 0.29 6.66 2.03 9.33
9/18/2021 10:00:00 PM 18.51 65.318 0.282 6.66 2.07 9.34
9/18/2021 10:15:00 PM 18.49 65.282 0.288 6.67 2.1 9.35
9/18/2021 10:30:00 PM 18.47 65.246 0.283 6.66 1.92 9.35
9/18/2021 10:45:00 PM 18.44 65.192 0.269 6.66 2.01 9.36
9/18/2021 11:00:00 PM 18.42 65.156 0.261 6.67 2.1 9.37
9/18/2021 11:15:00 PM 18.39 65.102 0.251 6.67 2.09 9.37
9/18/2021 11:30:00 PM 18.37 65.066 0.289 6.67 2.07 9.38
9/18/2021 11:45:00 PM 18.34 65.012 0.29 6.66 2.15 9.39
9/19/2021 12:00:00 AM 18.3 64.94 0.287 6.68 2.06 9.4
9/19/2021 12:15:00 AM 18.26 64.868 0.304 6.68 2.07 9.4
9/19/2021 12:30:00 AM 18.22 64.796 0.304 6.69 2.13 9.41
9/19/2021 12:45:00 AM 18.17 64.706 0.297 6.69 2.05 9.42
9/19/2021 1:00:00 AM 18.12 64.616 0.295 6.68 2.24 9.43
9/19/2021 1:15:00 AM 18.08 64.544 0.313 6.68 2.05 9.44
9/19/2021 1:30:00 AM 18.02 64.436 0.31 6.68 2.16 9.45
9/19/2021 1:45:00 AM 17.97 64.346 0.316 6.68 2.04 9.46
9/19/2021 2:00:00 AM 17.91 64.238 0.323 6.68 2.03 9.47
9/19/2021 2:15:00 AM 17.86 64.148 0.33 6.67 2.12 9.48
9/19/2021 2:30:00 AM 17.8 64.04 0.329 6.68 1.97 9.5
9/19/2021 2:45:00 AM 17.74 63.932 0.328 6.69 2.04 9.5
9/19/2021 3:00:00 AM 17.67 63.806 0.328 6.68 2.04 9.52
9/19/2021 3:15:00 AM 17.61 63.698 0.325 6.67 2.19 9.54
9/19/2021 3:30:00 AM 17.55 63.59 0.331 6.68 2.04 9.54
9/19/2021 3:45:00 AM 17.49 63.482 0.33 6.68 1.94 9.55
9/19/2021 4:00:00 AM 17.42 63.356 0.328 6.68 2.03 9.57
9/19/2021 4:15:00 AM 17.36 63.248 0.326 6.68 1.98 9.59
9/19/2021 4:30:00 AM 17.3 63.14 0.327 6.67 1.92 9.6
9/19/2021 4:45:00 AM 17.23 63.014 0.33 6.67 2.03 9.61
9/19/2021 5:00:00 AM 17.17 62.906 0.334 6.68 1.94 9.62
9/19/2021 5:15:00 AM 17.11 62.798 0.335 6.69 2.04 9.64
9/19/2021 5:30:00 AM 17.04 62.672 0.336 6.68 2.04 9.65
9/19/2021 5:45:00 AM 16.98 62.564 0.335 6.69 2.14 9.67
9/19/2021 6:00:00 AM 16.91 62.438 0.338 6.68 2.02 9.69
9/19/2021 6:15:00 AM 16.85 62.33 0.336 6.68 2.13 9.7
9/19/2021 6:30:00 AM 16.79 62.222 0.338 6.68 2.28 9.72
9/19/2021 6:45:00 AM 16.72 62.096 0.329 6.67 2.2 9.73
9/19/2021 7:00:00 AM 16.67 62.006 0.311 6.67 2.29 9.75
9/19/2021 7:15:00 AM 16.61 61.898 0.32 6.68 2.12 9.77
9/19/2021 7:30:00 AM 16.55 61.79 0.307 6.67 2.06 9.8
9/19/2021 7:45:00 AM 16.5 61.7 0.301 6.68 2.09 9.82
9/19/2021 8:00:00 AM 16.46 61.628 0.316 6.68 1.92 9.84
9/19/2021 8:15:00 AM 16.42 61.556 0.305 6.68 2.15 9.87
9/19/2021 8:30:00 AM 16.39 61.502 0.307 6.69 2.02 9.89
9/19/2021 8:45:00 AM 16.37 61.466 0.293 6.69 1.92 9.91
9/19/2021 9:00:00 AM 16.36 61.448 0.298 6.7 2.03 9.93
9/19/2021 9:15:00 AM 16.37 61.466 0.287 6.71 1.95 9.95
9/19/2021 9:30:00 AM 16.38 61.484 0.271 6.72 1.94 9.97
9/19/2021 9:45:00 AM 16.41 61.538 0.265 6.73 2.03 9.99
9/19/2021 10:00:00 AM 16.45 61.61 0.269 6.75 1.96 10
9/19/2021 10:15:00 AM 16.49 61.682 0.273 6.76 1.95 10.01
9/19/2021 10:30:00 AM 16.55 61.79 0.274 6.77 1.98 10.02
9/19/2021 10:45:00 AM 16.6 61.88 0.269 6.78 1.91 10.02
9/19/2021 11:00:00 AM 16.66 61.988 0.264 6.78 1.91 10.01
9/19/2021 11:15:00 AM 16.72 62.096 0.256 6.79 1.97 9.99
9/19/2021 11:30:00 AM 16.82 62.276 0.25 6.79 1.89 9.97
9/19/2021 11:45:00 AM 16.94 62.492 0.251 6.8 1.93 9.96
9/19/2021 12:00:00 PM 17.06 62.708 0.244 6.81 1.87 9.94
9/19/2021 12:15:00 PM 17.21 62.978 0.241 6.82 1.91 9.92
9/19/2021 12:30:00 PM 17.36 63.248 0.247 6.83 1.89 9.9
9/19/2021 12:45:00 PM 17.51 63.518 0.241 6.83 1.86 9.87
9/19/2021 1:00:00 PM 17.63 63.734 0.231 6.83 1.92 9.85
9/19/2021 1:15:00 PM 17.71 63.878 0.208 6.83 1.89 9.83
9/19/2021 1:30:00 PM 17.75 63.95 0.21 6.84 1.99 9.8
9/19/2021 1:45:00 PM 17.77 63.986 0.237 6.84 1.84 9.79
9/19/2021 2:00:00 PM 17.77 63.986 0.23 6.83 1.84 9.78
9/19/2021 2:15:00 PM 17.75 63.95 0.218 6.82 1.78 9.77
9/19/2021 2:30:00 PM 17.72 63.896 0.233 6.82 1.86 9.76
9/19/2021 2:45:00 PM 17.69 63.842 0.219 6.81 1.89 9.74
9/19/2021 3:00:00 PM 17.64 63.752 0.216 6.81 1.87 9.74
9/19/2021 3:15:00 PM 17.6 63.68 0.214 6.79 2.25 9.73
9/19/2021 3:30:00 PM 17.57 63.626 0.217 6.78 1.81 9.72
9/19/2021 3:45:00 PM 17.55 63.59 0.215 6.77 1.92 9.7
9/19/2021 4:00:00 PM 17.53 63.554 0.21 6.76 1.91 9.7
9/19/2021 4:15:00 PM 17.51 63.518 0.207 6.76 1.85 9.69
9/19/2021 4:30:00 PM 17.49 63.482 0.222 6.76 1.85 9.69
9/19/2021 4:45:00 PM 17.46 63.428 0.212 6.75 1.79 9.68
9/19/2021 5:00:00 PM 17.42 63.356 0.214 6.75 1.94 9.68
9/19/2021 5:15:00 PM 17.38 63.284 0.207 6.74 1.85 9.67
9/19/2021 5:30:00 PM 17.33 63.194 0.22 6.74 1.88 9.67
9/19/2021 5:45:00 PM 17.29 63.122 0.216 6.73 1.94 9.68
9/19/2021 6:00:00 PM 17.24 63.032 0.207 6.73 1.97 9.68
9/19/2021 6:15:00 PM 17.19 62.942 0.199 6.72 1.83 9.68
9/19/2021 6:30:00 PM 17.14 62.852 0.202 6.72 1.9 9.69
9/19/2021 6:45:00 PM 17.08 62.744 0.194 6.72 1.87 9.69
9/19/2021 7:00:00 PM 17.04 62.672 0.192 6.72 1.79 9.69
9/19/2021 7:15:00 PM 16.99 62.582 0.174 6.71 1.79 9.69
9/19/2021 7:30:00 PM 16.93 62.474 0.168 6.71 1.91 9.7
9/19/2021 7:45:00 PM 16.88 62.384 0.166 6.7 1.95 9.71
9/19/2021 8:00:00 PM 16.82 62.276 0.157 6.7 1.84 9.72
9/19/2021 8:15:00 PM 16.76 62.168 0.164 6.7 1.94 9.73
9/19/2021 8:30:00 PM 16.7 62.06 0.157 6.69 1.89 9.74
9/19/2021 8:45:00 PM 16.65 61.97 0.163 6.7 1.92 9.76
9/19/2021 9:00:00 PM 16.59 61.862 0.156 6.69 1.9 9.77
9/19/2021 9:15:00 PM 16.54 61.772 0.16 6.69 2.16 9.78
9/19/2021 9:30:00 PM 16.48 61.664 0.16 6.68 1.99 9.8
9/19/2021 9:45:00 PM 16.43 61.574 0.157 6.68 1.93 9.81
9/19/2021 10:00:00 PM 16.37 61.466 0.145 6.68 1.94 9.82
9/19/2021 10:15:00 PM 16.32 61.376 0.147 6.68 1.8 9.83
9/19/2021 10:30:00 PM 16.26 61.268 0.146 6.68 1.84 9.84
9/19/2021 10:45:00 PM 16.21 61.178 0.142 6.67 1.89 9.86
9/19/2021 11:00:00 PM 16.15 61.07 0.14 6.67 1.89 9.88
9/19/2021 11:15:00 PM 16.09 60.962 0.139 6.67 1.87 9.89
9/19/2021 11:30:00 PM 16.03 60.854 0.139 6.67 1.85 9.91
9/19/2021 11:45:00 PM 15.97 60.746 0.135 6.67 1.9 9.92
9/20/2021 12:00:00 AM 15.91 60.638 0.13 6.67 1.83 9.93
9/20/2021 12:15:00 AM 15.85 60.53 0.126 6.66 1.99 9.94
9/20/2021 12:30:00 AM 15.79 60.422 0.133 6.66 1.9 9.96
9/20/2021 12:45:00 AM 15.73 60.314 0.136 6.66 1.9 9.98
9/20/2021 1:00:00 AM 15.67 60.206 0.135 6.66 1.93 9.99
9/20/2021 1:15:00 AM 15.61 60.098 0.134 6.66 1.9 10
9/20/2021 1:30:00 AM 15.55 59.99 0.133 6.66 1.88 10.02
9/20/2021 1:45:00 AM 15.49 59.882 0.112 6.65 1.97 10.03
9/20/2021 2:00:00 AM 15.43 59.774 0.114 6.65 1.93 10.05
9/20/2021 2:15:00 AM 15.37 59.666 0.115 6.65 1.95 10.06
9/20/2021 2:30:00 AM 15.31 59.558 0.111 6.65 1.9 10.07
9/20/2021 2:45:00 AM 15.25 59.45 0.11 6.65 1.94 10.09
9/20/2021 3:00:00 AM 15.19 59.342 0.107 6.65 1.78 10.1
9/20/2021 3:15:00 AM 15.13 59.234 0.1 6.65 1.85 10.12
9/20/2021 3:30:00 AM 15.07 59.126 0.087 6.64 1.83 10.13
9/20/2021 3:45:00 AM 15.02 59.036 0.083 6.64 1.76 10.14
9/20/2021 4:00:00 AM 14.96 58.928 0.085 6.64 1.81 10.16
9/20/2021 4:15:00 AM 14.91 58.838 0.079 6.64 1.81 10.17
9/20/2021 4:30:00 AM 14.85 58.73 0.081 6.64 1.82 10.19
9/20/2021 4:45:00 AM 14.8 58.64 0.081 6.64 1.8 10.2
9/20/2021 5:00:00 AM 14.75 58.55 0.08 6.64 1.76 10.22
9/20/2021 5:15:00 AM 14.7 58.46 0.081 6.64 1.86 10.22
9/20/2021 5:30:00 AM 14.65 58.37 0.081 6.64 1.75 10.23
9/20/2021 5:45:00 AM 14.61 58.298 0.081 6.64 1.84 10.25
9/20/2021 6:00:00 AM 14.56 58.208 0.08 6.64 1.89 10.25
9/20/2021 6:15:00 AM 14.52 58.136 0.074 6.64 1.92 10.27
9/20/2021 6:30:00 AM 14.47 58.046 0.074 6.64 1.88 10.28
9/20/2021 6:45:00 AM 14.43 57.974 0.075 6.64 1.74 10.29
9/20/2021 7:00:00 AM 14.39 57.902 0.088 6.64 1.77 10.31
9/20/2021 7:15:00 AM 14.35 57.83 0.084 6.64 1.78 10.33
9/20/2021 7:30:00 AM 14.32 57.776 0.084 6.65 1.79 10.35
9/20/2021 7:45:00 AM 14.29 57.722 0.088 6.65 1.79 10.37
9/20/2021 8:00:00 AM 14.27 57.686 0.089 6.66 1.82 10.39
9/20/2021 8:15:00 AM 14.25 57.65 0.086 6.67 1.78 10.4
9/20/2021 8:30:00 AM 14.24 57.632 0.079 6.66 1.76 10.42
9/20/2021 8:45:00 AM 14.24 57.632 0.074 6.67 1.71 10.44
9/20/2021 9:00:00 AM 14.25 57.65 0.076 6.68 1.77 10.46
9/20/2021 9:15:00 AM 14.27 57.686 0.076 6.68 1.77 10.48
9/20/2021 9:30:00 AM 14.31 57.758 0.074 6.69 1.72 10.49
9/20/2021 9:45:00 AM 14.37 57.866 0.082 6.7 1.79 10.51
9/20/2021 10:00:00 AM 14.48 58.064 0.051 6.79 2.37 10.16
9/20/2021 10:15:00 AM 14.56 58.208 0.052 6.68 3.19 10.17
9/20/2021 10:30:00 AM 14.66 58.388 0.052 6.7 2.16 10.18
9/20/2021 10:45:00 AM 14.74 58.532 0.052 6.74 2.56 10.17
9/20/2021 11:00:00 AM 14.83 58.694 0.052 6.77 1.86 10.15
9/20/2021 11:15:00 AM 14.94 58.892 0.052 6.78 1.5 10.13
9/20/2021 11:30:00 AM 15.07 59.126 0.049 6.79 2.13 10.1
9/20/2021 11:45:00 AM 15.23 59.414 0.05 6.81 2.39 10.07
9/20/2021 12:00:00 PM 15.41 59.738 0.051 6.82 2.47 10.05
9/20/2021 12:15:00 PM 15.6 60.08 0.05 6.83 3.24 10.02
9/20/2021 12:30:00 PM 15.8 60.44 0.051 6.84 2.28 9.98
9/20/2021 12:45:00 PM 16 60.8 0.051 6.85 3.73 9.95
9/20/2021 1:00:00 PM 16.18 61.124 0.051 6.85 2.17 9.92
9/20/2021 1:15:00 PM 16.32 61.376 0.05 6.87 2.19 9.89
9/20/2021 1:30:00 PM 16.42 61.556 0.051 6.87 2.43 9.85
9/20/2021 1:45:00 PM 16.49 61.682 0.051 6.86 3.37 9.82
9/20/2021 2:00:00 PM 16.53 61.754 0.051 6.86 2.29 9.8
9/20/2021 2:15:00 PM 16.55 61.79 0.051 6.86 2.54 9.79
9/20/2021 2:30:00 PM 16.55 61.79 0.049 6.86 2.49 9.78
9/20/2021 2:45:00 PM 16.54 61.772 0.045 6.86 2.34 9.77
9/20/2021 3:00:00 PM 16.52 61.736 0.045 6.85 2.5 9.75
9/20/2021 3:15:00 PM 16.5 61.7 0.052 6.84 2.82 9.74
9/20/2021 3:30:00 PM 16.48 61.664 0.052 6.85 3.1 9.73
9/20/2021 3:45:00 PM 16.48 61.664 0.051 6.84 1.97 9.71
9/20/2021 4:00:00 PM 16.49 61.682 0.051 6.85 2.46 9.71
9/20/2021 4:15:00 PM 16.51 61.718 0.045 6.83 2.58 9.7
9/20/2021 4:30:00 PM 16.54 61.772 0.045 6.83 3.01 9.71
9/20/2021 4:45:00 PM 16.55 61.79 0.051 6.82 2.5 9.68
9/20/2021 5:00:00 PM 16.56 61.808 0.049 6.82 2.03 9.66
9/20/2021 5:15:00 PM 16.56 61.808 0.051 6.82 1.64 9.67
9/20/2021 5:30:00 PM 16.56 61.808 0.052 6.81 2.45 9.66
9/20/2021 5:45:00 PM 16.54 61.772 0.052 6.79 1.83 9.65
9/20/2021 6:00:00 PM 16.53 61.754 0.049 6.79 2.29 9.64
9/20/2021 6:15:00 PM 16.5 61.7 0.052 6.78 2.18 9.62
9/20/2021 6:30:00 PM 16.48 61.664 0.049 6.77 2.22 9.61
9/20/2021 6:45:00 PM 16.45 61.61 0.052 6.78 1.4 9.59
9/20/2021 7:00:00 PM 16.42 61.556 0.052 6.77 2 9.59
9/20/2021 7:15:00 PM 16.39 61.502 0.045 6.77 2.53 9.58
9/20/2021 7:30:00 PM 16.35 61.43 0.041 6.77 2.53 9.58
9/20/2021 7:45:00 PM 16.31 61.358 0.052 6.76 2.36 9.58
9/20/2021 8:00:00 PM 16.27 61.286 0.052 6.76 2.53 9.59
9/20/2021 8:15:00 PM 16.23 61.214 0.046 6.75 3.21 9.59
9/20/2021 8:30:00 PM 16.19 61.142 0.052 6.76 2.3 9.6
9/20/2021 8:45:00 PM 16.15 61.07 0.052 6.75 2.38 9.61
9/20/2021 9:00:00 PM 16.11 60.998 0.052 6.74 2.58 9.62
9/20/2021 9:15:00 PM 16.07 60.926 0.049 6.74 2.27 9.63
9/20/2021 9:30:00 PM 16.03 60.854 0.047 6.75 1.94 9.64
9/20/2021 9:45:00 PM 15.99 60.782 0.052 6.74 2.78 9.65
9/20/2021 10:00:00 PM 15.95 60.71 0.05 6.75 2.04 9.65
9/20/2021 10:15:00 PM 15.92 60.656 0.052 6.74 1.44 9.66
9/20/2021 10:30:00 PM 15.89 60.602 0.051 6.74 2.2 9.67
9/20/2021 10:45:00 PM 15.85 60.53 0.048 6.74 3.18 9.67
9/20/2021 11:00:00 PM 15.82 60.476 0.052 6.73 1.77 9.68
9/20/2021 11:15:00 PM 15.79 60.422 0.052 6.73 2.5 9.69
9/20/2021 11:30:00 PM 15.77 60.386 0.048 6.73 5.4 9.69
9/20/2021 11:45:00 PM 15.74 60.332 0.052 6.73 2.89 9.7
9/21/2021 12:00:00 AM 15.71 60.278 0.048 6.73 2.87 9.71
9/21/2021 12:15:00 AM 15.68 60.224 0.051 6.73 2.58 9.71
9/21/2021 12:30:00 AM 15.64 60.152 0.049 6.73 2.55 9.72
9/21/2021 12:45:00 AM 15.61 60.098 0.051 6.72 1.89 9.73
9/21/2021 1:00:00 AM 15.58 60.044 0.052 6.72 2.64 9.74
9/21/2021 1:15:00 AM 15.54 59.972 0.049 6.73 2.53 9.74
9/21/2021 1:30:00 AM 15.51 59.918 0.053 6.73 2.88 9.75
9/21/2021 1:45:00 AM 15.48 59.864 0.051 6.73 1.78 9.76
9/21/2021 2:00:00 AM 15.45 59.81 0.053 6.72 4.98 9.76
9/21/2021 2:15:00 AM 15.42 59.756 0.049 6.72 1.98 9.77
9/21/2021 2:30:00 AM 15.4 59.72 0.046 6.72 1.9 9.77
9/21/2021 2:45:00 AM 15.38 59.684 0.048 6.72 2.76 9.79
9/21/2021 3:00:00 AM 15.36 59.648 0.052 6.72 2.76 9.78
9/21/2021 3:15:00 AM 15.33 59.594 0.053 6.72 2.35 9.79
9/21/2021 3:30:00 AM 15.32 59.576 0.046 6.72 2.26 9.79
9/21/2021 3:45:00 AM 15.3 59.54 0.05 6.72 2.49 9.8
9/21/2021 4:00:00 AM 15.28 59.504 0.053 6.71 1.62 9.8
9/21/2021 4:15:00 AM 15.26 59.468 0.049 6.73 2.85 9.8
9/21/2021 4:30:00 AM 15.23 59.414 0.053 6.73 2.71 9.82
9/21/2021 4:45:00 AM 15.21 59.378 0.053 6.73 1.98 9.82
9/21/2021 5:00:00 AM 15.2 59.36 0.053 6.71 1.79 9.82
9/21/2021 5:15:00 AM 15.19 59.342 0.053 6.71 3.18 9.82
9/21/2021 5:30:00 AM 15.18 59.324 0.053 6.72 2.68 9.82
9/21/2021 5:45:00 AM 15.18 59.324 0.052 6.72 1.79 9.82
9/21/2021 6:00:00 AM 15.17 59.306 0.052 6.71 2.22 9.83
9/21/2021 6:15:00 AM 15.16 59.288 0.053 6.73 1.66 9.83
9/21/2021 6:30:00 AM 15.16 59.288 0.052 6.72 1.76 9.83
9/21/2021 6:45:00 AM 15.16 59.288 0.052 6.72 2.3 9.84
9/21/2021 7:00:00 AM 15.15 59.27 0.053 6.72 2.52 9.84
9/21/2021 7:15:00 AM 15.14 59.252 0.053 6.73 1.46 9.86
9/21/2021 7:30:00 AM 15.12 59.216 0.053 6.73 1.57 9.88
9/21/2021 7:45:00 AM 15.11 59.198 0.052 6.74 1.71 9.89
9/21/2021 8:00:00 AM 15.11 59.198 0.05 6.74 2.23 9.91
9/21/2021 8:15:00 AM 15.12 59.216 0.053 6.76 1.4 9.92
9/21/2021 8:30:00 AM 15.12 59.216 0.05 6.75 2.25 9.94
9/21/2021 8:45:00 AM 15.14 59.252 0.053 6.76 2.09 9.97
9/21/2021 9:00:00 AM 15.17 59.306 0.052 6.79 2.36 10.02
9/21/2021 9:15:00 AM 15.22 59.396 0.052 6.8 2.18 10.07
9/21/2021 9:30:00 AM 15.27 59.486 0.053 6.82 2.61 10.1
9/21/2021 9:45:00 AM 15.32 59.576 0.053 6.83 1.85 10.07
9/21/2021 10:00:00 AM 15.39 59.702 0.045 6.85 3.31 10.1
9/21/2021 10:15:00 AM 15.49 59.882 0.052 6.86 1.82 10.11
9/21/2021 10:30:00 AM 15.52 59.936 0.052 6.88 1.84 10.09
9/21/2021 10:45:00 AM 15.59 60.062 0.052 6.89 2.83 10.08
9/21/2021 11:00:00 AM 15.64 60.152 0.052 6.89 2.01 10.07
9/21/2021 11:15:00 AM 15.72 60.296 0.052 6.91 2.64 10.08
9/21/2021 11:30:00 AM 15.78 60.404 0.051 6.91 2.11 10.05
9/21/2021 11:45:00 AM 15.84 60.512 0.045 6.92 3.33 10.05
9/21/2021 12:00:00 PM 15.92 60.656 0.052 6.92 2.63 10.05
9/21/2021 12:15:00 PM 15.96 60.728 0.05 6.93 4.26 10.01
9/21/2021 12:30:00 PM 16.02 60.836 0.045 6.93 2.11 10
9/21/2021 12:45:00 PM 16.09 60.962 0.052 6.93 1.78 9.99
9/21/2021 1:00:00 PM 16.14 61.052 0.047 6.93 2.16 9.97
9/21/2021 1:15:00 PM 16.21 61.178 0.043 6.93 2.6 9.95
9/21/2021 1:30:00 PM 16.24 61.232 0.052 6.92 2.51 9.92
9/21/2021 1:45:00 PM 16.25 61.25 0.052 6.91 1.67 9.86
9/21/2021 2:00:00 PM 16.28 61.304 0.051 6.89 2.22 9.85
9/21/2021 2:15:00 PM 16.31 61.358 0.047 6.9 2.62 9.85
9/21/2021 2:30:00 PM 16.35 61.43 0.051 6.89 1.62 9.86
9/21/2021 2:45:00 PM 16.41 61.538 0.05 6.91 2.59 9.89
9/21/2021 3:00:00 PM 16.46 61.628 0.049 6.93 2.63 9.89
9/21/2021 3:15:00 PM 16.51 61.718 0.051 6.93 2.23 9.88
9/21/2021 3:30:00 PM 16.53 61.754 0.047 6.92 2.3 9.84
9/21/2021 3:45:00 PM 16.54 61.772 0.052 6.9 1.4 9.8
9/21/2021 4:00:00 PM 16.56 61.808 0.05 6.89 2.41 9.77
9/21/2021 4:15:00 PM 16.59 61.862 0.05 6.89 2.62 9.77
9/21/2021 4:30:00 PM 16.62 61.916 0.051 6.92 3.22 9.78
9/21/2021 4:45:00 PM 16.64 61.952 0.052 6.88 1.87 9.75
9/21/2021 5:00:00 PM 16.65 61.97 0.05 6.88 2.18 9.72
9/21/2021 5:15:00 PM 16.64 61.952 0.053 6.85 2.51 9.67
9/21/2021 5:30:00 PM 16.64 61.952 0.053 6.84 2.45 9.64
9/21/2021 5:45:00 PM 16.63 61.934 0.052 6.83 2.29 9.63
9/21/2021 6:00:00 PM 16.62 61.916 0.049 6.82 2.27 9.61
9/21/2021 6:15:00 PM 16.61 61.898 0.048 6.8 2.92 9.59
9/21/2021 6:30:00 PM 16.6 61.88 0.053 6.79 2.46 9.57
9/21/2021 6:45:00 PM 16.58 61.844 0.052 6.78 3.29 9.55
9/21/2021 7:00:00 PM 16.56 61.808 0.053 6.77 2.5 9.54
9/21/2021 7:15:00 PM 16.54 61.772 0.051 6.77 2.36 9.52
9/21/2021 7:30:00 PM 16.52 61.736 0.052 6.77 2.05 9.52
9/21/2021 7:45:00 PM 16.5 61.7 0.053 6.77 2.88 9.51
9/21/2021 8:00:00 PM 16.49 61.682 0.053 6.77 1.43 9.51
9/21/2021 8:15:00 PM 16.48 61.664 0.052 6.75 2.3 9.51
9/21/2021 8:30:00 PM 16.47 61.646 0.046 6.75 2.17 9.52
9/21/2021 8:45:00 PM 16.46 61.628 0.051 6.75 2.69 9.51
9/21/2021 9:00:00 PM 16.44 61.592 0.052 6.76 3.29 9.52
9/21/2021 9:15:00 PM 16.43 61.574 0.052 6.76 3.24 9.52
9/21/2021 9:30:00 PM 16.43 61.574 0.046 6.75 3.3 9.52
9/21/2021 9:45:00 PM 16.41 61.538 0.053 6.75 2.11 9.53
9/21/2021 10:00:00 PM 16.4 61.52 0.053 6.74 1.53 9.52
9/21/2021 10:15:00 PM 16.39 61.502 0.054 6.76 1.5 9.53
9/21/2021 10:30:00 PM 16.37 61.466 0.052 6.74 2.41 9.53
9/21/2021 10:45:00 PM 16.36 61.448 0.053 6.74 2.38 9.54
9/21/2021 11:00:00 PM 16.34 61.412 0.05 6.73 2.72 9.53
9/21/2021 11:15:00 PM 16.33 61.394 0.054 6.74 3.16 9.54
9/21/2021 11:30:00 PM 16.31 61.358 0.044 6.74 3.24 9.54
9/21/2021 11:45:00 PM 16.3 61.34 0.051 6.75 1.92 9.55
9/22/2021 12:00:00 AM 16.29 61.322 0.051 6.74 2.61 9.55
9/22/2021 12:15:00 AM 16.29 61.322 0.047 6.74 3.61 9.55
9/22/2021 12:30:00 AM 16.28 61.304 0.054 6.74 2.97 9.55
9/22/2021 12:45:00 AM 16.27 61.286 0.054 6.74 3.15 9.55
9/22/2021 1:00:00 AM 16.27 61.286 0.054 6.76 2.39 9.55
9/22/2021 1:15:00 AM 16.26 61.268 0.054 6.74 2.79 9.54
9/22/2021 1:30:00 AM 16.26 61.268 0.049 6.72 3.31 9.54
9/22/2021 1:45:00 AM 16.25 61.25 0.054 6.74 1.65 9.54
9/22/2021 2:00:00 AM 16.24 61.232 0.054 6.73 1.8 9.54
9/22/2021 2:15:00 AM 16.24 61.232 0.054 6.73 3.11 9.55
9/22/2021 2:30:00 AM 16.24 61.232 0.054 6.72 2.58 9.54
9/22/2021 2:45:00 AM 16.23 61.214 0.052 6.72 2.12 9.54
9/22/2021 3:00:00 AM 16.23 61.214 0.054 6.73 2.38 9.54
9/22/2021 3:15:00 AM 16.23 61.214 0.054 6.72 2.56 9.54
9/22/2021 3:30:00 AM 16.22 61.196 0.052 6.72 1.75 9.54
9/22/2021 3:45:00 AM 16.22 61.196 0.054 6.72 2.37 9.54
9/22/2021 4:00:00 AM 16.22 61.196 0.053 6.72 2.44 9.54
9/22/2021 4:15:00 AM 16.22 61.196 0.054 6.72 1.8 9.53
9/22/2021 4:30:00 AM 16.22 61.196 0.053 6.71 3.18 9.53
9/22/2021 4:45:00 AM 16.21 61.178 0.05 6.73 2.02 9.53
9/22/2021 5:00:00 AM 16.21 61.178 0.047 6.72 2.17 9.53
9/22/2021 5:15:00 AM 16.21 61.178 0.05 6.73 2.02 9.53
9/22/2021 5:30:00 AM 16.2 61.16 0.051 6.72 2.66 9.53
9/22/2021 5:45:00 AM 16.2 61.16 0.045 6.72 2.44 9.53
9/22/2021 6:00:00 AM 16.19 61.142 0.047 6.73 2.38 9.53
9/22/2021 6:15:00 AM 16.19 61.142 0.047 6.73 2.02 9.53
9/22/2021 6:30:00 AM 16.18 61.124 0.046 6.72 2.12 9.53
9/22/2021 6:45:00 AM 16.18 61.124 0.047 6.72 1.99 9.53
9/22/2021 7:00:00 AM 16.18 61.124 0.049 6.72 2.3 9.53
9/22/2021 7:15:00 AM 16.18 61.124 0.052 6.72 2 9.54
9/22/2021 7:30:00 AM 16.18 61.124 0.045 6.72 2.68 9.56
9/22/2021 7:45:00 AM 16.18 61.124 0.052 6.73 1.88 9.57
9/22/2021 8:00:00 AM 16.18 61.124 0.051 6.72 2.45 9.57
9/22/2021 8:15:00 AM 16.2 61.16 0.049 6.73 2.23 9.61
9/22/2021 8:30:00 AM 16.21 61.178 0.052 6.74 1.95 9.65
9/22/2021 8:45:00 AM 16.23 61.214 0.052 6.75 1.85 9.67
9/22/2021 9:00:00 AM 16.25 61.25 0.052 6.76 1.93 9.71
9/22/2021 9:15:00 AM 16.29 61.322 0.048 6.77 2.58 9.76
9/22/2021 9:30:00 AM 16.33 61.394 0.05 6.79 2.88 9.79
9/22/2021 9:45:00 AM 16.37 61.466 0.051 6.79 2.24 9.76
9/22/2021 10:00:00 AM 16.4 61.52 0.054 6.77 2.15 9.67
9/22/2021 10:15:00 AM 16.42 61.556 0.048 6.77 2.17 9.63
9/22/2021 10:30:00 AM 16.46 61.628 0.053 6.79 2.18 9.66
9/22/2021 10:45:00 AM 16.5 61.7 0.046 6.82 2.52 9.72
9/22/2021 11:00:00 AM 16.56 61.808 0.047 6.84 2.31 9.74
9/22/2021 11:15:00 AM 16.6 61.88 0.053 6.85 2.86 9.71
9/22/2021 11:30:00 AM 16.63 61.934 0.051 6.86 2.57 9.7
9/22/2021 11:45:00 AM 16.67 62.006 0.051 6.85 2.32 9.7
9/22/2021 12:00:00 PM 16.69 62.042 0.048 6.85 2.4 9.69
9/22/2021 12:15:00 PM 16.74 62.132 0.052 6.87 2.27 9.7
9/22/2021 12:30:00 PM 16.8 62.24 0.052 6.87 1.59 9.68
9/22/2021 12:45:00 PM 16.86 62.348 0.049 6.9 2.59 9.7
9/22/2021 1:00:00 PM 16.9 62.42 0.053 6.9 2.84 9.65
9/22/2021 1:15:00 PM 16.93 62.474 0.052 6.9 1.53 9.63
9/22/2021 1:30:00 PM 16.98 62.564 0.053 6.91 2.22 9.63
9/22/2021 1:45:00 PM 17.01 62.618 0.052 6.91 2.89 9.62
9/22/2021 2:00:00 PM 17.03 62.654 0.052 6.9 2.58 9.61
9/22/2021 2:15:00 PM 17.06 62.708 0.052 6.89 2.53 9.57
9/22/2021 2:30:00 PM 17.08 62.744 0.051 6.89 2.64 9.57
9/22/2021 2:45:00 PM 17.13 62.834 0.048 6.9 1.9 9.57
9/22/2021 3:00:00 PM 17.16 62.888 0.046 6.89 2.51 9.55
9/22/2021 3:15:00 PM 17.2 62.96 0.046 6.9 2.21 9.53
9/22/2021 3:30:00 PM 17.23 63.014 0.044 6.9 2.59 9.53
9/22/2021 3:45:00 PM 17.25 63.05 0.054 6.89 2.61 9.48
9/22/2021 4:00:00 PM 17.26 63.068 0.054 6.86 2.43 9.41
9/22/2021 4:15:00 PM 17.27 63.086 0.053 6.85 2.62 9.37
9/22/2021 4:30:00 PM 17.27 63.086 0.053 6.84 2.67 9.35
9/22/2021 4:45:00 PM 17.28 63.104 0.054 6.85 2.38 9.35
9/22/2021 5:00:00 PM 17.29 63.122 0.054 6.83 2.31 9.35
9/22/2021 5:15:00 PM 17.29 63.122 0.054 6.83 1.75 9.38
9/22/2021 5:30:00 PM 17.3 63.14 0.05 6.83 2.22 9.37
9/22/2021 5:45:00 PM 17.3 63.14 0.052 6.82 2.5 9.35
9/22/2021 6:00:00 PM 17.3 63.14 0.053 6.81 1.97 9.32
9/22/2021 6:15:00 PM 17.3 63.14 0.047 6.79 2.58 9.29
9/22/2021 6:30:00 PM 17.3 63.14 0.053 6.78 3.79 9.27
9/22/2021 6:45:00 PM 17.3 63.14 0.052 6.78 2.31 9.25
9/22/2021 7:00:00 PM 17.3 63.14 0.053 6.76 1.5 9.24
9/22/2021 7:15:00 PM 17.29 63.122 0.047 6.76 2.3 9.24
9/22/2021 7:30:00 PM 17.29 63.122 0.051 6.76 2.43 9.23
9/22/2021 7:45:00 PM 17.29 63.122 0.047 6.77 3.45 9.23
9/22/2021 8:00:00 PM 17.29 63.122 0.049 6.77 2.69 9.24
9/22/2021 8:15:00 PM 17.29 63.122 0.051 6.77 2.77 9.23
9/22/2021 8:30:00 PM 17.29 63.122 0.054 6.77 2.12 9.24
9/22/2021 8:45:00 PM 17.29 63.122 0.053 6.67 3.01 9.23
9/22/2021 9:00:00 PM 17.29 63.122 0.054 6.76 3.61 9.23
9/22/2021 9:15:00 PM 17.29 63.122 0.054 6.75 2.92 9.23
9/22/2021 9:30:00 PM 17.3 63.14 0.054 6.77 3.57 9.23
9/22/2021 9:45:00 PM 17.3 63.14 0.054 6.75 2.14 9.24
9/22/2021 10:00:00 PM 17.3 63.14 0.054 6.76 3.13 9.24
9/22/2021 10:15:00 PM 17.31 63.158 0.054 6.78 2.71 9.23
9/22/2021 10:30:00 PM 17.32 63.176 0.054 6.78 3.1 9.23
9/22/2021 10:45:00 PM 17.33 63.194 0.054 6.77 2.31 9.23
9/22/2021 11:00:00 PM 17.32 63.176 0.054 6.77 2.7 9.24
9/22/2021 11:15:00 PM 17.32 63.176 0.054 6.75 2 9.23
9/22/2021 11:30:00 PM 17.33 63.194 0.054 6.77 2.51 9.24
9/22/2021 11:45:00 PM 17.33 63.194 0.054 6.79 2.62 9.23
9/23/2021 12:00:00 AM 17.34 63.212 0.053 6.78 2.15 9.24
9/23/2021 12:15:00 AM 17.34 63.212 0.049 6.76 3.08 9.23
9/23/2021 12:30:00 AM 17.35 63.23 0.054 6.75 3.62 9.23
9/23/2021 12:45:00 AM 17.36 63.248 0.054 6.75 2.24 9.23
9/23/2021 1:00:00 AM 17.38 63.284 0.051 6.77 2.32 9.23
9/23/2021 1:15:00 AM 17.39 63.302 0.052 6.78 3.75 9.22
9/23/2021 1:30:00 AM 17.4 63.32 0.054 6.78 3.26 9.22
9/23/2021 1:45:00 AM 17.42 63.356 0.053 6.78 3.97 9.21
9/23/2021 2:00:00 AM 17.43 63.374 0.053 6.78 2.73 9.21
9/23/2021 2:15:00 AM 17.44 63.392 0.054 6.78 3.56 9.2
9/23/2021 2:30:00 AM 17.45 63.41 0.053 6.78 2.75 9.2
9/23/2021 2:45:00 AM 17.46 63.428 0.054 6.77 2.09 9.2
9/23/2021 3:00:00 AM 17.47 63.446 0.054 6.77 1.91 9.2
9/23/2021 3:15:00 AM 17.47 63.446 0.054 6.77 4.2 9.19
9/23/2021 3:30:00 AM 17.48 63.464 0.054 6.78 2.07 9.19
9/23/2021 3:45:00 AM 17.49 63.482 0.054 6.78 1.57 9.19
9/23/2021 4:00:00 AM 17.5 63.5 0.053 6.78 3.7 9.19
9/23/2021 4:15:00 AM 17.5 63.5 0.053 6.77 2.74 9.19
9/23/2021 4:30:00 AM 17.51 63.518 0.053 6.77 2.01 9.18
9/23/2021 4:45:00 AM 17.51 63.518 0.054 6.79 2.94 9.18
9/23/2021 5:00:00 AM 17.52 63.536 0.048 6.78 2.9 9.17
9/23/2021 5:15:00 AM 17.54 63.572 0.054 6.78 2.51 9.17
9/23/2021 5:30:00 AM 17.54 63.572 0.054 6.77 3.67 9.17
9/23/2021 5:45:00 AM 17.54 63.572 0.053 6.77 3.51 9.17
9/23/2021 6:00:00 AM 17.55 63.59 0.051 6.77 2.57 9.17
9/23/2021 6:15:00 AM 17.56 63.608 0.053 6.78 2.63 9.17
9/23/2021 6:30:00 AM 17.57 63.626 0.053 6.78 2.55 9.17
9/23/2021 6:45:00 AM 17.58 63.644 0.054 6.77 3.72 9.16
9/23/2021 7:00:00 AM 17.59 63.662 0.054 6.77 2.44 9.16
9/23/2021 7:15:00 AM 17.6 63.68 0.054 6.78 2.1 9.18
9/23/2021 7:30:00 AM 17.61 63.698 0.053 6.78 2.55 9.19
9/23/2021 7:45:00 AM 17.62 63.716 0.054 6.79 1.91 9.19
9/23/2021 8:00:00 AM 17.63 63.734 0.053 6.78 2.23 9.18
9/23/2021 8:15:00 AM 17.62 63.716 0.047 6.77 2.42 9.18
9/23/2021 8:30:00 AM 17.63 63.734 0.052 6.78 2.36 9.18
9/23/2021 8:45:00 AM 17.63 63.734 0.054 6.77 3.2 9.16
9/23/2021 9:00:00 AM 17.65 63.77 0.053 6.78 2.3 9.16
9/23/2021 9:15:00 AM 17.68 63.824 0.052 6.78 2.85 9.15
9/23/2021 9:30:00 AM 17.71 63.878 0.05 6.78 2.97 9.16
9/23/2021 9:45:00 AM 17.73 63.914 0.052 6.73 2.23 9.15
9/23/2021 10:00:00 AM 17.68 63.824 0.05 6.77 3.64 9.16
9/23/2021 10:15:00 AM 17.63 63.734 0.051 6.77 4.27 9.17
9/23/2021 10:30:00 AM 17.6 63.68 0.052 6.81 14.25 9.19
9/23/2021 10:45:00 AM 17.52 63.536 0.052 6.83 22.04 9.22
9/23/2021 11:00:00 AM 17.42 63.356 0.051 6.87 30.31 9.27
9/23/2021 11:15:00 AM 17.33 63.194 0.051 6.89 73.3 9.32
9/23/2021 11:30:00 AM 17.25 63.05 0.048 6.81 110.12 9.36
9/23/2021 11:45:00 AM 17.18 62.924 0.044 6.75 82.34 9.39
9/23/2021 12:00:00 PM 17.14 62.852 0.044 6.72 72.88 9.41
9/23/2021 12:15:00 PM 17.12 62.816 0.043 6.72 51 9.43
9/23/2021 12:30:00 PM 17.09 62.762 0.042 6.72 77.83 9.44
9/23/2021 12:45:00 PM 17.05 62.69 0.039 6.56 61.68 9.45
9/23/2021 1:00:00 PM 17.02 62.636 0.042 6.63 57.96 9.46
9/23/2021 1:15:00 PM 17.03 62.654 0.041 6.66 58.77 9.48
9/23/2021 1:30:00 PM 17.04 62.672 0.04 6.58 59.65 9.48
9/23/2021 1:45:00 PM 17.01 62.618 0.039 6.56 57.09 9.49
9/23/2021 2:00:00 PM 16.98 62.564 0.037 6.53 54.49 9.5
9/23/2021 2:15:00 PM 16.96 62.528 0.037 6.52 66.38 9.5
9/23/2021 2:30:00 PM 16.91 62.438 0.036 6.48 56.43 9.5
9/23/2021 2:45:00 PM 16.86 62.348 0.036 6.44 52.91 9.51
9/23/2021 3:00:00 PM 16.83 62.294 0.035 6.43 48.64 9.52
9/23/2021 3:15:00 PM 16.8 62.24 0.033 6.4 44.33 9.53
9/23/2021 3:30:00 PM 16.78 62.204 0.033 6.3 44.74 9.53
9/23/2021 3:45:00 PM 16.76 62.168 0.034 6.3 37.44 9.53
9/23/2021 4:00:00 PM 16.75 62.15 0.033 6.34 32.46 9.53
9/23/2021 4:15:00 PM 16.74 62.132 0.035 6.34 29.86 9.53
9/23/2021 4:30:00 PM 16.73 62.114 0.033 6.32 26.72 9.54
9/23/2021 4:45:00 PM 16.72 62.096 0.032 6.3 24.59 9.54
9/23/2021 5:00:00 PM 16.71 62.078 0.035 6.31 23.03 9.55
9/23/2021 5:15:00 PM 16.7 62.06 0.035 6.3 20.82 9.54
9/23/2021 5:30:00 PM 16.7 62.06 0.035 6.3 24.06 9.55
9/23/2021 5:45:00 PM 16.7 62.06 0.035 6.28 19.65 9.54
9/23/2021 6:00:00 PM 16.69 62.042 0.031 6.28 20.2 9.54
9/23/2021 6:15:00 PM 16.68 62.024 0.032 6.29 21.58 9.55
9/23/2021 6:30:00 PM 16.68 62.024 0.035 6.27 18.32 9.55
9/23/2021 6:45:00 PM 16.68 62.024 0.034 6.26 17.6 9.55
9/23/2021 7:00:00 PM 16.68 62.024 0.035 6.26 21.09 9.56
9/23/2021 7:15:00 PM 16.67 62.006 0.036 6.27 15.85 9.56
9/23/2021 7:30:00 PM 16.65 61.97 0.034 6.25 16.71 9.56
9/23/2021 7:45:00 PM 16.63 61.934 0.037 6.24 16.64 9.57
9/23/2021 8:00:00 PM 16.6 61.88 0.036 6.23 81.79 9.57
9/23/2021 8:15:00 PM 16.57 61.826 0.037 6.25 16.25 9.58
9/23/2021 8:30:00 PM 16.53 61.754 0.036 6.24 13.6 9.59
9/23/2021 8:45:00 PM 16.49 61.682 0.037 6.22 13.28 9.6
9/23/2021 9:00:00 PM 16.45 61.61 0.037 6.22 13.85 9.61
9/23/2021 9:15:00 PM 16.4 61.52 0.037 6.21 11.94 9.61
9/23/2021 9:30:00 PM 16.36 61.448 0.034 6.2 12.99 9.63
9/23/2021 9:45:00 PM 16.3 61.34 0.035 6.19 12.42 9.64
9/23/2021 10:00:00 PM 16.25 61.25 0.034 6.2 11.66 9.65
9/23/2021 10:15:00 PM 16.19 61.142 0.037 6.21 10.62 9.67
9/23/2021 10:30:00 PM 16.12 61.016 0.037 6.25 10.75 9.68
9/23/2021 10:45:00 PM 16.04 60.872 0.037 6.2 13.51 9.69
9/23/2021 11:00:00 PM 15.97 60.746 0.037 6.19 9.78 9.71
9/23/2021 11:15:00 PM 15.89 60.602 0.035 6.19 10.02 9.72
9/23/2021 11:30:00 PM 15.81 60.458 0.037 6.21 10.69 9.74
9/23/2021 11:45:00 PM 15.74 60.332 0.037 6.19 9.66 9.75
9/24/2021 12:00:00 AM 15.66 60.188 0.038 6.2 9.65 9.77
9/24/2021 12:15:00 AM 15.59 60.062 0.037 6.19 9.02 9.78
9/24/2021 12:30:00 AM 15.52 59.936 0.037 6.19 10.2 9.8
9/24/2021 12:45:00 AM 15.45 59.81 0.038 6.21 9.77 9.81
9/24/2021 1:00:00 AM 15.38 59.684 0.036 6.19 8.54 9.83
9/24/2021 1:15:00 AM 15.31 59.558 0.038 6.16 9.34 9.84
9/24/2021 1:30:00 AM 15.23 59.414 0.038 6.21 10.04 9.86
9/24/2021 1:45:00 AM 15.16 59.288 0.038 6.21 8.43 9.87
9/24/2021 2:00:00 AM 15.08 59.144 0.038 6.2 9.34 9.89
9/24/2021 2:15:00 AM 15.01 59.018 0.039 6.2 8.19 9.9
9/24/2021 2:30:00 AM 14.93 58.874 0.036 6.21 9.42 9.92
9/24/2021 2:45:00 AM 14.86 58.748 0.037 6.2 7.76 9.94
9/24/2021 3:00:00 AM 14.78 58.604 0.039 6.2 10.48 9.95
9/24/2021 3:15:00 AM 14.71 58.478 0.038 6.21 8 9.96
9/24/2021 3:30:00 AM 14.64 58.352 0.038 6.21 7.33 9.98
9/24/2021 3:45:00 AM 14.57 58.226 0.039 6.23 8.13 10
9/24/2021 4:00:00 AM 14.51 58.118 0.039 6.23 6.9 10.01
9/24/2021 4:15:00 AM 14.45 58.01 0.037 6.23 7.26 10.03
9/24/2021 4:30:00 AM 14.39 57.902 0.04 6.23 8.33 10.05
9/24/2021 4:45:00 AM 14.32 57.776 0.039 6.24 8 10.06
9/24/2021 5:00:00 AM 14.26 57.668 0.038 6.25 6.99 10.07
9/24/2021 5:15:00 AM 14.2 57.56 0.04 6.25 6.79 10.08
9/24/2021 5:30:00 AM 14.15 57.47 0.04 6.26 7.53 10.1
9/24/2021 5:45:00 AM 14.09 57.362 0.04 6.26 6.16 10.11
9/24/2021 6:00:00 AM 14.03 57.254 0.04 6.29 6.46 10.13
9/24/2021 6:15:00 AM 13.98 57.164 0.04 6.27 6.71 10.14
9/24/2021 6:30:00 AM 13.93 57.074 0.04 6.28 6.71 10.15
9/24/2021 6:45:00 AM 13.87 56.966 0.04 6.24 6.33 10.17
9/24/2021 7:00:00 AM 13.83 56.894 0.041 6.26 6.92 10.17
9/24/2021 7:15:00 AM 13.78 56.804 0.041 6.31 5.43 10.18
9/24/2021 7:30:00 AM 13.74 56.732 0.04 6.27 6.46 10.2
9/24/2021 7:45:00 AM 13.7 56.66 0.041 6.32 5.84 10.21
9/24/2021 8:00:00 AM 13.66 56.588 0.04 6.3 5.82 10.22
9/24/2021 8:15:00 AM 13.62 56.516 0.04 6.31 6.31 10.23
9/24/2021 8:30:00 AM 13.61 56.498 0.039 6.32 5.69 10.25
9/24/2021 8:45:00 AM 13.58 56.444 0.041 6.33 4.99 10.25
9/24/2021 9:00:00 AM 13.57 56.426 0.039 6.29 5.39 10.25
9/24/2021 9:15:00 AM 13.58 56.444 0.041 6.34 5 10.25
9/24/2021 9:30:00 AM 13.6 56.48 0.041 6.34 6.7 10.25
9/24/2021 9:45:00 AM 13.64 56.552 0.04 6.34 7.01 10.26
9/24/2021 10:00:00 AM 13.68 56.624 0.041 6.37 5.48 10.25
9/24/2021 10:15:00 AM 13.73 56.714 0.041 6.37 5.11 10.25
9/24/2021 10:30:00 AM 13.78 56.804 0.04 6.39 5.53 10.24
9/24/2021 10:45:00 AM 13.84 56.912 0.038 6.39 5.57 10.24
9/24/2021 11:00:00 AM 13.89 57.002 0.034 6.37 5.57 10.23
9/24/2021 11:15:00 AM 13.95 57.11 0.041 6.38 5.86 10.23
9/24/2021 11:30:00 AM 13.96 57.128 0.041 6.41 6.97 10.22
9/24/2021 11:45:00 AM 14 57.2 0.042 6.4 5.47 10.21
9/24/2021 12:00:00 PM 14.03 57.254 0.042 6.4 4.81 10.22
9/24/2021 12:15:00 PM 14.06 57.308 0.039 6.42 5.08 10.21
9/24/2021 12:30:00 PM 14.11 57.398 0.041 6.43 4.92 10.2
9/24/2021 12:45:00 PM 14.19 57.542 0.041 6.41 4.81 10.18
9/24/2021 1:00:00 PM 14.24 57.632 0.042 6.43 4.45 10.17
9/24/2021 1:15:00 PM 14.3 57.74 0.038 6.44 5.16 10.15
9/24/2021 1:30:00 PM 14.35 57.83 0.042 6.45 5.27 10.14
9/24/2021 1:45:00 PM 14.38 57.884 0.04 6.44 5.37 10.11
9/24/2021 2:00:00 PM 14.45 58.01 0.042 6.43 5.15 10.1
9/24/2021 2:15:00 PM 14.52 58.136 0.042 6.43 4.6 10.08
9/24/2021 2:30:00 PM 14.56 58.208 0.041 6.44 5.19 10.06
9/24/2021 2:45:00 PM 14.6 58.28 0.042 6.43 5.89 10.04
9/24/2021 3:00:00 PM 14.62 58.316 0.041 6.44 4.32 10.03
9/24/2021 3:15:00 PM 14.66 58.388 0.042 6.44 5.38 10.02
9/24/2021 3:30:00 PM 14.69 58.442 0.042 6.44 4.77 10.01
9/24/2021 3:45:00 PM 14.73 58.514 0.042 6.43 5.07 10
9/24/2021 4:00:00 PM 14.77 58.586 0.042 6.46 5.08 9.98
9/24/2021 4:15:00 PM 14.81 58.658 0.042 6.44 5.92 9.97
9/24/2021 4:30:00 PM 14.84 58.712 0.04 6.43 5.26 9.96
9/24/2021 4:45:00 PM 14.88 58.784 0.042 6.44 6.95 9.95
9/24/2021 5:00:00 PM 14.9 58.82 0.042 6.45 4.65 9.94
9/24/2021 5:15:00 PM 14.92 58.856 0.041 6.45 5.41 9.93
9/24/2021 5:30:00 PM 14.94 58.892 0.042 6.34 5.46 9.93
9/24/2021 5:45:00 PM 14.95 58.91 0.043 6.44 4.22 9.92
9/24/2021 6:00:00 PM 14.97 58.946 0.042 6.42 4.26 9.92
9/24/2021 6:15:00 PM 14.98 58.964 0.043 6.48 4.17 9.91
9/24/2021 6:30:00 PM 14.99 58.982 0.043 6.44 3.98 9.91
9/24/2021 6:45:00 PM 14.99 58.982 0.041 6.46 4.94 9.91
9/24/2021 7:00:00 PM 14.99 58.982 0.043 6.46 5.72 9.9
9/24/2021 7:15:00 PM 14.99 58.982 0.043 6.45 4.4 9.9
9/24/2021 7:30:00 PM 14.99 58.982 0.043 6.46 5.84 9.9
9/24/2021 7:45:00 PM 14.98 58.964 0.043 6.45 4.07 9.9
9/24/2021 8:00:00 PM 14.97 58.946 0.043 6.45 4.1 9.91
9/24/2021 8:15:00 PM 14.95 58.91 0.042 6.46 5.07 9.9
9/24/2021 8:30:00 PM 14.94 58.892 0.042 6.49 4.82 9.91
9/24/2021 8:45:00 PM 14.92 58.856 0.043 6.45 4.01 9.91
9/24/2021 9:00:00 PM 14.9 58.82 0.042 6.45 5.45 9.92
9/24/2021 9:15:00 PM 14.88 58.784 0.042 6.45 4.75 9.92
9/24/2021 9:30:00 PM 14.85 58.73 0.042 6.46 4.48 9.93
9/24/2021 9:45:00 PM 14.82 58.676 0.043 6.45 3.47 9.94
9/24/2021 10:00:00 PM 14.79 58.622 0.042 6.44 4.99 9.94
9/24/2021 10:15:00 PM 14.76 58.568 0.043 6.46 3.34 9.95
9/24/2021 10:30:00 PM 14.72 58.496 0.043 6.46 4.82 9.96
9/24/2021 10:45:00 PM 14.68 58.424 0.041 6.46 4.1 9.97
9/24/2021 11:00:00 PM 14.64 58.352 0.043 6.47 4.69 9.98
9/24/2021 11:15:00 PM 14.61 58.298 0.043 6.46 4.36 9.98
9/24/2021 11:30:00 PM 14.57 58.226 0.043 6.46 4.3 10
9/24/2021 11:45:00 PM 14.52 58.136 0.043 6.45 3.74 10
9/25/2021 12:00:00 AM 14.48 58.064 0.043 6.46 4.41 10.02
9/25/2021 12:15:00 AM 14.44 57.992 0.041 6.46 3.79 10.02
9/25/2021 12:30:00 AM 14.39 57.902 0.043 6.45 4.11 10.03
9/25/2021 12:45:00 AM 14.34 57.812 0.043 6.45 5.92 10.04
9/25/2021 1:00:00 AM 14.3 57.74 0.043 6.45 4.36 10.05
9/25/2021 1:15:00 AM 14.25 57.65 0.043 6.44 5.48 10.06
9/25/2021 1:30:00 AM 14.2 57.56 0.043 6.44 4.52 10.07
9/25/2021 1:45:00 AM 14.16 57.488 0.042 6.49 3.74 10.09
9/25/2021 2:00:00 AM 14.11 57.398 0.042 6.45 4.39 10.1
9/25/2021 2:15:00 AM 14.07 57.326 0.043 6.45 4.04 10.11
9/25/2021 2:30:00 AM 14.02 57.236 0.042 6.45 4.68 10.12
9/25/2021 2:45:00 AM 13.98 57.164 0.043 6.47 3.98 10.13
9/25/2021 3:00:00 AM 13.93 57.074 0.041 6.45 3.77 10.13
9/25/2021 3:15:00 AM 13.89 57.002 0.043 6.46 3.68 10.15
9/25/2021 3:30:00 AM 13.84 56.912 0.043 6.47 3.82 10.15
9/25/2021 3:45:00 AM 13.8 56.84 0.041 6.46 3.58 10.16
9/25/2021 4:00:00 AM 13.75 56.75 0.043 6.46 4.32 10.17
9/25/2021 4:15:00 AM 13.71 56.678 0.041 6.47 3.57 10.18
9/25/2021 4:30:00 AM 13.67 56.606 0.043 6.47 3.06 10.19
9/25/2021 4:45:00 AM 13.62 56.516 0.043 6.49 4.13 10.21
9/25/2021 5:00:00 AM 13.58 56.444 0.041 6.47 4.39 10.22
9/25/2021 5:15:00 AM 13.54 56.372 0.041 6.46 3.63 10.23
9/25/2021 5:30:00 AM 13.5 56.3 0.041 6.47 4.05 10.24
9/25/2021 5:45:00 AM 13.46 56.228 0.043 6.46 4.05 10.24
9/25/2021 6:00:00 AM 13.42 56.156 0.043 6.46 8.65 10.26
9/25/2021 6:15:00 AM 13.38 56.084 0.043 6.47 5.9 10.27
9/25/2021 6:30:00 AM 13.34 56.012 0.043 6.45 5.89 10.27
9/25/2021 6:45:00 AM 13.3 55.94 0.043 6.49 3.88 10.28
9/25/2021 7:00:00 AM 13.26 55.868 0.043 6.49 3.32 10.29
9/25/2021 7:15:00 AM 13.22 55.796 0.042 6.47 4.38 10.3
9/25/2021 7:30:00 AM 13.19 55.742 0.043 6.49 5.71 10.31
9/25/2021 7:45:00 AM 13.16 55.688 0.042 6.47 3.24 10.33
9/25/2021 8:00:00 AM 13.13 55.634 0.042 6.46 6.03 10.34
9/25/2021 8:15:00 AM 13.11 55.598 0.041 6.47 4.16 10.35
9/25/2021 8:30:00 AM 13.1 55.58 0.041 6.47 5.47 10.35
9/25/2021 8:45:00 AM 13.09 55.562 0.043 6.48 4.07 10.36
9/25/2021 9:00:00 AM 13.1 55.58 0.041 6.49 3.61 10.37
9/25/2021 9:15:00 AM 13.11 55.598 0.043 6.5 4.71 10.37
9/25/2021 9:30:00 AM 13.15 55.67 0.043 6.5 4.34 10.38
9/25/2021 9:45:00 AM 13.19 55.742 0.043 6.51 4.2 10.38
9/25/2021 10:00:00 AM 13.24 55.832 0.043 6.51 5 10.37
9/25/2021 10:15:00 AM 13.3 55.94 0.04 6.53 3.99 10.36
9/25/2021 10:30:00 AM 13.37 56.066 0.043 6.52 2.95 10.35
9/25/2021 10:45:00 AM 13.46 56.228 0.043 6.55 3.38 10.33
9/25/2021 11:00:00 AM 13.55 56.39 0.041 6.54 3.75 10.32
9/25/2021 11:15:00 AM 13.65 56.57 0.043 6.54 3.79 10.3
9/25/2021 11:30:00 AM 13.76 56.768 0.043 6.54 3.58 10.27
9/25/2021 11:45:00 AM 13.88 56.984 0.043 6.55 3.64 10.27
9/25/2021 12:00:00 PM 13.97 57.146 0.043 6.56 3.54 10.26
9/25/2021 12:15:00 PM 14.05 57.29 0.043 6.57 5.45 10.24
9/25/2021 12:30:00 PM 14.14 57.452 0.043 6.58 2.89 10.22
9/25/2021 12:45:00 PM 14.22 57.596 0.043 6.59 2.67 10.2
9/25/2021 1:00:00 PM 14.28 57.704 0.043 6.57 4.78 10.18
9/25/2021 1:15:00 PM 14.35 57.83 0.04 6.59 3.6 10.17
9/25/2021 1:30:00 PM 14.4 57.92 0.043 6.58 3.58 10.15
9/25/2021 1:45:00 PM 14.44 57.992 0.043 6.6 5.06 10.13
9/25/2021 2:00:00 PM 14.48 58.064 0.043 6.59 3.59 10.13
9/25/2021 2:15:00 PM 14.52 58.136 0.042 6.6 3.49 10.11
9/25/2021 2:30:00 PM 14.56 58.208 0.043 6.59 3.39 10.1
9/25/2021 2:45:00 PM 14.6 58.28 0.043 6.6 4.7 10.08
9/25/2021 3:00:00 PM 14.64 58.352 0.043 6.6 4.26 10.06
9/25/2021 3:15:00 PM 14.67 58.406 0.043 6.58 2.82 10.03
9/25/2021 3:30:00 PM 14.71 58.478 0.04 6.59 4.61 10.01
9/25/2021 3:45:00 PM 14.75 58.55 0.042 6.59 3.07 9.99
9/25/2021 4:00:00 PM 14.78 58.604 0.043 6.58 3.57 9.98
9/25/2021 4:15:00 PM 14.82 58.676 0.042 6.59 4.04 9.96
9/25/2021 4:30:00 PM 14.85 58.73 0.043 6.57 4.04 9.94
9/25/2021 4:45:00 PM 14.88 58.784 0.043 6.57 4.28 9.92
9/25/2021 5:00:00 PM 14.9 58.82 0.04 6.56 3.86 9.91
9/25/2021 5:15:00 PM 14.93 58.874 0.043 6.58 2.56 9.91
9/25/2021 5:30:00 PM 14.96 58.928 0.043 6.56 3 9.92
9/25/2021 5:45:00 PM 14.98 58.964 0.043 6.56 4.47 9.9
9/25/2021 6:00:00 PM 15 59 0.043 6.57 4.06 9.89
9/25/2021 6:15:00 PM 15.02 59.036 0.043 6.58 3.78 9.88
9/25/2021 6:30:00 PM 15.03 59.054 0.043 6.59 2.65 9.87
9/25/2021 6:45:00 PM 15.04 59.072 0.043 6.57 4.5 9.86
9/25/2021 7:00:00 PM 15.04 59.072 0.042 6.57 4.16 9.85
9/25/2021 7:15:00 PM 15.04 59.072 0.043 6.57 3.6 9.85
9/25/2021 7:30:00 PM 15.04 59.072 0.043 6.55 5.44 9.84
9/25/2021 7:45:00 PM 15.03 59.054 0.043 6.56 3.76 9.84
9/25/2021 8:00:00 PM 15.02 59.036 0.042 6.57 3.12 9.84
9/25/2021 8:15:00 PM 15.02 59.036 0.041 6.62 4.02 9.84
9/25/2021 8:30:00 PM 15.01 59.018 0.043 6.58 3.51 9.84
9/25/2021 8:45:00 PM 14.99 58.982 0.042 6.57 4.09 9.84
9/25/2021 9:00:00 PM 14.98 58.964 0.043 6.54 3.94 9.85
9/25/2021 9:15:00 PM 14.96 58.928 0.043 6.56 4.16 9.85
9/25/2021 9:30:00 PM 14.94 58.892 0.043 6.57 3.3 9.85
9/25/2021 9:45:00 PM 14.92 58.856 0.041 6.56 5.58 9.86
9/25/2021 10:00:00 PM 14.9 58.82 0.044 6.56 3.65 9.86
9/25/2021 10:15:00 PM 14.88 58.784 0.041 6.56 3.42 9.87
9/25/2021 10:30:00 PM 14.85 58.73 0.044 6.56 3.78 9.87
9/25/2021 10:45:00 PM 14.83 58.694 0.042 6.57 3.53 9.88
9/25/2021 11:00:00 PM 14.81 58.658 0.042 6.56 3.49 9.88
9/25/2021 11:15:00 PM 14.79 58.622 0.041 6.57 3.04 9.88
9/25/2021 11:30:00 PM 14.77 58.586 0.041 6.57 4.68 9.89
9/25/2021 11:45:00 PM 14.75 58.55 0.036 6.56 4.15 9.89
9/26/2021 12:00:00 AM 14.73 58.514 0.036 6.54 4.16 9.9
9/26/2021 12:15:00 AM 14.7 58.46 0.043 6.57 3.38 9.9
9/26/2021 12:30:00 AM 14.68 58.424 0.041 6.55 3.31 9.91
9/26/2021 12:45:00 AM 14.66 58.388 0.042 6.55 3.54 9.92
9/26/2021 1:00:00 AM 14.63 58.334 0.04 6.56 4.24 9.92
9/26/2021 1:15:00 AM 14.61 58.298 0.039 6.55 3.96 9.93
9/26/2021 1:30:00 AM 14.58 58.244 0.041 6.55 3.06 9.94
9/26/2021 1:45:00 AM 14.56 58.208 0.037 6.55 3.04 9.93
9/26/2021 2:00:00 AM 14.53 58.154 0.041 6.55 3.48 9.95
9/26/2021 2:15:00 AM 14.5 58.1 0.044 6.55 3.29 9.96
9/26/2021 2:30:00 AM 14.47 58.046 0.044 6.54 2.42 9.95
9/26/2021 2:45:00 AM 14.45 58.01 0.044 6.54 3.91 9.97
9/26/2021 3:00:00 AM 14.43 57.974 0.044 6.53 2.86 9.97
9/26/2021 3:15:00 AM 14.4 57.92 0.043 6.55 3.27 9.97
9/26/2021 3:30:00 AM 14.38 57.884 0.043 6.55 3.73 9.98
9/26/2021 3:45:00 AM 14.36 57.848 0.043 6.56 3.67 9.98
9/26/2021 4:00:00 AM 14.34 57.812 0.044 6.55 2.9 9.99
9/26/2021 4:15:00 AM 14.31 57.758 0.041 6.52 3.99 9.99
9/26/2021 4:30:00 AM 14.28 57.704 0.039 6.55 3.67 10
9/26/2021 4:45:00 AM 14.26 57.668 0.04 6.57 5.32 10.01
9/26/2021 5:00:00 AM 14.23 57.614 0.044 6.55 4.11 10.02
9/26/2021 5:15:00 AM 14.2 57.56 0.044 6.55 4 10.02
9/26/2021 5:30:00 AM 14.17 57.506 0.042 6.55 3.62 10.03
9/26/2021 5:45:00 AM 14.13 57.434 0.043 6.55 4.83 10.04
9/26/2021 6:00:00 AM 14.1 57.38 0.044 6.54 4.95 10.05
9/26/2021 6:15:00 AM 14.06 57.308 0.044 6.55 4.92 10.05
9/26/2021 6:30:00 AM 14.02 57.236 0.044 6.57 4.12 10.06
9/26/2021 6:45:00 AM 13.98 57.164 0.044 6.56 2.5 10.08
9/26/2021 7:00:00 AM 13.94 57.092 0.044 6.55 3.97 10.08
9/26/2021 7:15:00 AM 13.9 57.02 0.043 6.57 6.51 10.1
9/26/2021 7:30:00 AM 13.87 56.966 0.043 6.56 4.23 10.11
9/26/2021 7:45:00 AM 13.83 56.894 0.043 6.57 3.39 10.12
9/26/2021 8:00:00 AM 13.8 56.84 0.044 6.57 2.69 10.14
9/26/2021 8:15:00 AM 13.77 56.786 0.042 6.57 3.1 10.14
9/26/2021 8:30:00 AM 13.75 56.75 0.036 6.55 5.25 10.16
9/26/2021 8:45:00 AM 13.74 56.732 0.038 6.58 3.42 10.17
9/26/2021 9:00:00 AM 13.74 56.732 0.041 6.58 3.42 10.18
9/26/2021 9:15:00 AM 13.75 56.75 0.043 6.57 2.9 10.19
9/26/2021 9:30:00 AM 13.77 56.786 0.036 6.6 5.06 10.2
9/26/2021 9:45:00 AM 13.8 56.84 0.042 6.6 3.02 10.2
9/26/2021 10:00:00 AM 13.83 56.894 0.044 6.59 4.43 10.21
9/26/2021 10:15:00 AM 13.87 56.966 0.044 6.58 2.18 10.21
9/26/2021 10:30:00 AM 13.92 57.056 0.043 6.63 3.73 10.2
9/26/2021 10:45:00 AM 13.98 57.164 0.044 6.64 3.34 10.2
9/26/2021 11:00:00 AM 14.05 57.29 0.043 6.62 3.1 10.18
9/26/2021 11:15:00 AM 14.12 57.416 0.043 6.64 3.34 10.17
9/26/2021 11:30:00 AM 14.19 57.542 0.044 6.65 4.41 10.15
9/26/2021 11:45:00 AM 14.27 57.686 0.044 6.64 4.15 10.14
9/26/2021 12:00:00 PM 14.37 57.866 0.043 6.66 3.25 10.13
9/26/2021 12:15:00 PM 14.48 58.064 0.044 6.66 4.37 10.12
9/26/2021 12:30:00 PM 14.57 58.226 0.044 6.67 4.61 10.11
9/26/2021 12:45:00 PM 14.64 58.352 0.044 6.64 3.6 10.09
9/26/2021 1:00:00 PM 14.73 58.514 0.044 6.68 3.21 10.08
9/26/2021 1:15:00 PM 14.76 58.568 0.044 6.67 3.47 10.06
9/26/2021 1:30:00 PM 14.75 58.55 0.043 6.68 3.69 10.06
9/26/2021 1:45:00 PM 14.76 58.568 0.044 6.67 3.33 10.05
9/26/2021 2:00:00 PM 14.79 58.622 0.044 6.7 3.02 10.04
9/26/2021 2:15:00 PM 14.77 58.586 0.043 6.68 4.25 10.03
9/26/2021 2:30:00 PM 14.77 58.586 0.044 6.68 3.66 10.03
9/26/2021 2:45:00 PM 14.77 58.586 0.044 6.68 3.47 10.03
9/26/2021 3:00:00 PM 14.77 58.586 0.041 6.66 3.08 10.01
9/26/2021 3:15:00 PM 14.77 58.586 0.044 6.67 2.49 10
9/26/2021 3:30:00 PM 14.76 58.568 0.044 6.67 2.52 9.98
9/26/2021 3:45:00 PM 14.73 58.514 0.044 6.65 2.5 9.97
9/26/2021 4:00:00 PM 14.73 58.514 0.042 6.64 2.89 9.98
9/26/2021 4:15:00 PM 14.72 58.496 0.044 6.64 4.3 9.98
9/26/2021 4:30:00 PM 14.7 58.46 0.044 6.64 3.3 9.98
9/26/2021 4:45:00 PM 14.7 58.46 0.044 6.64 2.28 9.97
9/26/2021 5:00:00 PM 14.68 58.424 0.044 6.61 2.28 9.95
9/26/2021 5:15:00 PM 14.69 58.442 0.042 6.63 3.27 9.94
9/26/2021 5:30:00 PM 14.68 58.424 0.043 6.63 3.46 9.94
9/26/2021 5:45:00 PM 14.67 58.406 0.043 6.54 3.27 9.94
9/26/2021 6:00:00 PM 14.67 58.406 0.044 6.62 4.15 9.94
9/26/2021 6:15:00 PM 14.66 58.388 0.044 6.63 3.01 9.93
9/26/2021 6:30:00 PM 14.64 58.352 0.044 6.61 2.3 9.93
9/26/2021 6:45:00 PM 14.62 58.316 0.043 6.62 3.12 9.93
9/26/2021 7:00:00 PM 14.6 58.28 0.044 6.62 3.23 9.93
9/26/2021 7:15:00 PM 14.58 58.244 0.044 6.61 2.2 9.93
9/26/2021 7:30:00 PM 14.55 58.19 0.044 6.58 4.16 9.94
9/26/2021 7:45:00 PM 14.53 58.154 0.044 6.61 3.27 9.94
9/26/2021 8:00:00 PM 14.49 58.082 0.044 6.61 2.8 9.95
9/26/2021 8:15:00 PM 14.46 58.028 0.044 6.62 2.14 9.95
9/26/2021 8:30:00 PM 14.43 57.974 0.044 6.62 3.07 9.96
9/26/2021 8:45:00 PM 14.4 57.92 0.044 6.62 2.2 9.97
9/26/2021 9:00:00 PM 14.36 57.848 0.044 6.53 3.59 9.98
9/26/2021 9:15:00 PM 14.33 57.794 0.044 6.61 4.46 9.98
9/26/2021 9:30:00 PM 14.29 57.722 0.044 6.61 3.97 9.99
9/26/2021 9:45:00 PM 14.26 57.668 0.044 6.6 3.13 10
9/26/2021 10:00:00 PM 14.23 57.614 0.042 6.61 2.86 10.01
9/26/2021 10:15:00 PM 14.19 57.542 0.042 6.59 3.14 10.02
9/26/2021 10:30:00 PM 14.16 57.488 0.045 6.6 4.27 10.04
9/26/2021 10:45:00 PM 14.13 57.434 0.044 6.6 3.04 10.04
9/26/2021 11:00:00 PM 14.1 57.38 0.042 6.47 2.81 10.04
9/26/2021 11:15:00 PM 14.08 57.344 0.045 6.58 2.15 10.05
9/26/2021 11:30:00 PM 14.05 57.29 0.045 6.6 3.91 10.05
9/26/2021 11:45:00 PM 14.03 57.254 0.045 6.58 3.49 10.05
9/27/2021 12:00:00 AM 14 57.2 0.044 6.6 3.52 10.07
9/27/2021 12:15:00 AM 13.98 57.164 0.042 6.59 3.18 10.08
9/27/2021 12:30:00 AM 13.95 57.11 0.045 6.59 2.16 10.09
9/27/2021 12:45:00 AM 13.93 57.074 0.034 6.6 4.22 10.09
9/27/2021 1:00:00 AM 13.91 57.038 0.042 6.61 2.72 10.09
9/27/2021 1:15:00 AM 13.88 56.984 0.043 6.59 2.46 10.09
9/27/2021 1:30:00 AM 13.86 56.948 0.041 6.6 3.74 10.1
9/27/2021 1:45:00 AM 13.84 56.912 0.044 6.59 4.44 10.11
9/27/2021 2:00:00 AM 13.82 56.876 0.044 6.59 3.39 10.12
9/27/2021 2:15:00 AM 13.8 56.84 0.045 6.58 3.79 10.12
9/27/2021 2:30:00 AM 13.77 56.786 0.045 6.59 4.15 10.13
9/27/2021 2:45:00 AM 13.74 56.732 0.044 6.59 2.44 10.13
9/27/2021 3:00:00 AM 13.71 56.678 0.042 6.59 3 10.14
9/27/2021 3:15:00 AM 13.68 56.624 0.045 6.6 3.71 10.14
9/27/2021 3:30:00 AM 13.65 56.57 0.044 6.59 3.3 10.15
9/27/2021 3:45:00 AM 13.61 56.498 0.045 6.59 3.58 10.16
9/27/2021 4:00:00 AM 13.58 56.444 0.045 6.59 4.58 10.17
9/27/2021 4:15:00 AM 13.55 56.39 0.044 6.58 2.81 10.18
9/27/2021 4:30:00 AM 13.53 56.354 0.042 6.59 2.71 10.18
9/27/2021 4:45:00 AM 13.5 56.3 0.045 6.62 2.14 10.19
9/27/2021 5:00:00 AM 13.48 56.264 0.045 6.6 3.15 10.19
9/27/2021 5:15:00 AM 13.46 56.228 0.045 6.6 1.98 10.19
9/27/2021 5:30:00 AM 13.44 56.192 0.045 6.6 2.67 10.21
9/27/2021 5:45:00 AM 13.42 56.156 0.042 6.6 2.75 10.21
9/27/2021 6:00:00 AM 13.4 56.12 0.042 6.59 2.74 10.21
9/27/2021 6:15:00 AM 13.39 56.102 0.045 6.59 3.41 10.22
9/27/2021 6:30:00 AM 13.37 56.066 0.044 6.59 2.36 10.23
9/27/2021 6:45:00 AM 13.36 56.048 0.045 6.59 3.97 10.23
9/27/2021 7:00:00 AM 13.35 56.03 0.045 6.6 4.29 10.23
9/27/2021 7:15:00 AM 13.34 56.012 0.045 6.6 4.35 10.24
9/27/2021 7:30:00 AM 13.34 56.012 0.045 6.6 3.06 10.25
9/27/2021 7:45:00 AM 13.33 55.994 0.043 6.6 3.96 10.25
9/27/2021 8:00:00 AM 13.33 55.994 0.043 6.61 3.82 10.27
9/27/2021 8:15:00 AM 13.33 55.994 0.043 6.61 2.84 10.28
9/27/2021 8:30:00 AM 13.33 55.994 0.045 6.61 2.99 10.29
9/27/2021 8:45:00 AM 13.34 56.012 0.042 6.62 2.74 10.29
9/27/2021 9:00:00 AM 13.37 56.066 0.045 6.63 2 10.3
9/27/2021 9:15:00 AM 13.41 56.138 0.045 6.63 3.2 10.33
9/27/2021 9:30:00 AM 13.45 56.21 0.042 6.66 2.19 10.32
9/27/2021 9:45:00 AM 13.5 56.3 0.042 6.65 3.25 10.32
9/27/2021 10:00:00 AM 13.56 56.408 0.041 6.67 2.62 10.31
9/27/2021 10:15:00 AM 13.62 56.516 0.042 6.67 2.71 10.3
9/27/2021 10:30:00 AM 13.69 56.642 0.044 6.68 2.7 10.29
9/27/2021 10:45:00 AM 13.77 56.786 0.037 6.66 3.57 10.28
9/27/2021 11:00:00 AM 13.85 56.93 0.044 6.69 2.28 10.26
9/27/2021 11:15:00 AM 13.95 57.11 0.045 6.69 4.19 10.23
9/27/2021 11:30:00 AM 14.06 57.308 0.045 6.7 3 10.22
9/27/2021 11:45:00 AM 14.18 57.524 0.045 6.69 1.84 10.2
9/27/2021 12:00:00 PM 14.31 57.758 0.045 6.71 5.4 10.17
9/27/2021 12:15:00 PM 14.44 57.992 0.044 6.7 3.68 10.15
9/27/2021 12:30:00 PM 14.57 58.226 0.045 6.73 2.92 10.13
9/27/2021 12:45:00 PM 14.68 58.424 0.045 6.73 2.78 10.11
9/27/2021 1:00:00 PM 14.78 58.604 0.044 6.72 2.93 10.08
9/27/2021 1:15:00 PM 14.86 58.748 0.045 6.75 3.46 10.07
9/27/2021 1:30:00 PM 14.93 58.874 0.045 6.76 1.91 10.06
9/27/2021 1:45:00 PM 14.96 58.928 0.045 6.76 4.2 10.05
9/27/2021 2:00:00 PM 15.03 59.054 0.045 6.75 3.92 10.03
9/27/2021 2:15:00 PM 15.08 59.144 0.045 6.73 1.89 9.99
9/27/2021 2:30:00 PM 15.11 59.198 0.045 6.75 2.23 9.97
9/27/2021 2:45:00 PM 15.15 59.27 0.045 6.74 3.88 9.94
9/27/2021 3:00:00 PM 15.18 59.324 0.045 6.72 4.23 9.92
9/27/2021 3:15:00 PM 15.2 59.36 0.045 6.74 3.45 9.91
9/27/2021 3:30:00 PM 15.21 59.378 0.045 6.75 1.85 9.88
9/27/2021 3:45:00 PM 15.21 59.378 0.045 6.72 4.03 9.87
9/27/2021 4:00:00 PM 15.22 59.396 0.045 6.73 2.97 9.86
9/27/2021 4:15:00 PM 15.23 59.414 0.045 6.71 2.65 9.85
9/27/2021 4:30:00 PM 15.24 59.432 0.045 6.74 1.86 9.84
9/27/2021 4:45:00 PM 15.25 59.45 0.043 6.7 2.65 9.85
9/27/2021 5:00:00 PM 15.26 59.468 0.043 6.71 2.86 9.84
9/27/2021 5:15:00 PM 15.27 59.486 0.045 6.71 4.3 9.82
9/27/2021 5:30:00 PM 15.28 59.504 0.044 6.71 3.6 9.81
9/27/2021 5:45:00 PM 15.29 59.522 0.045 6.68 2.38 9.81
9/27/2021 6:00:00 PM 15.29 59.522 0.045 6.69 3.56 9.79
9/27/2021 6:15:00 PM 15.29 59.522 0.045 6.67 2.9 9.77
9/27/2021 6:30:00 PM 15.3 59.54 0.045 6.67 3.93 9.76
9/27/2021 6:45:00 PM 15.3 59.54 0.044 6.67 3.01 9.75
9/27/2021 7:00:00 PM 15.3 59.54 0.043 6.66 2.68 9.74
9/27/2021 7:15:00 PM 15.3 59.54 0.043 6.66 3.05 9.73
9/27/2021 7:30:00 PM 15.29 59.522 0.043 6.67 3.12 9.73
9/27/2021 7:45:00 PM 15.29 59.522 0.038 6.67 3.66 9.73
9/27/2021 8:00:00 PM 15.29 59.522 0.042 6.67 2.68 9.73
9/27/2021 8:15:00 PM 15.28 59.504 0.043 6.66 2.43 9.73
9/27/2021 8:30:00 PM 15.27 59.486 0.043 6.65 2.18 9.73
9/27/2021 8:45:00 PM 15.26 59.468 0.04 6.67 3.57 9.73
9/27/2021 9:00:00 PM 15.25 59.45 0.043 6.66 2.73 9.73
9/27/2021 9:15:00 PM 15.23 59.414 0.041 6.64 3.4 9.74
9/27/2021 9:30:00 PM 15.22 59.396 0.037 6.66 2.9 9.75
9/27/2021 9:45:00 PM 15.2 59.36 0.038 6.62 2.89 9.75
9/27/2021 10:00:00 PM 15.18 59.324 0.043 6.65 3.48 9.75
9/27/2021 10:15:00 PM 15.16 59.288 0.046 6.66 4.32 9.76
9/27/2021 10:30:00 PM 15.14 59.252 0.045 6.65 3.79 9.77
9/27/2021 10:45:00 PM 15.12 59.216 0.045 6.66 2.9 9.77
9/27/2021 11:00:00 PM 15.1 59.18 0.044 6.65 4.1 9.77
9/27/2021 11:15:00 PM 15.08 59.144 0.045 6.66 1.9 9.78
9/27/2021 11:30:00 PM 15.05 59.09 0.046 6.64 1.99 9.78
9/27/2021 11:45:00 PM 15.03 59.054 0.043 6.49 2.65 9.79
9/28/2021 12:00:00 AM 15.01 59.018 0.046 6.66 1.84 9.79
9/28/2021 12:15:00 AM 14.99 58.982 0.046 6.66 2.13 9.8
9/28/2021 12:30:00 AM 14.96 58.928 0.045 6.65 2.87 9.8
9/28/2021 12:45:00 AM 14.94 58.892 0.046 6.59 1.93 9.81
9/28/2021 1:00:00 AM 14.92 58.856 0.046 6.65 1.89 9.81
9/28/2021 1:15:00 AM 14.9 58.82 0.042 6.65 2.84 9.81
9/28/2021 1:30:00 AM 14.87 58.766 0.046 6.65 2.07 9.82
9/28/2021 1:45:00 AM 14.85 58.73 0.046 6.53 4.28 9.82
9/28/2021 2:00:00 AM 14.83 58.694 0.046 6.63 2.2 9.82
9/28/2021 2:15:00 AM 14.81 58.658 0.046 6.63 2.79 9.83
9/28/2021 2:30:00 AM 14.79 58.622 0.046 6.64 2.14 9.83
9/28/2021 2:45:00 AM 14.78 58.604 0.046 6.62 1.9 9.84
9/28/2021 3:00:00 AM 14.76 58.568 0.046 6.64 2.01 9.84
9/28/2021 3:15:00 AM 14.75 58.55 0.046 6.58 2.6 9.84
9/28/2021 3:30:00 AM 14.74 58.532 0.046 6.63 4.34 9.85
9/28/2021 3:45:00 AM 14.72 58.496 0.046 6.56 2.95 9.85
9/28/2021 4:00:00 AM 14.71 58.478 0.046 6.61 2.66 9.85
9/28/2021 4:15:00 AM 14.7 58.46 0.046 6.64 2.26 9.85
9/28/2021 4:30:00 AM 14.7 58.46 0.045 6.61 2.27 9.85
9/28/2021 4:45:00 AM 14.69 58.442 0.046 6.64 2.52 9.85
9/28/2021 5:00:00 AM 14.67 58.406 0.045 6.65 4.27 9.85
9/28/2021 5:15:00 AM 14.67 58.406 0.046 6.64 3.81 9.86
9/28/2021 5:30:00 AM 14.65 58.37 0.046 6.62 3.38 9.86
9/28/2021 5:45:00 AM 14.64 58.352 0.046 6.64 4.11 9.86
9/28/2021 6:00:00 AM 14.64 58.352 0.046 6.66 1.86 9.86
9/28/2021 6:15:00 AM 14.63 58.334 0.046 6.64 2.79 9.86
9/28/2021 6:30:00 AM 14.62 58.316 0.046 6.63 4.13 9.86
9/28/2021 6:45:00 AM 14.61 58.298 0.046 6.6 2.43 9.87
9/28/2021 7:00:00 AM 14.61 58.298 0.045 6.62 3.29 9.88
9/28/2021 7:15:00 AM 14.6 58.28 0.046 6.64 2.79 9.88
9/28/2021 7:30:00 AM 14.6 58.28 0.045 6.63 3.54 9.89
9/28/2021 7:45:00 AM 14.6 58.28 0.046 6.63 1.87 9.9
9/28/2021 8:00:00 AM 14.6 58.28 0.046 6.63 1.92 9.9
9/28/2021 8:15:00 AM 14.6 58.28 0.046 6.63 1.85 9.9
9/28/2021 8:30:00 AM 14.6 58.28 0.045 6.66 2.48 9.89
9/28/2021 8:45:00 AM 14.6 58.28 0.046 6.63 3.53 9.89
9/28/2021 9:00:00 AM 14.59 58.262 0.046 6.62 2.5 9.9
9/28/2021 9:15:00 AM 14.59 58.262 0.046 6.6 4.27 9.9
9/28/2021 9:30:00 AM 14.6 58.28 0.046 6.61 4.39 9.89
9/28/2021 9:45:00 AM 14.61 58.298 0.046 6.63 2.7 9.9
9/28/2021 10:00:00 AM 14.62 58.316 0.046 6.62 3.63 9.9
9/28/2021 10:15:00 AM 14.64 58.352 0.047 6.66 3.17 9.93
9/28/2021 10:30:00 AM 14.67 58.406 0.047 6.67 4.34 9.97
9/28/2021 10:45:00 AM 14.7 58.46 0.046 6.67 4.65 9.99
9/28/2021 11:00:00 AM 14.74 58.532 0.045 6.68 4.52 9.99
9/28/2021 11:15:00 AM 14.77 58.586 0.046 6.69 5.72 9.95
9/28/2021 11:30:00 AM 14.78 58.604 0.046 6.7 4.88 9.91
9/28/2021 11:45:00 AM 14.8 58.64 0.047 6.69 4.57 9.91
9/28/2021 12:00:00 PM 14.83 58.694 0.047 6.7 3.73 9.93
9/28/2021 12:15:00 PM 14.87 58.766 0.045 6.71 4.55 9.97
9/28/2021 12:30:00 PM 14.91 58.838 0.047 6.72 3.93 9.98
9/28/2021 12:45:00 PM 14.96 58.928 0.047 6.73 4.95 9.97
9/28/2021 1:00:00 PM 15.01 59.018 0.046 6.74 4.32 9.96
9/28/2021 1:15:00 PM 15.05 59.09 0.047 6.75 3.36 9.92
9/28/2021 1:30:00 PM 15.07 59.126 0.047 6.76 3.16 9.88
9/28/2021 1:45:00 PM 15.1 59.18 0.047 6.73 4.08 9.88
9/28/2021 2:00:00 PM 15.15 59.27 0.048 6.75 4.7 9.91
9/28/2021 2:15:00 PM 15.19 59.342 0.048 6.72 2.85 9.89
9/28/2021 2:30:00 PM 15.23 59.414 0.048 6.77 2.78 9.9
9/28/2021 2:45:00 PM 15.28 59.504 0.048 6.77 3.57 9.88
9/28/2021 3:00:00 PM 15.31 59.558 0.047 6.79 2.84 9.87
9/28/2021 3:15:00 PM 15.33 59.594 0.047 6.78 2.63 9.87
9/28/2021 3:30:00 PM 15.37 59.666 0.047 6.78 4.38 9.87
9/28/2021 3:45:00 PM 15.39 59.702 0.047 6.79 4.26 9.86
9/28/2021 4:00:00 PM 15.42 59.756 0.048 6.79 2.62 9.87
9/28/2021 4:15:00 PM 15.43 59.774 0.046 6.78 4.84 9.84
9/28/2021 4:30:00 PM 15.43 59.774 0.048 6.79 3.06 9.84
9/28/2021 4:45:00 PM 15.42 59.756 0.047 6.77 3.69 9.81
9/28/2021 5:00:00 PM 15.41 59.738 0.048 6.75 2.85 9.79
9/28/2021 5:15:00 PM 15.4 59.72 0.048 6.77 2.38 9.8
9/28/2021 5:30:00 PM 15.4 59.72 0.046 6.76 3.53 9.81
9/28/2021 5:45:00 PM 15.39 59.702 0.048 6.77 2.67 9.8
9/28/2021 6:00:00 PM 15.38 59.684 0.048 6.75 4.06 9.78
9/28/2021 6:15:00 PM 15.36 59.648 0.048 6.76 4.24 9.77
9/28/2021 6:30:00 PM 15.34 59.612 0.048 6.75 3.81 9.75
9/28/2021 6:45:00 PM 15.31 59.558 0.048 6.74 3.5 9.75
9/28/2021 7:00:00 PM 15.27 59.486 0.048 6.74 4.59 9.75
9/28/2021 7:15:00 PM 15.24 59.432 0.043 6.74 3.26 9.76
9/28/2021 7:30:00 PM 15.2 59.36 0.048 6.74 2.19 9.77
9/28/2021 7:45:00 PM 15.16 59.288 0.048 6.73 2.29 9.77
9/28/2021 8:00:00 PM 15.11 59.198 0.048 6.71 2.32 9.78
9/28/2021 8:15:00 PM 15.07 59.126 0.045 6.71 3.11 9.8
9/28/2021 8:30:00 PM 15.02 59.036 0.048 6.71 4.25 9.8
9/28/2021 8:45:00 PM 14.98 58.964 0.042 6.72 3.08 9.82
9/28/2021 9:00:00 PM 14.93 58.874 0.045 6.71 3.73 9.83
9/28/2021 9:15:00 PM 14.89 58.802 0.045 6.71 2.97 9.84
9/28/2021 9:30:00 PM 14.85 58.73 0.048 6.72 5.08 9.85
9/28/2021 9:45:00 PM 14.81 58.658 0.048 6.71 3.09 9.86
9/28/2021 10:00:00 PM 14.77 58.586 0.046 6.73 3.22 9.87
9/28/2021 10:15:00 PM 14.73 58.514 0.047 6.67 3.94 9.88
9/28/2021 10:30:00 PM 14.7 58.46 0.047 6.71 3.06 9.89
9/28/2021 10:45:00 PM 14.66 58.388 0.047 6.71 4.45 9.9
9/28/2021 11:00:00 PM 14.62 58.316 0.047 6.71 2.09 9.91
9/28/2021 11:15:00 PM 14.59 58.262 0.047 6.7 3.3 9.93
9/28/2021 11:30:00 PM 14.55 58.19 0.047 6.7 2.18 9.93
9/28/2021 11:45:00 PM 14.51 58.118 0.047 6.69 2.12 9.94
9/29/2021 12:00:00 AM 14.47 58.046 0.047 6.69 4.02 9.95
9/29/2021 12:15:00 AM 14.43 57.974 0.046 6.72 3.5 9.96
9/29/2021 12:30:00 AM 14.38 57.884 0.047 6.69 2.04 9.97
9/29/2021 12:45:00 AM 14.32 57.776 0.046 6.68 2.39 9.98
9/29/2021 1:00:00 AM 14.27 57.686 0.047 6.68 4.37 9.99
9/29/2021 1:15:00 AM 14.22 57.596 0.047 6.68 2.32 10
9/29/2021 1:30:00 AM 14.16 57.488 0.046 6.69 3.52 10.02
9/29/2021 1:45:00 AM 14.1 57.38 0.046 6.68 2.39 10.02
9/29/2021 2:00:00 AM 14.05 57.29 0.038 6.69 3 10.04
9/29/2021 2:15:00 AM 13.99 57.182 0.047 6.52 2.03 10.05
9/29/2021 2:30:00 AM 13.94 57.092 0.046 6.69 2.57 10.07
9/29/2021 2:45:00 AM 13.87 56.966 0.047 6.69 2.03 10.08
9/29/2021 3:00:00 AM 13.81 56.858 0.047 6.69 2.84 10.1
9/29/2021 3:15:00 AM 13.75 56.75 0.039 6.68 2.69 10.11
9/29/2021 3:30:00 AM 13.68 56.624 0.038 6.68 3.17 10.12
9/29/2021 3:45:00 AM 13.62 56.516 0.046 6.68 2.23 10.13
9/29/2021 4:00:00 AM 13.56 56.408 0.046 6.68 3.19 10.15
9/29/2021 4:15:00 AM 13.5 56.3 0.047 6.7 2.39 10.16
9/29/2021 4:30:00 AM 13.44 56.192 0.045 6.69 2.79 10.18
9/29/2021 4:45:00 AM 13.38 56.084 0.042 6.68 3.25 10.19
9/29/2021 5:00:00 AM 13.33 55.994 0.045 6.68 3.04 10.2
9/29/2021 5:15:00 AM 13.27 55.886 0.047 6.66 5.26 10.22
9/29/2021 5:30:00 AM 13.21 55.778 0.047 6.66 2.05 10.24
9/29/2021 5:45:00 AM 13.16 55.688 0.047 6.65 2.34 10.25
9/29/2021 6:00:00 AM 13.11 55.598 0.047 6.67 2.11 10.27
9/29/2021 6:15:00 AM 13.06 55.508 0.047 6.67 2.84 10.28
9/29/2021 6:30:00 AM 13 55.4 0.046 6.67 2.69 10.29
9/29/2021 6:45:00 AM 12.94 55.292 0.046 6.67 2.44 10.31
9/29/2021 7:00:00 AM 12.89 55.202 0.047 6.67 4 10.32
9/29/2021 7:15:00 AM 12.84 55.112 0.047 6.66 3.51 10.33
9/29/2021 7:30:00 AM 12.78 55.004 0.047 6.66 2.46 10.36
9/29/2021 7:45:00 AM 12.73 54.914 0.047 6.66 3.08 10.38
9/29/2021 8:00:00 AM 12.69 54.842 0.047 6.68 2.9 10.4
9/29/2021 8:15:00 AM 12.65 54.77 0.045 6.67 4.03 10.42
9/29/2021 8:30:00 AM 12.62 54.716 0.047 6.67 3.7 10.43
9/29/2021 8:45:00 AM 12.6 54.68 0.046 6.68 2.95 10.46
9/29/2021 9:00:00 AM 12.59 54.662 0.046 6.68 3.37 10.48
9/29/2021 9:15:00 AM 12.6 54.68 0.047 6.73 4.24 10.49
9/29/2021 9:30:00 AM 12.62 54.716 0.047 6.68 3.29 10.5
9/29/2021 9:45:00 AM 12.65 54.77 0.047 6.73 1.89 10.52
9/29/2021 10:00:00 AM 12.68 54.824 0.047 6.72 3.88 10.54
9/29/2021 10:15:00 AM 12.73 54.914 0.047 6.74 3.86 10.54
9/29/2021 10:30:00 AM 12.76 54.968 0.047 6.74 2.73 10.53
9/29/2021 10:45:00 AM 12.82 55.076 0.045 6.74 3.01 10.52
9/29/2021 11:00:00 AM 12.86 55.148 0.047 6.77 3.02 10.52
9/29/2021 11:15:00 AM 12.93 55.274 0.047 6.75 3.17 10.51
9/29/2021 11:30:00 AM 13.01 55.418 0.047 6.68 2.42 10.5
9/29/2021 11:45:00 AM 13.11 55.598 0.047 6.75 4.47 10.47
9/29/2021 12:00:00 PM 13.22 55.796 0.047 6.76 2.42 10.46
9/29/2021 12:15:00 PM 13.29 55.922 0.047 6.76 2.22 10.43
9/29/2021 12:30:00 PM 13.42 56.156 0.044 6.77 2.58 10.42
9/29/2021 12:45:00 PM 13.51 56.318 0.047 6.78 3.58 10.41
9/29/2021 1:00:00 PM 13.52 56.336 0.047 6.77 1.84 10.39
9/29/2021 1:15:00 PM 13.55 56.39 0.046 6.76 2.97 10.38
9/29/2021 1:30:00 PM 13.57 56.426 0.047 6.78 2.13 10.36
9/29/2021 1:45:00 PM 13.57 56.426 0.046 6.67 2.48 10.35
9/29/2021 2:00:00 PM 13.61 56.498 0.044 6.78 2.59 10.36
9/29/2021 2:15:00 PM 13.62 56.516 0.046 6.79 4.21 10.36
9/29/2021 2:30:00 PM 13.65 56.57 0.046 6.79 2.22 10.34
9/29/2021 2:45:00 PM 13.72 56.696 0.047 6.77 3.68 10.34
9/29/2021 3:00:00 PM 13.74 56.732 0.047 6.78 3.58 10.31
9/29/2021 3:15:00 PM 13.77 56.786 0.046 6.78 3.2 10.29
9/29/2021 3:30:00 PM 13.79 56.822 0.047 6.74 3.51 10.27
9/29/2021 3:45:00 PM 13.82 56.876 0.047 6.77 1.79 10.25
9/29/2021 4:00:00 PM 13.84 56.912 0.047 6.77 1.92 10.26
9/29/2021 4:15:00 PM 13.84 56.912 0.047 6.71 1.83 10.25
9/29/2021 4:30:00 PM 13.84 56.912 0.047 6.76 2.77 10.24
9/29/2021 4:45:00 PM 13.84 56.912 0.046 6.75 2.32 10.23
9/29/2021 5:00:00 PM 13.85 56.93 0.047 6.75 1.81 10.22
9/29/2021 5:15:00 PM 13.84 56.912 0.047 6.73 3.66 10.2
9/29/2021 5:30:00 PM 13.83 56.894 0.047 6.74 4.08 10.2
9/29/2021 5:45:00 PM 13.82 56.876 0.047 6.73 4.76 10.18
9/29/2021 6:00:00 PM 13.81 56.858 0.047 6.75 2.56 10.17
9/29/2021 6:15:00 PM 13.8 56.84 0.047 6.74 2.39 10.16
9/29/2021 6:30:00 PM 13.78 56.804 0.046 6.74 3.13 10.15
9/29/2021 6:45:00 PM 13.77 56.786 0.047 6.73 2.56 10.15
9/29/2021 7:00:00 PM 13.75 56.75 0.048 6.71 3.9 10.14
9/29/2021 7:15:00 PM 13.73 56.714 0.048 6.72 2.02 10.14
9/29/2021 7:30:00 PM 13.71 56.678 0.048 6.7 3.45 10.13
9/29/2021 7:45:00 PM 13.7 56.66 0.048 6.71 1.97 10.14
9/29/2021 8:00:00 PM 13.68 56.624 0.046 6.71 2.38 10.14
9/29/2021 8:15:00 PM 13.67 56.606 0.039 6.71 2.89 10.14
9/29/2021 8:30:00 PM 13.66 56.588 0.046 6.71 3.2 10.14
9/29/2021 8:45:00 PM 13.64 56.552 0.048 6.71 1.91 10.15
9/29/2021 9:00:00 PM 13.62 56.516 0.047 6.7 4.25 10.16
9/29/2021 9:15:00 PM 13.6 56.48 0.048 6.69 3.97 10.16
9/29/2021 9:30:00 PM 13.58 56.444 0.047 6.7 2.92 10.17
9/29/2021 9:45:00 PM 13.56 56.408 0.045 6.71 3.39 10.17
9/29/2021 10:00:00 PM 13.55 56.39 0.047 6.66 3.46 10.18
9/29/2021 10:15:00 PM 13.53 56.354 0.044 6.69 3.21 10.18
9/29/2021 10:30:00 PM 13.52 56.336 0.046 6.7 3.5 10.19
9/29/2021 10:45:00 PM 13.51 56.318 0.04 6.69 3.79 10.19
9/29/2021 11:00:00 PM 13.49 56.282 0.048 6.68 3.63 10.19
9/29/2021 11:15:00 PM 13.47 56.246 0.048 6.68 2.91 10.19
9/29/2021 11:30:00 PM 13.45 56.21 0.048 6.69 1.92 10.2
9/29/2021 11:45:00 PM 13.42 56.156 0.048 6.68 3.62 10.2
9/30/2021 12:00:00 AM 13.4 56.12 0.048 6.68 3.37 10.2
9/30/2021 12:15:00 AM 13.37 56.066 0.048 6.7 4.45 10.21
9/30/2021 12:30:00 AM 13.34 56.012 0.048 6.54 2.13 10.22
9/30/2021 12:45:00 AM 13.31 55.958 0.045 6.71 2.58 10.23
9/30/2021 1:00:00 AM 13.28 55.904 0.048 6.63 1.91 10.23
9/30/2021 1:15:00 AM 13.26 55.868 0.047 6.69 2.67 10.24
9/30/2021 1:30:00 AM 13.23 55.814 0.048 6.69 1.89 10.25
9/30/2021 1:45:00 AM 13.19 55.742 0.047 6.71 3.27 10.26
9/30/2021 2:00:00 AM 13.16 55.688 0.048 6.71 1.86 10.27
9/30/2021 2:15:00 AM 13.13 55.634 0.048 6.67 3.06 10.27
9/30/2021 2:30:00 AM 13.09 55.562 0.048 6.68 2.82 10.28
9/30/2021 2:45:00 AM 13.06 55.508 0.048 6.69 3.29 10.29
9/30/2021 3:00:00 AM 13.02 55.436 0.045 6.57 2.91 10.3
9/30/2021 3:15:00 AM 12.98 55.364 0.048 6.55 1.91 10.31
9/30/2021 3:30:00 AM 12.95 55.31 0.047 6.68 3.13 10.31
9/30/2021 3:45:00 AM 12.91 55.238 0.048 6.68 4.22 10.32
9/30/2021 4:00:00 AM 12.87 55.166 0.048 6.68 3.22 10.33
9/30/2021 4:15:00 AM 12.84 55.112 0.046 6.67 2.61 10.34
9/30/2021 4:30:00 AM 12.8 55.04 0.046 6.66 3.29 10.35
9/30/2021 4:45:00 AM 12.76 54.968 0.048 6.68 1.84 10.36
9/30/2021 5:00:00 AM 12.72 54.896 0.047 6.69 2.54 10.37
9/30/2021 5:15:00 AM 12.69 54.842 0.048 6.67 2.72 10.38
9/30/2021 5:30:00 AM 12.65 54.77 0.046 6.68 2.25 10.4
9/30/2021 5:45:00 AM 12.61 54.698 0.048 6.68 3.88 10.4
9/30/2021 6:00:00 AM 12.57 54.626 0.048 6.68 2.08 10.41
9/30/2021 6:15:00 AM 12.53 54.554 0.047 6.69 2.93 10.42
9/30/2021 6:30:00 AM 12.5 54.5 0.048 6.7 2.78 10.43
9/30/2021 6:45:00 AM 12.46 54.428 0.048 6.7 2.49 10.44
9/30/2021 7:00:00 AM 12.43 54.374 0.048 6.69 3.41 10.45
9/30/2021 7:15:00 AM 12.41 54.338 0.048 6.69 4.24 10.46
9/30/2021 7:30:00 AM 12.4 54.32 0.046 6.7 2.48 10.47
9/30/2021 7:45:00 AM 12.38 54.284 0.048 6.7 3.13 10.49
9/30/2021 8:00:00 AM 12.38 54.284 0.047 6.67 3.39 10.5
9/30/2021 8:15:00 AM 12.38 54.284 0.047 6.69 2.5 10.52
9/30/2021 8:30:00 AM 12.39 54.302 0.048 6.71 2.08 10.54
9/30/2021 8:45:00 AM 12.4 54.32 0.048 6.72 2.64 10.55
9/30/2021 9:00:00 AM 12.42 54.356 0.046 6.74 2.33 10.56
9/30/2021 9:15:00 AM 12.43 54.374 0.047 6.7 2.63 10.57
9/30/2021 9:30:00 AM 12.47 54.446 0.048 6.74 3.09 10.58
9/30/2021 9:45:00 AM 12.52 54.536 0.048 6.75 3.27 10.6
9/30/2021 10:00:00 AM 12.56 54.608 0.048 6.76 2.47 10.6
9/30/2021 10:15:00 AM 12.62 54.716 0.048